<?xml version="1.0" encoding="UTF-8" standalone="no" ?>
<gpx xmlns="http://www.topografix.com/GPX/1/1" xmlns:xsi="http://www.w3.org/2001/XMLSchema-instance" xsi:schemaLocation="http://www.topografix.com/GPX/1/1 http://www.topografix.com/GPX/1/1/gpx.xsd" version="1.1" creator="VisuGPX - https://www.visugpx.com">
  <metadata>
    <name>26-CD-Vercors </name>
    <desc><![CDATA[26-CD-Vercors : Léoncel]]></desc>
  </metadata>
  <trk>
    <name><![CDATA[2015-06-25-leoncel]]></name>
    <trkseg>
      <trkpt lat="44.90718" lon="5.18171">
        <ele>1055.8</ele>
        <time>2015-06-25T07:40:34Z</time>
      </trkpt>
      <trkpt lat="44.90717" lon="5.18159">
        <ele>1062.9</ele>
        <time>2015-06-25T07:45:01Z</time>
      </trkpt>
      <trkpt lat="44.90716" lon="5.18158">
        <ele>1063.1</ele>
        <time>2015-06-25T07:45:02Z</time>
      </trkpt>
      <trkpt lat="44.90711" lon="5.18136">
        <ele>1067.1</ele>
        <time>2015-06-25T07:45:31Z</time>
      </trkpt>
      <trkpt lat="44.90714" lon="5.18125">
        <ele>1069.2</ele>
        <time>2015-06-25T07:45:41Z</time>
      </trkpt>
      <trkpt lat="44.90709" lon="5.18114">
        <ele>1071.1</ele>
        <time>2015-06-25T07:45:50Z</time>
      </trkpt>
      <trkpt lat="44.90706" lon="5.18102">
        <ele>1071.8</ele>
        <time>2015-06-25T07:46:03Z</time>
      </trkpt>
      <trkpt lat="44.90705" lon="5.18101">
        <ele>1072</ele>
        <time>2015-06-25T07:46:04Z</time>
      </trkpt>
      <trkpt lat="44.90699" lon="5.18081">
        <ele>1074.7</ele>
        <time>2015-06-25T07:46:26Z</time>
      </trkpt>
      <trkpt lat="44.90693" lon="5.18073">
        <ele>1076</ele>
        <time>2015-06-25T07:46:34Z</time>
      </trkpt>
      <trkpt lat="44.90691" lon="5.18061">
        <ele>1076.9</ele>
        <time>2015-06-25T07:46:40Z</time>
      </trkpt>
      <trkpt lat="44.90686" lon="5.1805">
        <ele>1079.7</ele>
        <time>2015-06-25T07:46:56Z</time>
      </trkpt>
      <trkpt lat="44.90686" lon="5.18038">
        <ele>1081.1</ele>
        <time>2015-06-25T07:47:07Z</time>
      </trkpt>
      <trkpt lat="44.90686" lon="5.18037">
        <ele>1081.5</ele>
        <time>2015-06-25T07:47:08Z</time>
      </trkpt>
      <trkpt lat="44.90681" lon="5.18016">
        <ele>1083.7</ele>
        <time>2015-06-25T07:47:27Z</time>
      </trkpt>
      <trkpt lat="44.90681" lon="5.18004">
        <ele>1083.5</ele>
        <time>2015-06-25T07:47:33Z</time>
      </trkpt>
      <trkpt lat="44.90676" lon="5.17994">
        <ele>1084.3</ele>
        <time>2015-06-25T07:47:39Z</time>
      </trkpt>
      <trkpt lat="44.90672" lon="5.17983">
        <ele>1084.6</ele>
        <time>2015-06-25T07:47:48Z</time>
      </trkpt>
      <trkpt lat="44.90672" lon="5.17973">
        <ele>1085.7</ele>
        <time>2015-06-25T07:47:54Z</time>
      </trkpt>
      <trkpt lat="44.90672" lon="5.17961">
        <ele>1087.3</ele>
        <time>2015-06-25T07:48:01Z</time>
      </trkpt>
      <trkpt lat="44.90668" lon="5.17949">
        <ele>1087.7</ele>
        <time>2015-06-25T07:48:09Z</time>
      </trkpt>
      <trkpt lat="44.90668" lon="5.17948">
        <ele>1087.9</ele>
        <time>2015-06-25T07:48:10Z</time>
      </trkpt>
      <trkpt lat="44.90667" lon="5.17925">
        <ele>1090.5</ele>
        <time>2015-06-25T07:48:28Z</time>
      </trkpt>
      <trkpt lat="44.90667" lon="5.17914">
        <ele>1089.9</ele>
        <time>2015-06-25T07:48:36Z</time>
      </trkpt>
      <trkpt lat="44.90665" lon="5.17903">
        <ele>1091</ele>
        <time>2015-06-25T07:48:43Z</time>
      </trkpt>
      <trkpt lat="44.90668" lon="5.17893">
        <ele>1091.6</ele>
        <time>2015-06-25T07:48:49Z</time>
      </trkpt>
      <trkpt lat="44.90674" lon="5.17885">
        <ele>1091.3</ele>
        <time>2015-06-25T07:48:57Z</time>
      </trkpt>
      <trkpt lat="44.90676" lon="5.17873">
        <ele>1090.6</ele>
        <time>2015-06-25T07:49:05Z</time>
      </trkpt>
      <trkpt lat="44.90678" lon="5.17861">
        <ele>1090.5</ele>
        <time>2015-06-25T07:49:15Z</time>
      </trkpt>
      <trkpt lat="44.90679" lon="5.1786">
        <ele>1090.3</ele>
        <time>2015-06-25T07:49:16Z</time>
      </trkpt>
      <trkpt lat="44.9069" lon="5.17845">
        <ele>1089.4</ele>
        <time>2015-06-25T07:49:27Z</time>
      </trkpt>
      <trkpt lat="44.90694" lon="5.17835">
        <ele>1088.8</ele>
        <time>2015-06-25T07:49:33Z</time>
      </trkpt>
      <trkpt lat="44.90693" lon="5.17823">
        <ele>1088.2</ele>
        <time>2015-06-25T07:49:39Z</time>
      </trkpt>
      <trkpt lat="44.90691" lon="5.17812">
        <ele>1087.9</ele>
        <time>2015-06-25T07:49:45Z</time>
      </trkpt>
      <trkpt lat="44.90687" lon="5.17801">
        <ele>1087.6</ele>
        <time>2015-06-25T07:49:54Z</time>
      </trkpt>
      <trkpt lat="44.90694" lon="5.17797">
        <ele>1087.8</ele>
        <time>2015-06-25T07:50:07Z</time>
      </trkpt>
      <trkpt lat="44.90698" lon="5.17786">
        <ele>1088</ele>
        <time>2015-06-25T07:50:15Z</time>
      </trkpt>
      <trkpt lat="44.90697" lon="5.17774">
        <ele>1088.6</ele>
        <time>2015-06-25T07:50:23Z</time>
      </trkpt>
      <trkpt lat="44.90697" lon="5.17772">
        <ele>1088.5</ele>
        <time>2015-06-25T07:50:24Z</time>
      </trkpt>
      <trkpt lat="44.907" lon="5.17751">
        <ele>1086.2</ele>
        <time>2015-06-25T07:50:37Z</time>
      </trkpt>
      <trkpt lat="44.90703" lon="5.1774">
        <ele>1085.8</ele>
        <time>2015-06-25T07:50:45Z</time>
      </trkpt>
      <trkpt lat="44.90703" lon="5.1773">
        <ele>1085.7</ele>
        <time>2015-06-25T07:50:51Z</time>
      </trkpt>
      <trkpt lat="44.90704" lon="5.17718">
        <ele>1086.7</ele>
        <time>2015-06-25T07:50:58Z</time>
      </trkpt>
      <trkpt lat="44.90708" lon="5.17707">
        <ele>1086.4</ele>
        <time>2015-06-25T07:51:08Z</time>
      </trkpt>
      <trkpt lat="44.9071" lon="5.17695">
        <ele>1087.6</ele>
        <time>2015-06-25T07:51:18Z</time>
      </trkpt>
      <trkpt lat="44.90711" lon="5.17682">
        <ele>1088.9</ele>
        <time>2015-06-25T07:51:31Z</time>
      </trkpt>
      <trkpt lat="44.90712" lon="5.17682">
        <ele>1089</ele>
        <time>2015-06-25T07:51:32Z</time>
      </trkpt>
      <trkpt lat="44.90711" lon="5.1766">
        <ele>1090.2</ele>
        <time>2015-06-25T07:51:52Z</time>
      </trkpt>
      <trkpt lat="44.90711" lon="5.17645">
        <ele>1092</ele>
        <time>2015-06-25T07:52:06Z</time>
      </trkpt>
      <trkpt lat="44.90711" lon="5.17633">
        <ele>1095</ele>
        <time>2015-06-25T07:52:20Z</time>
      </trkpt>
      <trkpt lat="44.90707" lon="5.17622">
        <ele>1096.4</ele>
        <time>2015-06-25T07:52:31Z</time>
      </trkpt>
      <trkpt lat="44.90708" lon="5.1761">
        <ele>1098.2</ele>
        <time>2015-06-25T07:52:44Z</time>
      </trkpt>
      <trkpt lat="44.90709" lon="5.17608">
        <ele>1098.2</ele>
        <time>2015-06-25T07:52:45Z</time>
      </trkpt>
      <trkpt lat="44.90703" lon="5.1759">
        <ele>1099.7</ele>
        <time>2015-06-25T07:52:59Z</time>
      </trkpt>
      <trkpt lat="44.90696" lon="5.17584">
        <ele>1101.4</ele>
        <time>2015-06-25T07:53:06Z</time>
      </trkpt>
      <trkpt lat="44.90693" lon="5.17573">
        <ele>1102.2</ele>
        <time>2015-06-25T07:53:15Z</time>
      </trkpt>
      <trkpt lat="44.90694" lon="5.17561">
        <ele>1102</ele>
        <time>2015-06-25T07:53:25Z</time>
      </trkpt>
      <trkpt lat="44.9069" lon="5.1755">
        <ele>1103.4</ele>
        <time>2015-06-25T07:53:32Z</time>
      </trkpt>
      <trkpt lat="44.90684" lon="5.17541">
        <ele>1103.7</ele>
        <time>2015-06-25T07:53:38Z</time>
      </trkpt>
      <trkpt lat="44.90679" lon="5.17532">
        <ele>1103.9</ele>
        <time>2015-06-25T07:53:45Z</time>
      </trkpt>
      <trkpt lat="44.90679" lon="5.1753">
        <ele>1104.3</ele>
        <time>2015-06-25T07:53:46Z</time>
      </trkpt>
      <trkpt lat="44.90676" lon="5.17511">
        <ele>1104.1</ele>
        <time>2015-06-25T07:53:55Z</time>
      </trkpt>
      <trkpt lat="44.90675" lon="5.17499">
        <ele>1104.5</ele>
        <time>2015-06-25T07:54:03Z</time>
      </trkpt>
      <trkpt lat="44.90668" lon="5.17493">
        <ele>1105.9</ele>
        <time>2015-06-25T07:54:16Z</time>
      </trkpt>
      <trkpt lat="44.90666" lon="5.17482">
        <ele>1108.2</ele>
        <time>2015-06-25T07:54:33Z</time>
      </trkpt>
      <trkpt lat="44.9066" lon="5.17473">
        <ele>1109.9</ele>
        <time>2015-06-25T07:54:42Z</time>
      </trkpt>
      <trkpt lat="44.90665" lon="5.17463">
        <ele>1110.3</ele>
        <time>2015-06-25T07:54:50Z</time>
      </trkpt>
      <trkpt lat="44.90666" lon="5.17461">
        <ele>1110.7</ele>
        <time>2015-06-25T07:54:51Z</time>
      </trkpt>
      <trkpt lat="44.90657" lon="5.17443">
        <ele>1112.6</ele>
        <time>2015-06-25T07:55:07Z</time>
      </trkpt>
      <trkpt lat="44.90652" lon="5.17435">
        <ele>1115.4</ele>
        <time>2015-06-25T07:55:24Z</time>
      </trkpt>
      <trkpt lat="44.9065" lon="5.17423">
        <ele>1116.3</ele>
        <time>2015-06-25T07:55:32Z</time>
      </trkpt>
      <trkpt lat="44.90648" lon="5.17412">
        <ele>1117.1</ele>
        <time>2015-06-25T07:55:39Z</time>
      </trkpt>
      <trkpt lat="44.90649" lon="5.174">
        <ele>1118</ele>
        <time>2015-06-25T07:55:48Z</time>
      </trkpt>
      <trkpt lat="44.90646" lon="5.17389">
        <ele>1118.8</ele>
        <time>2015-06-25T07:56:04Z</time>
      </trkpt>
      <trkpt lat="44.90645" lon="5.17388">
        <ele>1118.5</ele>
        <time>2015-06-25T07:56:05Z</time>
      </trkpt>
      <trkpt lat="44.90643" lon="5.17366">
        <ele>1119</ele>
        <time>2015-06-25T07:56:22Z</time>
      </trkpt>
      <trkpt lat="44.90643" lon="5.17353">
        <ele>1118.2</ele>
        <time>2015-06-25T07:56:34Z</time>
      </trkpt>
      <trkpt lat="44.90647" lon="5.17342">
        <ele>1117.6</ele>
        <time>2015-06-25T07:56:44Z</time>
      </trkpt>
      <trkpt lat="44.90649" lon="5.17331">
        <ele>1117.6</ele>
        <time>2015-06-25T07:56:55Z</time>
      </trkpt>
      <trkpt lat="44.90647" lon="5.17319">
        <ele>1116.8</ele>
        <time>2015-06-25T07:57:03Z</time>
      </trkpt>
      <trkpt lat="44.90648" lon="5.17306">
        <ele>1116</ele>
        <time>2015-06-25T07:57:12Z</time>
      </trkpt>
      <trkpt lat="44.90647" lon="5.17305">
        <ele>1116</ele>
        <time>2015-06-25T07:57:13Z</time>
      </trkpt>
      <trkpt lat="44.90649" lon="5.17282">
        <ele>1116.3</ele>
        <time>2015-06-25T07:57:25Z</time>
      </trkpt>
      <trkpt lat="44.90644" lon="5.17273">
        <ele>1116</ele>
        <time>2015-06-25T07:57:31Z</time>
      </trkpt>
      <trkpt lat="44.90637" lon="5.17266">
        <ele>1115.4</ele>
        <time>2015-06-25T07:57:35Z</time>
      </trkpt>
      <trkpt lat="44.90632" lon="5.17256">
        <ele>1115.9</ele>
        <time>2015-06-25T07:57:42Z</time>
      </trkpt>
      <trkpt lat="44.9063" lon="5.17245">
        <ele>1116.6</ele>
        <time>2015-06-25T07:57:50Z</time>
      </trkpt>
      <trkpt lat="44.90627" lon="5.17234">
        <ele>1115.3</ele>
        <time>2015-06-25T07:57:59Z</time>
      </trkpt>
      <trkpt lat="44.90619" lon="5.1723">
        <ele>1116.1</ele>
        <time>2015-06-25T07:58:06Z</time>
      </trkpt>
      <trkpt lat="44.90614" lon="5.17219">
        <ele>1115.1</ele>
        <time>2015-06-25T07:58:14Z</time>
      </trkpt>
      <trkpt lat="44.90613" lon="5.17217">
        <ele>1115.2</ele>
        <time>2015-06-25T07:58:15Z</time>
      </trkpt>
      <trkpt lat="44.90608" lon="5.17196">
        <ele>1116</ele>
        <time>2015-06-25T07:58:29Z</time>
      </trkpt>
      <trkpt lat="44.90601" lon="5.17187">
        <ele>1116</ele>
        <time>2015-06-25T07:58:35Z</time>
      </trkpt>
      <trkpt lat="44.90597" lon="5.17177">
        <ele>1116.2</ele>
        <time>2015-06-25T07:58:42Z</time>
      </trkpt>
      <trkpt lat="44.90593" lon="5.17167">
        <ele>1115.4</ele>
        <time>2015-06-25T07:58:49Z</time>
      </trkpt>
      <trkpt lat="44.9059" lon="5.17155">
        <ele>1116.6</ele>
        <time>2015-06-25T07:58:56Z</time>
      </trkpt>
      <trkpt lat="44.90586" lon="5.17144">
        <ele>1116</ele>
        <time>2015-06-25T07:59:04Z</time>
      </trkpt>
      <trkpt lat="44.90583" lon="5.17133">
        <ele>1116.1</ele>
        <time>2015-06-25T07:59:11Z</time>
      </trkpt>
      <trkpt lat="44.90579" lon="5.17122">
        <ele>1116.6</ele>
        <time>2015-06-25T07:59:18Z</time>
      </trkpt>
      <trkpt lat="44.90578" lon="5.1712">
        <ele>1116.5</ele>
        <time>2015-06-25T07:59:19Z</time>
      </trkpt>
      <trkpt lat="44.90578" lon="5.171">
        <ele>1117.2</ele>
        <time>2015-06-25T07:59:32Z</time>
      </trkpt>
      <trkpt lat="44.90575" lon="5.17088">
        <ele>1117.7</ele>
        <time>2015-06-25T07:59:39Z</time>
      </trkpt>
      <trkpt lat="44.90572" lon="5.17078">
        <ele>1117.5</ele>
        <time>2015-06-25T07:59:46Z</time>
      </trkpt>
      <trkpt lat="44.90569" lon="5.17066">
        <ele>1117.1</ele>
        <time>2015-06-25T07:59:53Z</time>
      </trkpt>
      <trkpt lat="44.90568" lon="5.17054">
        <ele>1117</ele>
        <time>2015-06-25T08:00:00Z</time>
      </trkpt>
      <trkpt lat="44.90566" lon="5.17042">
        <ele>1117.4</ele>
        <time>2015-06-25T08:00:06Z</time>
      </trkpt>
      <trkpt lat="44.90563" lon="5.17032">
        <ele>1116.4</ele>
        <time>2015-06-25T08:00:14Z</time>
      </trkpt>
      <trkpt lat="44.90562" lon="5.1702">
        <ele>1114.3</ele>
        <time>2015-06-25T08:00:22Z</time>
      </trkpt>
      <trkpt lat="44.90561" lon="5.17019">
        <ele>1114.3</ele>
        <time>2015-06-25T08:00:23Z</time>
      </trkpt>
      <trkpt lat="44.9056" lon="5.16996">
        <ele>1113</ele>
        <time>2015-06-25T08:00:40Z</time>
      </trkpt>
      <trkpt lat="44.90561" lon="5.16984">
        <ele>1112.5</ele>
        <time>2015-06-25T08:00:46Z</time>
      </trkpt>
      <trkpt lat="44.9056" lon="5.16974">
        <ele>1112.8</ele>
        <time>2015-06-25T08:00:53Z</time>
      </trkpt>
      <trkpt lat="44.90557" lon="5.16964">
        <ele>1113.3</ele>
        <time>2015-06-25T08:00:59Z</time>
      </trkpt>
      <trkpt lat="44.90554" lon="5.16953">
        <ele>1113.2</ele>
        <time>2015-06-25T08:01:06Z</time>
      </trkpt>
      <trkpt lat="44.9055" lon="5.16943">
        <ele>1113.1</ele>
        <time>2015-06-25T08:01:12Z</time>
      </trkpt>
      <trkpt lat="44.90545" lon="5.16935">
        <ele>1112.2</ele>
        <time>2015-06-25T08:01:20Z</time>
      </trkpt>
      <trkpt lat="44.9054" lon="5.16926">
        <ele>1112.1</ele>
        <time>2015-06-25T08:01:27Z</time>
      </trkpt>
      <trkpt lat="44.90539" lon="5.16925">
        <ele>1112</ele>
        <time>2015-06-25T08:01:28Z</time>
      </trkpt>
      <trkpt lat="44.90529" lon="5.1691">
        <ele>1112.4</ele>
        <time>2015-06-25T08:01:36Z</time>
      </trkpt>
      <trkpt lat="44.90529" lon="5.16899">
        <ele>1113</ele>
        <time>2015-06-25T08:01:43Z</time>
      </trkpt>
      <trkpt lat="44.90527" lon="5.16887">
        <ele>1113.6</ele>
        <time>2015-06-25T08:01:52Z</time>
      </trkpt>
      <trkpt lat="44.90525" lon="5.16877">
        <ele>1113.1</ele>
        <time>2015-06-25T08:02:05Z</time>
      </trkpt>
      <trkpt lat="44.90522" lon="5.16866">
        <ele>1113.7</ele>
        <time>2015-06-25T08:02:13Z</time>
      </trkpt>
      <trkpt lat="44.9052" lon="5.16856">
        <ele>1114.6</ele>
        <time>2015-06-25T08:02:26Z</time>
      </trkpt>
      <trkpt lat="44.9052" lon="5.16843">
        <ele>1116</ele>
        <time>2015-06-25T08:02:35Z</time>
      </trkpt>
      <trkpt lat="44.90519" lon="5.16842">
        <ele>1116.1</ele>
        <time>2015-06-25T08:02:36Z</time>
      </trkpt>
      <trkpt lat="44.90513" lon="5.16821">
        <ele>1117.7</ele>
        <time>2015-06-25T08:02:51Z</time>
      </trkpt>
      <trkpt lat="44.90514" lon="5.16809">
        <ele>1118.8</ele>
        <time>2015-06-25T08:03:12Z</time>
      </trkpt>
      <trkpt lat="44.90517" lon="5.16798">
        <ele>1118.1</ele>
        <time>2015-06-25T08:03:19Z</time>
      </trkpt>
      <trkpt lat="44.90517" lon="5.16786">
        <ele>1118.1</ele>
        <time>2015-06-25T08:03:27Z</time>
      </trkpt>
      <trkpt lat="44.90523" lon="5.16776">
        <ele>1117.8</ele>
        <time>2015-06-25T08:03:35Z</time>
      </trkpt>
      <trkpt lat="44.90521" lon="5.16765">
        <ele>1118.4</ele>
        <time>2015-06-25T08:03:43Z</time>
      </trkpt>
      <trkpt lat="44.90521" lon="5.16763">
        <ele>1118.1</ele>
        <time>2015-06-25T08:03:44Z</time>
      </trkpt>
      <trkpt lat="44.90513" lon="5.16745">
        <ele>1116.3</ele>
        <time>2015-06-25T08:03:57Z</time>
      </trkpt>
      <trkpt lat="44.90504" lon="5.16743">
        <ele>1116</ele>
        <time>2015-06-25T08:04:08Z</time>
      </trkpt>
      <trkpt lat="44.90496" lon="5.1674">
        <ele>1114.2</ele>
        <time>2015-06-25T08:04:18Z</time>
      </trkpt>
      <trkpt lat="44.90487" lon="5.16741">
        <ele>1113.6</ele>
        <time>2015-06-25T08:04:31Z</time>
      </trkpt>
      <trkpt lat="44.90481" lon="5.16732">
        <ele>1111.1</ele>
        <time>2015-06-25T08:04:45Z</time>
      </trkpt>
      <trkpt lat="44.90481" lon="5.16732">
        <ele>1111.2</ele>
        <time>2015-06-25T08:04:46Z</time>
      </trkpt>
      <trkpt lat="44.90469" lon="5.16737">
        <ele>1109.8</ele>
        <time>2015-06-25T08:05:35Z</time>
      </trkpt>
      <trkpt lat="44.90468" lon="5.16726">
        <ele>1107.8</ele>
        <time>2015-06-25T08:06:17Z</time>
      </trkpt>
      <trkpt lat="44.90468" lon="5.16725">
        <ele>1107.6</ele>
        <time>2015-06-25T08:06:18Z</time>
      </trkpt>
      <trkpt lat="44.9048" lon="5.1671">
        <ele>1102.9</ele>
        <time>2015-06-25T08:06:36Z</time>
      </trkpt>
      <trkpt lat="44.90483" lon="5.16699">
        <ele>1101.8</ele>
        <time>2015-06-25T08:06:47Z</time>
      </trkpt>
      <trkpt lat="44.90488" lon="5.16689">
        <ele>1099.1</ele>
        <time>2015-06-25T08:06:57Z</time>
      </trkpt>
      <trkpt lat="44.9049" lon="5.16678">
        <ele>1097.4</ele>
        <time>2015-06-25T08:07:02Z</time>
      </trkpt>
      <trkpt lat="44.9049" lon="5.16666">
        <ele>1097.2</ele>
        <time>2015-06-25T08:07:07Z</time>
      </trkpt>
      <trkpt lat="44.90493" lon="5.16654">
        <ele>1095.9</ele>
        <time>2015-06-25T08:07:14Z</time>
      </trkpt>
      <trkpt lat="44.90492" lon="5.16642">
        <ele>1095.7</ele>
        <time>2015-06-25T08:07:23Z</time>
      </trkpt>
      <trkpt lat="44.90493" lon="5.1664">
        <ele>1095.8</ele>
        <time>2015-06-25T08:07:24Z</time>
      </trkpt>
      <trkpt lat="44.90495" lon="5.1662">
        <ele>1094.2</ele>
        <time>2015-06-25T08:07:38Z</time>
      </trkpt>
      <trkpt lat="44.905" lon="5.1661">
        <ele>1093.2</ele>
        <time>2015-06-25T08:07:44Z</time>
      </trkpt>
      <trkpt lat="44.90497" lon="5.16598">
        <ele>1090.9</ele>
        <time>2015-06-25T08:07:52Z</time>
      </trkpt>
      <trkpt lat="44.90497" lon="5.16586">
        <ele>1090.8</ele>
        <time>2015-06-25T08:07:59Z</time>
      </trkpt>
      <trkpt lat="44.90492" lon="5.16576">
        <ele>1087.8</ele>
        <time>2015-06-25T08:08:10Z</time>
      </trkpt>
      <trkpt lat="44.90485" lon="5.1657">
        <ele>1086.4</ele>
        <time>2015-06-25T08:08:17Z</time>
      </trkpt>
      <trkpt lat="44.90479" lon="5.16561">
        <ele>1086.6</ele>
        <time>2015-06-25T08:08:26Z</time>
      </trkpt>
      <trkpt lat="44.90478" lon="5.1656">
        <ele>1086.5</ele>
        <time>2015-06-25T08:08:27Z</time>
      </trkpt>
      <trkpt lat="44.90472" lon="5.1654">
        <ele>1084.6</ele>
        <time>2015-06-25T08:08:39Z</time>
      </trkpt>
      <trkpt lat="44.90468" lon="5.16528">
        <ele>1083</ele>
        <time>2015-06-25T08:08:48Z</time>
      </trkpt>
      <trkpt lat="44.90462" lon="5.16521">
        <ele>1082</ele>
        <time>2015-06-25T08:08:53Z</time>
      </trkpt>
      <trkpt lat="44.90456" lon="5.16512">
        <ele>1080.5</ele>
        <time>2015-06-25T08:09:01Z</time>
      </trkpt>
      <trkpt lat="44.90451" lon="5.16503">
        <ele>1078.6</ele>
        <time>2015-06-25T08:09:12Z</time>
      </trkpt>
      <trkpt lat="44.90449" lon="5.16491">
        <ele>1076.6</ele>
        <time>2015-06-25T08:09:21Z</time>
      </trkpt>
      <trkpt lat="44.90447" lon="5.16479">
        <ele>1074.9</ele>
        <time>2015-06-25T08:09:29Z</time>
      </trkpt>
      <trkpt lat="44.90447" lon="5.16478">
        <ele>1075.4</ele>
        <time>2015-06-25T08:09:30Z</time>
      </trkpt>
      <trkpt lat="44.90439" lon="5.16459">
        <ele>1072.5</ele>
        <time>2015-06-25T08:09:45Z</time>
      </trkpt>
      <trkpt lat="44.90436" lon="5.16448">
        <ele>1071.6</ele>
        <time>2015-06-25T08:09:55Z</time>
      </trkpt>
      <trkpt lat="44.90434" lon="5.16436">
        <ele>1070.6</ele>
        <time>2015-06-25T08:10:07Z</time>
      </trkpt>
      <trkpt lat="44.90431" lon="5.16424">
        <ele>1066.2</ele>
        <time>2015-06-25T08:12:30Z</time>
      </trkpt>
      <trkpt lat="44.90431" lon="5.16422">
        <ele>1065.8</ele>
        <time>2015-06-25T08:12:31Z</time>
      </trkpt>
      <trkpt lat="44.90419" lon="5.16406">
        <ele>1063.7</ele>
        <time>2015-06-25T08:12:46Z</time>
      </trkpt>
      <trkpt lat="44.90412" lon="5.16399">
        <ele>1061</ele>
        <time>2015-06-25T08:12:56Z</time>
      </trkpt>
      <trkpt lat="44.90404" lon="5.164">
        <ele>1061</ele>
        <time>2015-06-25T08:13:11Z</time>
      </trkpt>
      <trkpt lat="44.90395" lon="5.164">
        <ele>1061.7</ele>
        <time>2015-06-25T08:13:20Z</time>
      </trkpt>
      <trkpt lat="44.90388" lon="5.16399">
        <ele>1061.8</ele>
        <time>2015-06-25T08:13:25Z</time>
      </trkpt>
      <trkpt lat="44.90382" lon="5.16409">
        <ele>1061.5</ele>
        <time>2015-06-25T08:13:44Z</time>
      </trkpt>
      <trkpt lat="44.90383" lon="5.1641">
        <ele>1061.6</ele>
        <time>2015-06-25T08:13:45Z</time>
      </trkpt>
      <trkpt lat="44.90365" lon="5.1641">
        <ele>1064.1</ele>
        <time>2015-06-25T08:14:47Z</time>
      </trkpt>
      <trkpt lat="44.90363" lon="5.16409">
        <ele>1064.2</ele>
        <time>2015-06-25T08:14:48Z</time>
      </trkpt>
      <trkpt lat="44.90371" lon="5.16399">
        <ele>1063.5</ele>
        <time>2015-06-25T08:16:34Z</time>
      </trkpt>
      <trkpt lat="44.90381" lon="5.16381">
        <ele>1060</ele>
        <time>2015-06-25T08:17:41Z</time>
      </trkpt>
      <trkpt lat="44.90382" lon="5.16381">
        <ele>1059.8</ele>
        <time>2015-06-25T08:17:42Z</time>
      </trkpt>
      <trkpt lat="44.90389" lon="5.16359">
        <ele>1059</ele>
        <time>2015-06-25T08:18:07Z</time>
      </trkpt>
      <trkpt lat="44.90384" lon="5.1635">
        <ele>1059.1</ele>
        <time>2015-06-25T08:18:17Z</time>
      </trkpt>
      <trkpt lat="44.90381" lon="5.16338">
        <ele>1058.3</ele>
        <time>2015-06-25T08:18:28Z</time>
      </trkpt>
      <trkpt lat="44.90383" lon="5.16328">
        <ele>1059.4</ele>
        <time>2015-06-25T08:18:35Z</time>
      </trkpt>
      <trkpt lat="44.90381" lon="5.16316">
        <ele>1060.3</ele>
        <time>2015-06-25T08:18:44Z</time>
      </trkpt>
      <trkpt lat="44.90382" lon="5.16315">
        <ele>1060.4</ele>
        <time>2015-06-25T08:18:45Z</time>
      </trkpt>
      <trkpt lat="44.90389" lon="5.16294">
        <ele>1061.4</ele>
        <time>2015-06-25T08:19:06Z</time>
      </trkpt>
      <trkpt lat="44.90392" lon="5.16283">
        <ele>1060.7</ele>
        <time>2015-06-25T08:19:15Z</time>
      </trkpt>
      <trkpt lat="44.90392" lon="5.16272">
        <ele>1060.5</ele>
        <time>2015-06-25T08:19:21Z</time>
      </trkpt>
      <trkpt lat="44.90391" lon="5.1626">
        <ele>1059.2</ele>
        <time>2015-06-25T08:19:30Z</time>
      </trkpt>
      <trkpt lat="44.9039" lon="5.16248">
        <ele>1059.3</ele>
        <time>2015-06-25T08:19:45Z</time>
      </trkpt>
      <trkpt lat="44.90391" lon="5.16247">
        <ele>1058.7</ele>
        <time>2015-06-25T08:19:46Z</time>
      </trkpt>
      <trkpt lat="44.90383" lon="5.16228">
        <ele>1056.7</ele>
        <time>2015-06-25T08:20:02Z</time>
      </trkpt>
      <trkpt lat="44.90385" lon="5.16215">
        <ele>1054</ele>
        <time>2015-06-25T08:20:15Z</time>
      </trkpt>
      <trkpt lat="44.90389" lon="5.16205">
        <ele>1054.2</ele>
        <time>2015-06-25T08:20:26Z</time>
      </trkpt>
      <trkpt lat="44.90381" lon="5.16199">
        <ele>1051.6</ele>
        <time>2015-06-25T08:20:33Z</time>
      </trkpt>
      <trkpt lat="44.90375" lon="5.16191">
        <ele>1051.7</ele>
        <time>2015-06-25T08:20:45Z</time>
      </trkpt>
      <trkpt lat="44.9037" lon="5.16181">
        <ele>1051</ele>
        <time>2015-06-25T08:20:56Z</time>
      </trkpt>
      <trkpt lat="44.90369" lon="5.1618">
        <ele>1050.9</ele>
        <time>2015-06-25T08:20:57Z</time>
      </trkpt>
      <trkpt lat="44.90359" lon="5.16164">
        <ele>1050.5</ele>
        <time>2015-06-25T08:21:09Z</time>
      </trkpt>
      <trkpt lat="44.90355" lon="5.16154">
        <ele>1048.5</ele>
        <time>2015-06-25T08:21:19Z</time>
      </trkpt>
      <trkpt lat="44.90351" lon="5.16143">
        <ele>1049.1</ele>
        <time>2015-06-25T08:21:27Z</time>
      </trkpt>
      <trkpt lat="44.90346" lon="5.16133">
        <ele>1049.5</ele>
        <time>2015-06-25T08:21:34Z</time>
      </trkpt>
      <trkpt lat="44.90341" lon="5.16124">
        <ele>1049.7</ele>
        <time>2015-06-25T08:21:42Z</time>
      </trkpt>
      <trkpt lat="44.90337" lon="5.16114">
        <ele>1048.5</ele>
        <time>2015-06-25T08:21:46Z</time>
      </trkpt>
      <trkpt lat="44.90333" lon="5.16103">
        <ele>1047.9</ele>
        <time>2015-06-25T08:21:54Z</time>
      </trkpt>
      <trkpt lat="44.90328" lon="5.16094">
        <ele>1047.1</ele>
        <time>2015-06-25T08:22:10Z</time>
      </trkpt>
      <trkpt lat="44.90328" lon="5.16093">
        <ele>1047.2</ele>
        <time>2015-06-25T08:22:11Z</time>
      </trkpt>
      <trkpt lat="44.90312" lon="5.16096">
        <ele>1047.7</ele>
        <time>2015-06-25T08:22:43Z</time>
      </trkpt>
      <trkpt lat="44.90303" lon="5.16097">
        <ele>1047.7</ele>
        <time>2015-06-25T08:22:57Z</time>
      </trkpt>
      <trkpt lat="44.90295" lon="5.16093">
        <ele>1048.2</ele>
        <time>2015-06-25T08:23:05Z</time>
      </trkpt>
      <trkpt lat="44.90289" lon="5.16085">
        <ele>1045.3</ele>
        <time>2015-06-25T08:23:22Z</time>
      </trkpt>
      <trkpt lat="44.90289" lon="5.16083">
        <ele>1045.5</ele>
        <time>2015-06-25T08:23:23Z</time>
      </trkpt>
      <trkpt lat="44.90278" lon="5.16069">
        <ele>1045.6</ele>
        <time>2015-06-25T08:23:35Z</time>
      </trkpt>
      <trkpt lat="44.90272" lon="5.16061">
        <ele>1044.8</ele>
        <time>2015-06-25T08:23:42Z</time>
      </trkpt>
      <trkpt lat="44.90265" lon="5.16054">
        <ele>1042.7</ele>
        <time>2015-06-25T08:24:07Z</time>
      </trkpt>
      <trkpt lat="44.90258" lon="5.16047">
        <ele>1042.5</ele>
        <time>2015-06-25T08:24:18Z</time>
      </trkpt>
      <trkpt lat="44.90251" lon="5.16041">
        <ele>1042.7</ele>
        <time>2015-06-25T08:24:28Z</time>
      </trkpt>
      <trkpt lat="44.9025" lon="5.1604">
        <ele>1042.5</ele>
        <time>2015-06-25T08:24:29Z</time>
      </trkpt>
      <trkpt lat="44.9025" lon="5.16022">
        <ele>1041.9</ele>
        <time>2015-06-25T08:24:59Z</time>
      </trkpt>
      <trkpt lat="44.90241" lon="5.16023">
        <ele>1042.1</ele>
        <time>2015-06-25T08:25:21Z</time>
      </trkpt>
      <trkpt lat="44.90237" lon="5.16013">
        <ele>1042</ele>
        <time>2015-06-25T08:26:14Z</time>
      </trkpt>
      <trkpt lat="44.90238" lon="5.16011">
        <ele>1041.8</ele>
        <time>2015-06-25T08:26:15Z</time>
      </trkpt>
      <trkpt lat="44.90245" lon="5.15994">
        <ele>1041.4</ele>
        <time>2015-06-25T08:26:25Z</time>
      </trkpt>
      <trkpt lat="44.90244" lon="5.15982">
        <ele>1041.3</ele>
        <time>2015-06-25T08:26:35Z</time>
      </trkpt>
      <trkpt lat="44.90239" lon="5.15973">
        <ele>1042</ele>
        <time>2015-06-25T08:26:45Z</time>
      </trkpt>
      <trkpt lat="44.90232" lon="5.15965">
        <ele>1043.4</ele>
        <time>2015-06-25T08:27:10Z</time>
      </trkpt>
      <trkpt lat="44.90239" lon="5.1596">
        <ele>1042.9</ele>
        <time>2015-06-25T08:27:48Z</time>
      </trkpt>
      <trkpt lat="44.90241" lon="5.1596">
        <ele>1043.3</ele>
        <time>2015-06-25T08:27:49Z</time>
      </trkpt>
      <trkpt lat="44.90253" lon="5.1595">
        <ele>1043.4</ele>
        <time>2015-06-25T08:27:59Z</time>
      </trkpt>
      <trkpt lat="44.9026" lon="5.15944">
        <ele>1043.1</ele>
        <time>2015-06-25T08:28:05Z</time>
      </trkpt>
      <trkpt lat="44.90265" lon="5.15935">
        <ele>1042.5</ele>
        <time>2015-06-25T08:28:11Z</time>
      </trkpt>
      <trkpt lat="44.9027" lon="5.15925">
        <ele>1043.3</ele>
        <time>2015-06-25T08:28:19Z</time>
      </trkpt>
      <trkpt lat="44.90273" lon="5.15914">
        <ele>1044</ele>
        <time>2015-06-25T08:28:27Z</time>
      </trkpt>
      <trkpt lat="44.90274" lon="5.15902">
        <ele>1043.9</ele>
        <time>2015-06-25T08:28:34Z</time>
      </trkpt>
      <trkpt lat="44.90277" lon="5.1589">
        <ele>1044.4</ele>
        <time>2015-06-25T08:28:40Z</time>
      </trkpt>
      <trkpt lat="44.90279" lon="5.15878">
        <ele>1044</ele>
        <time>2015-06-25T08:28:49Z</time>
      </trkpt>
      <trkpt lat="44.90279" lon="5.15876">
        <ele>1044.2</ele>
        <time>2015-06-25T08:28:50Z</time>
      </trkpt>
      <trkpt lat="44.90275" lon="5.15856">
        <ele>1042.4</ele>
        <time>2015-06-25T08:29:04Z</time>
      </trkpt>
      <trkpt lat="44.90275" lon="5.15844">
        <ele>1042.1</ele>
        <time>2015-06-25T08:29:10Z</time>
      </trkpt>
      <trkpt lat="44.90272" lon="5.15832">
        <ele>1043.5</ele>
        <time>2015-06-25T08:29:36Z</time>
      </trkpt>
      <trkpt lat="44.90264" lon="5.15826">
        <ele>1043.5</ele>
        <time>2015-06-25T08:29:43Z</time>
      </trkpt>
      <trkpt lat="44.90257" lon="5.15823">
        <ele>1043.3</ele>
        <time>2015-06-25T08:29:48Z</time>
      </trkpt>
      <trkpt lat="44.90249" lon="5.15817">
        <ele>1043.8</ele>
        <time>2015-06-25T08:29:55Z</time>
      </trkpt>
      <trkpt lat="44.90248" lon="5.15816">
        <ele>1043.8</ele>
        <time>2015-06-25T08:29:56Z</time>
      </trkpt>
      <trkpt lat="44.90232" lon="5.15814">
        <ele>1042</ele>
        <time>2015-06-25T08:30:08Z</time>
      </trkpt>
      <trkpt lat="44.90224" lon="5.15812">
        <ele>1042.9</ele>
        <time>2015-06-25T08:30:16Z</time>
      </trkpt>
      <trkpt lat="44.90218" lon="5.15805">
        <ele>1041.4</ele>
        <time>2015-06-25T08:30:23Z</time>
      </trkpt>
      <trkpt lat="44.90209" lon="5.15802">
        <ele>1041.2</ele>
        <time>2015-06-25T08:30:31Z</time>
      </trkpt>
      <trkpt lat="44.90204" lon="5.15794">
        <ele>1039.8</ele>
        <time>2015-06-25T08:31:23Z</time>
      </trkpt>
      <trkpt lat="44.90203" lon="5.15792">
        <ele>1039.7</ele>
        <time>2015-06-25T08:31:24Z</time>
      </trkpt>
      <trkpt lat="44.90192" lon="5.15776">
        <ele>1039.5</ele>
        <time>2015-06-25T08:31:37Z</time>
      </trkpt>
      <trkpt lat="44.90186" lon="5.15769">
        <ele>1040</ele>
        <time>2015-06-25T08:31:43Z</time>
      </trkpt>
      <trkpt lat="44.90181" lon="5.15759">
        <ele>1037.9</ele>
        <time>2015-06-25T08:31:50Z</time>
      </trkpt>
      <trkpt lat="44.90175" lon="5.1575">
        <ele>1039.3</ele>
        <time>2015-06-25T08:31:58Z</time>
      </trkpt>
      <trkpt lat="44.90168" lon="5.15743">
        <ele>1038.9</ele>
        <time>2015-06-25T08:32:05Z</time>
      </trkpt>
      <trkpt lat="44.90163" lon="5.15734">
        <ele>1038.2</ele>
        <time>2015-06-25T08:32:11Z</time>
      </trkpt>
      <trkpt lat="44.90157" lon="5.15726">
        <ele>1037.5</ele>
        <time>2015-06-25T08:32:19Z</time>
      </trkpt>
      <trkpt lat="44.90152" lon="5.15717">
        <ele>1037</ele>
        <time>2015-06-25T08:32:28Z</time>
      </trkpt>
      <trkpt lat="44.90152" lon="5.15715">
        <ele>1037.2</ele>
        <time>2015-06-25T08:32:29Z</time>
      </trkpt>
      <trkpt lat="44.9014" lon="5.15702">
        <ele>1038</ele>
        <time>2015-06-25T08:32:42Z</time>
      </trkpt>
      <trkpt lat="44.90133" lon="5.15694">
        <ele>1038.9</ele>
        <time>2015-06-25T08:32:49Z</time>
      </trkpt>
      <trkpt lat="44.90126" lon="5.15688">
        <ele>1038.4</ele>
        <time>2015-06-25T08:32:56Z</time>
      </trkpt>
      <trkpt lat="44.9012" lon="5.15679">
        <ele>1039</ele>
        <time>2015-06-25T08:33:04Z</time>
      </trkpt>
      <trkpt lat="44.90112" lon="5.15676">
        <ele>1038.9</ele>
        <time>2015-06-25T08:33:13Z</time>
      </trkpt>
      <trkpt lat="44.90103" lon="5.15674">
        <ele>1039.7</ele>
        <time>2015-06-25T08:33:22Z</time>
      </trkpt>
      <trkpt lat="44.901" lon="5.15663">
        <ele>1039.4</ele>
        <time>2015-06-25T08:33:51Z</time>
      </trkpt>
      <trkpt lat="44.90099" lon="5.15661">
        <ele>1039.6</ele>
        <time>2015-06-25T08:33:52Z</time>
      </trkpt>
      <trkpt lat="44.90106" lon="5.15643">
        <ele>1041.1</ele>
        <time>2015-06-25T08:34:04Z</time>
      </trkpt>
      <trkpt lat="44.90107" lon="5.15631">
        <ele>1040.1</ele>
        <time>2015-06-25T08:34:15Z</time>
      </trkpt>
      <trkpt lat="44.90106" lon="5.15619">
        <ele>1041.4</ele>
        <time>2015-06-25T08:34:24Z</time>
      </trkpt>
      <trkpt lat="44.90108" lon="5.15608">
        <ele>1042</ele>
        <time>2015-06-25T08:34:44Z</time>
      </trkpt>
      <trkpt lat="44.9011" lon="5.15597">
        <ele>1041.8</ele>
        <time>2015-06-25T08:34:52Z</time>
      </trkpt>
      <trkpt lat="44.9011" lon="5.15595">
        <ele>1041.7</ele>
        <time>2015-06-25T08:34:53Z</time>
      </trkpt>
      <trkpt lat="44.90108" lon="5.15574">
        <ele>1043.1</ele>
        <time>2015-06-25T08:35:11Z</time>
      </trkpt>
      <trkpt lat="44.90104" lon="5.15563">
        <ele>1045.5</ele>
        <time>2015-06-25T08:35:20Z</time>
      </trkpt>
      <trkpt lat="44.90103" lon="5.15552">
        <ele>1045.3</ele>
        <time>2015-06-25T08:35:28Z</time>
      </trkpt>
      <trkpt lat="44.90101" lon="5.1554">
        <ele>1046.8</ele>
        <time>2015-06-25T08:35:35Z</time>
      </trkpt>
      <trkpt lat="44.901" lon="5.15528">
        <ele>1047.1</ele>
        <time>2015-06-25T08:35:43Z</time>
      </trkpt>
      <trkpt lat="44.90098" lon="5.15516">
        <ele>1047.4</ele>
        <time>2015-06-25T08:35:53Z</time>
      </trkpt>
      <trkpt lat="44.90098" lon="5.15515">
        <ele>1047.3</ele>
        <time>2015-06-25T08:35:54Z</time>
      </trkpt>
      <trkpt lat="44.90097" lon="5.15492">
        <ele>1049.2</ele>
        <time>2015-06-25T08:36:12Z</time>
      </trkpt>
      <trkpt lat="44.90098" lon="5.1548">
        <ele>1049.9</ele>
        <time>2015-06-25T08:36:20Z</time>
      </trkpt>
      <trkpt lat="44.90096" lon="5.15469">
        <ele>1051.7</ele>
        <time>2015-06-25T08:36:28Z</time>
      </trkpt>
      <trkpt lat="44.90094" lon="5.15458">
        <ele>1053</ele>
        <time>2015-06-25T08:36:36Z</time>
      </trkpt>
      <trkpt lat="44.90092" lon="5.15445">
        <ele>1053.2</ele>
        <time>2015-06-25T08:36:44Z</time>
      </trkpt>
      <trkpt lat="44.90092" lon="5.15433">
        <ele>1052.9</ele>
        <time>2015-06-25T08:36:51Z</time>
      </trkpt>
      <trkpt lat="44.90092" lon="5.15421">
        <ele>1052.3</ele>
        <time>2015-06-25T08:37:00Z</time>
      </trkpt>
      <trkpt lat="44.90092" lon="5.1542">
        <ele>1052.8</ele>
        <time>2015-06-25T08:37:01Z</time>
      </trkpt>
      <trkpt lat="44.90104" lon="5.15404">
        <ele>1054.7</ele>
        <time>2015-06-25T08:37:22Z</time>
      </trkpt>
      <trkpt lat="44.90103" lon="5.15391">
        <ele>1055.2</ele>
        <time>2015-06-25T08:37:41Z</time>
      </trkpt>
      <trkpt lat="44.90107" lon="5.15381">
        <ele>1055.4</ele>
        <time>2015-06-25T08:37:49Z</time>
      </trkpt>
      <trkpt lat="44.9011" lon="5.1537">
        <ele>1054.8</ele>
        <time>2015-06-25T08:37:57Z</time>
      </trkpt>
      <trkpt lat="44.90117" lon="5.15362">
        <ele>1057.8</ele>
        <time>2015-06-25T08:38:31Z</time>
      </trkpt>
      <trkpt lat="44.90117" lon="5.15362">
        <ele>1058.1</ele>
        <time>2015-06-25T08:38:32Z</time>
      </trkpt>
      <trkpt lat="44.9012" lon="5.15341">
        <ele>1057.9</ele>
        <time>2015-06-25T08:39:10Z</time>
      </trkpt>
      <trkpt lat="44.90125" lon="5.1533">
        <ele>1057</ele>
        <time>2015-06-25T08:39:19Z</time>
      </trkpt>
      <trkpt lat="44.90127" lon="5.15318">
        <ele>1058.3</ele>
        <time>2015-06-25T08:39:29Z</time>
      </trkpt>
      <trkpt lat="44.90129" lon="5.15307">
        <ele>1058.6</ele>
        <time>2015-06-25T08:39:37Z</time>
      </trkpt>
      <trkpt lat="44.9013" lon="5.15306">
        <ele>1058.7</ele>
        <time>2015-06-25T08:39:38Z</time>
      </trkpt>
      <trkpt lat="44.90134" lon="5.15284">
        <ele>1059.6</ele>
        <time>2015-06-25T08:39:53Z</time>
      </trkpt>
      <trkpt lat="44.90137" lon="5.15274">
        <ele>1059.8</ele>
        <time>2015-06-25T08:40:00Z</time>
      </trkpt>
      <trkpt lat="44.90139" lon="5.15262">
        <ele>1060.2</ele>
        <time>2015-06-25T08:40:17Z</time>
      </trkpt>
      <trkpt lat="44.90144" lon="5.15251">
        <ele>1061.3</ele>
        <time>2015-06-25T08:40:25Z</time>
      </trkpt>
      <trkpt lat="44.90148" lon="5.15241">
        <ele>1061.3</ele>
        <time>2015-06-25T08:40:35Z</time>
      </trkpt>
      <trkpt lat="44.90155" lon="5.15232">
        <ele>1062.5</ele>
        <time>2015-06-25T08:40:43Z</time>
      </trkpt>
      <trkpt lat="44.90156" lon="5.15231">
        <ele>1062.4</ele>
        <time>2015-06-25T08:40:44Z</time>
      </trkpt>
      <trkpt lat="44.90167" lon="5.15217">
        <ele>1062.6</ele>
        <time>2015-06-25T08:40:56Z</time>
      </trkpt>
      <trkpt lat="44.90172" lon="5.15208">
        <ele>1063.6</ele>
        <time>2015-06-25T08:41:07Z</time>
      </trkpt>
      <trkpt lat="44.90176" lon="5.15198">
        <ele>1062.9</ele>
        <time>2015-06-25T08:41:16Z</time>
      </trkpt>
      <trkpt lat="44.90182" lon="5.15188">
        <ele>1064.4</ele>
        <time>2015-06-25T08:41:25Z</time>
      </trkpt>
      <trkpt lat="44.90187" lon="5.15178">
        <ele>1065.3</ele>
        <time>2015-06-25T08:41:33Z</time>
      </trkpt>
      <trkpt lat="44.90192" lon="5.15168">
        <ele>1065.6</ele>
        <time>2015-06-25T08:41:42Z</time>
      </trkpt>
      <trkpt lat="44.90195" lon="5.15157">
        <ele>1066</ele>
        <time>2015-06-25T08:41:50Z</time>
      </trkpt>
      <trkpt lat="44.90195" lon="5.15156">
        <ele>1065.9</ele>
        <time>2015-06-25T08:41:51Z</time>
      </trkpt>
      <trkpt lat="44.90203" lon="5.15136">
        <ele>1065.3</ele>
        <time>2015-06-25T08:42:04Z</time>
      </trkpt>
      <trkpt lat="44.90206" lon="5.15126">
        <ele>1065.7</ele>
        <time>2015-06-25T08:42:10Z</time>
      </trkpt>
      <trkpt lat="44.90209" lon="5.15114">
        <ele>1065.3</ele>
        <time>2015-06-25T08:42:17Z</time>
      </trkpt>
      <trkpt lat="44.90211" lon="5.15102">
        <ele>1065.9</ele>
        <time>2015-06-25T08:42:26Z</time>
      </trkpt>
      <trkpt lat="44.90217" lon="5.15094">
        <ele>1065.8</ele>
        <time>2015-06-25T08:42:35Z</time>
      </trkpt>
      <trkpt lat="44.90224" lon="5.15086">
        <ele>1065.2</ele>
        <time>2015-06-25T08:42:43Z</time>
      </trkpt>
      <trkpt lat="44.90226" lon="5.15073">
        <ele>1065.1</ele>
        <time>2015-06-25T08:42:50Z</time>
      </trkpt>
      <trkpt lat="44.90227" lon="5.15062">
        <ele>1065.5</ele>
        <time>2015-06-25T08:42:58Z</time>
      </trkpt>
      <trkpt lat="44.90227" lon="5.15061">
        <ele>1065.4</ele>
        <time>2015-06-25T08:42:59Z</time>
      </trkpt>
      <trkpt lat="44.90227" lon="5.15038">
        <ele>1066.1</ele>
        <time>2015-06-25T08:43:16Z</time>
      </trkpt>
      <trkpt lat="44.90221" lon="5.15029">
        <ele>1066.4</ele>
        <time>2015-06-25T08:43:42Z</time>
      </trkpt>
      <trkpt lat="44.90218" lon="5.15018">
        <ele>1068</ele>
        <time>2015-06-25T08:43:55Z</time>
      </trkpt>
      <trkpt lat="44.90213" lon="5.15007">
        <ele>1068.6</ele>
        <time>2015-06-25T08:44:06Z</time>
      </trkpt>
      <trkpt lat="44.90213" lon="5.15006">
        <ele>1068.7</ele>
        <time>2015-06-25T08:44:07Z</time>
      </trkpt>
      <trkpt lat="44.90202" lon="5.1499">
        <ele>1070.2</ele>
        <time>2015-06-25T08:44:24Z</time>
      </trkpt>
      <trkpt lat="44.90197" lon="5.1498">
        <ele>1070.7</ele>
        <time>2015-06-25T08:44:34Z</time>
      </trkpt>
      <trkpt lat="44.90189" lon="5.14975">
        <ele>1071.1</ele>
        <time>2015-06-25T08:45:57Z</time>
      </trkpt>
      <trkpt lat="44.90189" lon="5.14974">
        <ele>1070.9</ele>
        <time>2015-06-25T08:45:58Z</time>
      </trkpt>
      <trkpt lat="44.90196" lon="5.14967">
        <ele>1068.9</ele>
        <time>2015-06-25T08:50:40Z</time>
      </trkpt>
      <trkpt lat="44.90186" lon="5.14967">
        <ele>1068.8</ele>
        <time>2015-06-25T08:52:09Z</time>
      </trkpt>
      <trkpt lat="44.9019" lon="5.1498">
        <ele>1069</ele>
        <time>2015-06-25T08:54:02Z</time>
      </trkpt>
      <trkpt lat="44.90186" lon="5.14957">
        <ele>1067.5</ele>
        <time>2015-06-25T08:54:49Z</time>
      </trkpt>
      <trkpt lat="44.90184" lon="5.14947">
        <ele>1067</ele>
        <time>2015-06-25T08:54:59Z</time>
      </trkpt>
      <trkpt lat="44.90179" lon="5.14938">
        <ele>1066.9</ele>
        <time>2015-06-25T08:55:08Z</time>
      </trkpt>
      <trkpt lat="44.90177" lon="5.14937">
        <ele>1067.3</ele>
        <time>2015-06-25T08:55:09Z</time>
      </trkpt>
      <trkpt lat="44.90167" lon="5.14922">
        <ele>1065.6</ele>
        <time>2015-06-25T08:55:23Z</time>
      </trkpt>
      <trkpt lat="44.90164" lon="5.1491">
        <ele>1064.7</ele>
        <time>2015-06-25T08:55:36Z</time>
      </trkpt>
      <trkpt lat="44.90163" lon="5.14899">
        <ele>1062.7</ele>
        <time>2015-06-25T08:55:45Z</time>
      </trkpt>
      <trkpt lat="44.90161" lon="5.14887">
        <ele>1062.1</ele>
        <time>2015-06-25T08:55:55Z</time>
      </trkpt>
      <trkpt lat="44.90166" lon="5.14877">
        <ele>1061.9</ele>
        <time>2015-06-25T08:56:02Z</time>
      </trkpt>
      <trkpt lat="44.90173" lon="5.1487">
        <ele>1061.4</ele>
        <time>2015-06-25T08:56:16Z</time>
      </trkpt>
      <trkpt lat="44.90173" lon="5.14869">
        <ele>1061.6</ele>
        <time>2015-06-25T08:56:17Z</time>
      </trkpt>
      <trkpt lat="44.90181" lon="5.14848">
        <ele>1058.5</ele>
        <time>2015-06-25T08:56:52Z</time>
      </trkpt>
      <trkpt lat="44.90182" lon="5.14838">
        <ele>1058</ele>
        <time>2015-06-25T08:57:03Z</time>
      </trkpt>
      <trkpt lat="44.90188" lon="5.14829">
        <ele>1058.9</ele>
        <time>2015-06-25T08:57:12Z</time>
      </trkpt>
      <trkpt lat="44.90189" lon="5.14817">
        <ele>1058.5</ele>
        <time>2015-06-25T08:57:58Z</time>
      </trkpt>
      <trkpt lat="44.90188" lon="5.14816">
        <ele>1059</ele>
        <time>2015-06-25T08:57:59Z</time>
      </trkpt>
      <trkpt lat="44.90198" lon="5.14814">
        <ele>1058.9</ele>
        <time>2015-06-25T08:59:50Z</time>
      </trkpt>
      <trkpt lat="44.90213" lon="5.14808">
        <ele>1058.8</ele>
        <time>2015-06-25T09:00:20Z</time>
      </trkpt>
      <trkpt lat="44.90221" lon="5.14807">
        <ele>1060.2</ele>
        <time>2015-06-25T09:00:28Z</time>
      </trkpt>
      <trkpt lat="44.90228" lon="5.14799">
        <ele>1060.1</ele>
        <time>2015-06-25T09:00:36Z</time>
      </trkpt>
      <trkpt lat="44.90236" lon="5.148">
        <ele>1059.6</ele>
        <time>2015-06-25T09:00:45Z</time>
      </trkpt>
      <trkpt lat="44.90242" lon="5.1479">
        <ele>1063.1</ele>
        <time>2015-06-25T09:00:56Z</time>
      </trkpt>
      <trkpt lat="44.90242" lon="5.14789">
        <ele>1062.6</ele>
        <time>2015-06-25T09:00:57Z</time>
      </trkpt>
      <trkpt lat="44.9025" lon="5.1477">
        <ele>1059</ele>
        <time>2015-06-25T09:01:15Z</time>
      </trkpt>
      <trkpt lat="44.90254" lon="5.1476">
        <ele>1057.8</ele>
        <time>2015-06-25T09:01:27Z</time>
      </trkpt>
      <trkpt lat="44.90262" lon="5.1476">
        <ele>1057.2</ele>
        <time>2015-06-25T09:01:34Z</time>
      </trkpt>
      <trkpt lat="44.9027" lon="5.14756">
        <ele>1058.4</ele>
        <time>2015-06-25T09:01:42Z</time>
      </trkpt>
      <trkpt lat="44.90277" lon="5.14747">
        <ele>1058.5</ele>
        <time>2015-06-25T09:01:49Z</time>
      </trkpt>
      <trkpt lat="44.9028" lon="5.14736">
        <ele>1059.3</ele>
        <time>2015-06-25T09:01:58Z</time>
      </trkpt>
      <trkpt lat="44.90281" lon="5.14735">
        <ele>1059.9</ele>
        <time>2015-06-25T09:01:59Z</time>
      </trkpt>
      <trkpt lat="44.90292" lon="5.1472">
        <ele>1061.8</ele>
        <time>2015-06-25T09:02:15Z</time>
      </trkpt>
      <trkpt lat="44.90299" lon="5.14712">
        <ele>1063.1</ele>
        <time>2015-06-25T09:02:27Z</time>
      </trkpt>
      <trkpt lat="44.90306" lon="5.14706">
        <ele>1062.5</ele>
        <time>2015-06-25T09:02:35Z</time>
      </trkpt>
      <trkpt lat="44.90314" lon="5.147">
        <ele>1063.4</ele>
        <time>2015-06-25T09:02:45Z</time>
      </trkpt>
      <trkpt lat="44.9032" lon="5.14692">
        <ele>1063.6</ele>
        <time>2015-06-25T09:02:55Z</time>
      </trkpt>
      <trkpt lat="44.90327" lon="5.14684">
        <ele>1063.7</ele>
        <time>2015-06-25T09:03:05Z</time>
      </trkpt>
      <trkpt lat="44.90328" lon="5.14684">
        <ele>1063.5</ele>
        <time>2015-06-25T09:03:06Z</time>
      </trkpt>
      <trkpt lat="44.90344" lon="5.14683">
        <ele>1066</ele>
        <time>2015-06-25T09:04:03Z</time>
      </trkpt>
      <trkpt lat="44.90352" lon="5.14681">
        <ele>1068</ele>
        <time>2015-06-25T09:04:14Z</time>
      </trkpt>
      <trkpt lat="44.90353" lon="5.14681">
        <ele>1068.3</ele>
        <time>2015-06-25T09:04:15Z</time>
      </trkpt>
      <trkpt lat="44.90367" lon="5.14673">
        <ele>1069.7</ele>
        <time>2015-06-25T09:04:37Z</time>
      </trkpt>
      <trkpt lat="44.90375" lon="5.14667">
        <ele>1070.7</ele>
        <time>2015-06-25T09:04:45Z</time>
      </trkpt>
      <trkpt lat="44.90377" lon="5.14655">
        <ele>1071.1</ele>
        <time>2015-06-25T09:04:54Z</time>
      </trkpt>
      <trkpt lat="44.90384" lon="5.14649">
        <ele>1073.3</ele>
        <time>2015-06-25T09:05:24Z</time>
      </trkpt>
      <trkpt lat="44.90385" lon="5.14649">
        <ele>1073.9</ele>
        <time>2015-06-25T09:05:25Z</time>
      </trkpt>
      <trkpt lat="44.90402" lon="5.14644">
        <ele>1073.8</ele>
        <time>2015-06-25T09:06:05Z</time>
      </trkpt>
      <trkpt lat="44.9041" lon="5.14642">
        <ele>1075.2</ele>
        <time>2015-06-25T09:06:19Z</time>
      </trkpt>
      <trkpt lat="44.90417" lon="5.14636">
        <ele>1075.6</ele>
        <time>2015-06-25T09:06:29Z</time>
      </trkpt>
      <trkpt lat="44.90418" lon="5.14635">
        <ele>1075.8</ele>
        <time>2015-06-25T09:06:30Z</time>
      </trkpt>
      <trkpt lat="44.90433" lon="5.14633">
        <ele>1079.7</ele>
        <time>2015-06-25T09:07:02Z</time>
      </trkpt>
      <trkpt lat="44.90441" lon="5.14639">
        <ele>1079.4</ele>
        <time>2015-06-25T09:07:13Z</time>
      </trkpt>
      <trkpt lat="44.9045" lon="5.14638">
        <ele>1080.4</ele>
        <time>2015-06-25T09:07:40Z</time>
      </trkpt>
      <trkpt lat="44.90451" lon="5.14639">
        <ele>1080.6</ele>
        <time>2015-06-25T09:07:41Z</time>
      </trkpt>
      <trkpt lat="44.90465" lon="5.1465">
        <ele>1082.6</ele>
        <time>2015-06-25T09:08:07Z</time>
      </trkpt>
      <trkpt lat="44.90473" lon="5.14653">
        <ele>1084.2</ele>
        <time>2015-06-25T09:08:18Z</time>
      </trkpt>
      <trkpt lat="44.90482" lon="5.14652">
        <ele>1084.2</ele>
        <time>2015-06-25T09:08:29Z</time>
      </trkpt>
      <trkpt lat="44.90488" lon="5.1466">
        <ele>1086.4</ele>
        <time>2015-06-25T09:08:44Z</time>
      </trkpt>
      <trkpt lat="44.90489" lon="5.14661">
        <ele>1086.6</ele>
        <time>2015-06-25T09:08:45Z</time>
      </trkpt>
      <trkpt lat="44.905" lon="5.14678">
        <ele>1087.1</ele>
        <time>2015-06-25T09:09:20Z</time>
      </trkpt>
      <trkpt lat="44.90506" lon="5.14687">
        <ele>1090.8</ele>
        <time>2015-06-25T09:09:36Z</time>
      </trkpt>
      <trkpt lat="44.90513" lon="5.14696">
        <ele>1091.2</ele>
        <time>2015-06-25T09:09:46Z</time>
      </trkpt>
      <trkpt lat="44.90513" lon="5.14696">
        <ele>1091.3</ele>
        <time>2015-06-25T09:09:47Z</time>
      </trkpt>
      <trkpt lat="44.90523" lon="5.14715">
        <ele>1093.4</ele>
        <time>2015-06-25T09:10:07Z</time>
      </trkpt>
      <trkpt lat="44.9053" lon="5.14722">
        <ele>1093.2</ele>
        <time>2015-06-25T09:10:19Z</time>
      </trkpt>
      <trkpt lat="44.90538" lon="5.14728">
        <ele>1093.5</ele>
        <time>2015-06-25T09:10:30Z</time>
      </trkpt>
      <trkpt lat="44.90546" lon="5.14732">
        <ele>1094.3</ele>
        <time>2015-06-25T09:10:40Z</time>
      </trkpt>
      <trkpt lat="44.90554" lon="5.14727">
        <ele>1096.1</ele>
        <time>2015-06-25T09:10:49Z</time>
      </trkpt>
      <trkpt lat="44.90555" lon="5.14727">
        <ele>1096</ele>
        <time>2015-06-25T09:10:50Z</time>
      </trkpt>
      <trkpt lat="44.9057" lon="5.14717">
        <ele>1097.1</ele>
        <time>2015-06-25T09:11:23Z</time>
      </trkpt>
      <trkpt lat="44.90575" lon="5.14707">
        <ele>1098.2</ele>
        <time>2015-06-25T09:11:35Z</time>
      </trkpt>
      <trkpt lat="44.90568" lon="5.14714">
        <ele>1097.8</ele>
        <time>2015-06-25T09:12:17Z</time>
      </trkpt>
      <trkpt lat="44.90567" lon="5.14715">
        <ele>1097.4</ele>
        <time>2015-06-25T09:12:18Z</time>
      </trkpt>
      <trkpt lat="44.90559" lon="5.14735">
        <ele>1093.8</ele>
        <time>2015-06-25T09:12:45Z</time>
      </trkpt>
      <trkpt lat="44.90558" lon="5.14747">
        <ele>1092.6</ele>
        <time>2015-06-25T09:12:58Z</time>
      </trkpt>
      <trkpt lat="44.9056" lon="5.14759">
        <ele>1091.5</ele>
        <time>2015-06-25T09:13:07Z</time>
      </trkpt>
      <trkpt lat="44.90561" lon="5.14771">
        <ele>1090.3</ele>
        <time>2015-06-25T09:13:16Z</time>
      </trkpt>
      <trkpt lat="44.90566" lon="5.14781">
        <ele>1088.9</ele>
        <time>2015-06-25T09:13:25Z</time>
      </trkpt>
      <trkpt lat="44.90567" lon="5.14781">
        <ele>1088.8</ele>
        <time>2015-06-25T09:13:26Z</time>
      </trkpt>
      <trkpt lat="44.90582" lon="5.1479">
        <ele>1088.6</ele>
        <time>2015-06-25T09:13:42Z</time>
      </trkpt>
      <trkpt lat="44.9059" lon="5.14786">
        <ele>1088.8</ele>
        <time>2015-06-25T09:13:51Z</time>
      </trkpt>
      <trkpt lat="44.90598" lon="5.1478">
        <ele>1089.3</ele>
        <time>2015-06-25T09:14:00Z</time>
      </trkpt>
      <trkpt lat="44.90606" lon="5.14779">
        <ele>1087.7</ele>
        <time>2015-06-25T09:14:09Z</time>
      </trkpt>
      <trkpt lat="44.90614" lon="5.14783">
        <ele>1086.7</ele>
        <time>2015-06-25T09:14:16Z</time>
      </trkpt>
      <trkpt lat="44.90621" lon="5.14788">
        <ele>1085.9</ele>
        <time>2015-06-25T09:14:26Z</time>
      </trkpt>
      <trkpt lat="44.90622" lon="5.14789">
        <ele>1085.5</ele>
        <time>2015-06-25T09:14:27Z</time>
      </trkpt>
      <trkpt lat="44.90634" lon="5.14804">
        <ele>1083.5</ele>
        <time>2015-06-25T09:14:46Z</time>
      </trkpt>
      <trkpt lat="44.90641" lon="5.14809">
        <ele>1083.5</ele>
        <time>2015-06-25T09:14:55Z</time>
      </trkpt>
      <trkpt lat="44.90648" lon="5.14804">
        <ele>1084.5</ele>
        <time>2015-06-25T09:15:02Z</time>
      </trkpt>
      <trkpt lat="44.90657" lon="5.14802">
        <ele>1083.7</ele>
        <time>2015-06-25T09:15:10Z</time>
      </trkpt>
      <trkpt lat="44.90666" lon="5.14801">
        <ele>1083</ele>
        <time>2015-06-25T09:15:18Z</time>
      </trkpt>
      <trkpt lat="44.90674" lon="5.14796">
        <ele>1083.5</ele>
        <time>2015-06-25T09:15:27Z</time>
      </trkpt>
      <trkpt lat="44.90675" lon="5.14795">
        <ele>1083.4</ele>
        <time>2015-06-25T09:15:28Z</time>
      </trkpt>
      <trkpt lat="44.90689" lon="5.14783">
        <ele>1083.6</ele>
        <time>2015-06-25T09:15:42Z</time>
      </trkpt>
      <trkpt lat="44.90697" lon="5.1478">
        <ele>1083</ele>
        <time>2015-06-25T09:15:50Z</time>
      </trkpt>
      <trkpt lat="44.90706" lon="5.14777">
        <ele>1083.3</ele>
        <time>2015-06-25T09:15:59Z</time>
      </trkpt>
      <trkpt lat="44.90714" lon="5.14779">
        <ele>1082.9</ele>
        <time>2015-06-25T09:16:08Z</time>
      </trkpt>
      <trkpt lat="44.90722" lon="5.14782">
        <ele>1083.1</ele>
        <time>2015-06-25T09:16:15Z</time>
      </trkpt>
      <trkpt lat="44.9073" lon="5.14785">
        <ele>1083.3</ele>
        <time>2015-06-25T09:16:24Z</time>
      </trkpt>
      <trkpt lat="44.90738" lon="5.14786">
        <ele>1083.4</ele>
        <time>2015-06-25T09:16:33Z</time>
      </trkpt>
      <trkpt lat="44.90739" lon="5.14786">
        <ele>1083.1</ele>
        <time>2015-06-25T09:16:34Z</time>
      </trkpt>
      <trkpt lat="44.90755" lon="5.14785">
        <ele>1085.4</ele>
        <time>2015-06-25T09:17:43Z</time>
      </trkpt>
      <trkpt lat="44.90755" lon="5.14785">
        <ele>1085.2</ele>
        <time>2015-06-25T09:17:44Z</time>
      </trkpt>
      <trkpt lat="44.90771" lon="5.14789">
        <ele>1086.1</ele>
        <time>2015-06-25T09:18:33Z</time>
      </trkpt>
      <trkpt lat="44.90764" lon="5.14783">
        <ele>1084.2</ele>
        <time>2015-06-25T09:20:30Z</time>
      </trkpt>
      <trkpt lat="44.90764" lon="5.14782">
        <ele>1084.2</ele>
        <time>2015-06-25T09:20:31Z</time>
      </trkpt>
      <trkpt lat="44.90747" lon="5.14781">
        <ele>1084.9</ele>
        <time>2015-06-25T09:23:10Z</time>
      </trkpt>
      <trkpt lat="44.90746" lon="5.1478">
        <ele>1084.9</ele>
        <time>2015-06-25T09:23:11Z</time>
      </trkpt>
      <trkpt lat="44.90731" lon="5.14786">
        <ele>1084</ele>
        <time>2015-06-25T09:23:51Z</time>
      </trkpt>
      <trkpt lat="44.90723" lon="5.14788">
        <ele>1084.8</ele>
        <time>2015-06-25T09:23:59Z</time>
      </trkpt>
      <trkpt lat="44.90715" lon="5.14793">
        <ele>1085.1</ele>
        <time>2015-06-25T09:24:09Z</time>
      </trkpt>
      <trkpt lat="44.90709" lon="5.148">
        <ele>1084.4</ele>
        <time>2015-06-25T09:24:57Z</time>
      </trkpt>
      <trkpt lat="44.90708" lon="5.148">
        <ele>1084.5</ele>
        <time>2015-06-25T09:24:58Z</time>
      </trkpt>
      <trkpt lat="44.90692" lon="5.14803">
        <ele>1084.6</ele>
        <time>2015-06-25T09:25:16Z</time>
      </trkpt>
      <trkpt lat="44.90684" lon="5.14804">
        <ele>1084.3</ele>
        <time>2015-06-25T09:25:24Z</time>
      </trkpt>
      <trkpt lat="44.90676" lon="5.14806">
        <ele>1083.6</ele>
        <time>2015-06-25T09:25:32Z</time>
      </trkpt>
      <trkpt lat="44.90668" lon="5.14808">
        <ele>1083.8</ele>
        <time>2015-06-25T09:25:40Z</time>
      </trkpt>
      <trkpt lat="44.90659" lon="5.14808">
        <ele>1083.7</ele>
        <time>2015-06-25T09:25:48Z</time>
      </trkpt>
      <trkpt lat="44.90651" lon="5.14808">
        <ele>1083.3</ele>
        <time>2015-06-25T09:25:57Z</time>
      </trkpt>
      <trkpt lat="44.90642" lon="5.14808">
        <ele>1083.5</ele>
        <time>2015-06-25T09:26:10Z</time>
      </trkpt>
      <trkpt lat="44.90641" lon="5.14808">
        <ele>1083.1</ele>
        <time>2015-06-25T09:26:11Z</time>
      </trkpt>
      <trkpt lat="44.90625" lon="5.14811">
        <ele>1083.1</ele>
        <time>2015-06-25T09:26:29Z</time>
      </trkpt>
      <trkpt lat="44.90617" lon="5.1481">
        <ele>1083.2</ele>
        <time>2015-06-25T09:26:41Z</time>
      </trkpt>
      <trkpt lat="44.90609" lon="5.14807">
        <ele>1083.3</ele>
        <time>2015-06-25T09:26:52Z</time>
      </trkpt>
      <trkpt lat="44.90601" lon="5.14802">
        <ele>1084.7</ele>
        <time>2015-06-25T09:27:06Z</time>
      </trkpt>
      <trkpt lat="44.90596" lon="5.14791">
        <ele>1086.1</ele>
        <time>2015-06-25T09:27:18Z</time>
      </trkpt>
      <trkpt lat="44.90596" lon="5.14791">
        <ele>1086.2</ele>
        <time>2015-06-25T09:27:19Z</time>
      </trkpt>
      <trkpt lat="44.9058" lon="5.14783">
        <ele>1087.4</ele>
        <time>2015-06-25T09:27:54Z</time>
      </trkpt>
      <trkpt lat="44.90575" lon="5.14793">
        <ele>1087.3</ele>
        <time>2015-06-25T09:28:40Z</time>
      </trkpt>
      <trkpt lat="44.90575" lon="5.14793">
        <ele>1087.3</ele>
        <time>2015-06-25T09:28:41Z</time>
      </trkpt>
      <trkpt lat="44.90566" lon="5.14788">
        <ele>1087.7</ele>
        <time>2015-06-25T09:31:41Z</time>
      </trkpt>
      <trkpt lat="44.90569" lon="5.14776">
        <ele>1087.1</ele>
        <time>2015-06-25T09:34:04Z</time>
      </trkpt>
      <trkpt lat="44.90556" lon="5.14763">
        <ele>1087.9</ele>
        <time>2015-06-25T09:34:21Z</time>
      </trkpt>
      <trkpt lat="44.90547" lon="5.14759">
        <ele>1087.9</ele>
        <time>2015-06-25T09:34:30Z</time>
      </trkpt>
      <trkpt lat="44.90539" lon="5.14757">
        <ele>1088.8</ele>
        <time>2015-06-25T09:34:38Z</time>
      </trkpt>
      <trkpt lat="44.90532" lon="5.14752">
        <ele>1089</ele>
        <time>2015-06-25T09:34:46Z</time>
      </trkpt>
      <trkpt lat="44.90524" lon="5.14745">
        <ele>1089.4</ele>
        <time>2015-06-25T09:34:57Z</time>
      </trkpt>
      <trkpt lat="44.90515" lon="5.14743">
        <ele>1088.5</ele>
        <time>2015-06-25T09:35:31Z</time>
      </trkpt>
      <trkpt lat="44.90515" lon="5.14744">
        <ele>1088.7</ele>
        <time>2015-06-25T09:35:32Z</time>
      </trkpt>
      <trkpt lat="44.90503" lon="5.14728">
        <ele>1086.5</ele>
        <time>2015-06-25T09:36:04Z</time>
      </trkpt>
      <trkpt lat="44.90498" lon="5.14718">
        <ele>1085.8</ele>
        <time>2015-06-25T09:36:14Z</time>
      </trkpt>
      <trkpt lat="44.90489" lon="5.14719">
        <ele>1082.8</ele>
        <time>2015-06-25T09:37:32Z</time>
      </trkpt>
      <trkpt lat="44.90489" lon="5.14719">
        <ele>1082.7</ele>
        <time>2015-06-25T09:37:33Z</time>
      </trkpt>
      <trkpt lat="44.90472" lon="5.14721">
        <ele>1079.3</ele>
        <time>2015-06-25T09:38:01Z</time>
      </trkpt>
      <trkpt lat="44.90464" lon="5.14722">
        <ele>1076.5</ele>
        <time>2015-06-25T09:38:43Z</time>
      </trkpt>
      <trkpt lat="44.90463" lon="5.14721">
        <ele>1076.3</ele>
        <time>2015-06-25T09:38:44Z</time>
      </trkpt>
      <trkpt lat="44.90447" lon="5.14727">
        <ele>1072.7</ele>
        <time>2015-06-25T09:39:23Z</time>
      </trkpt>
      <trkpt lat="44.90439" lon="5.1473">
        <ele>1069.4</ele>
        <time>2015-06-25T09:39:38Z</time>
      </trkpt>
      <trkpt lat="44.90432" lon="5.14737">
        <ele>1068.1</ele>
        <time>2015-06-25T09:39:48Z</time>
      </trkpt>
      <trkpt lat="44.90432" lon="5.14739">
        <ele>1068.1</ele>
        <time>2015-06-25T09:39:49Z</time>
      </trkpt>
      <trkpt lat="44.90424" lon="5.14759">
        <ele>1067.6</ele>
        <time>2015-06-25T09:40:15Z</time>
      </trkpt>
      <trkpt lat="44.90416" lon="5.14763">
        <ele>1067.1</ele>
        <time>2015-06-25T09:40:29Z</time>
      </trkpt>
      <trkpt lat="44.90415" lon="5.14775">
        <ele>1069.3</ele>
        <time>2015-06-25T09:40:57Z</time>
      </trkpt>
      <trkpt lat="44.90415" lon="5.14776">
        <ele>1069.3</ele>
        <time>2015-06-25T09:40:58Z</time>
      </trkpt>
      <trkpt lat="44.90406" lon="5.14796">
        <ele>1070.6</ele>
        <time>2015-06-25T09:41:20Z</time>
      </trkpt>
      <trkpt lat="44.90406" lon="5.14809">
        <ele>1069.5</ele>
        <time>2015-06-25T09:41:31Z</time>
      </trkpt>
      <trkpt lat="44.90402" lon="5.14819">
        <ele>1068.8</ele>
        <time>2015-06-25T09:41:42Z</time>
      </trkpt>
      <trkpt lat="44.90401" lon="5.1483">
        <ele>1069.3</ele>
        <time>2015-06-25T09:41:50Z</time>
      </trkpt>
      <trkpt lat="44.90401" lon="5.14843">
        <ele>1068.6</ele>
        <time>2015-06-25T09:41:58Z</time>
      </trkpt>
      <trkpt lat="44.904" lon="5.14843">
        <ele>1068.3</ele>
        <time>2015-06-25T09:41:59Z</time>
      </trkpt>
      <trkpt lat="44.90386" lon="5.14855">
        <ele>1066.5</ele>
        <time>2015-06-25T09:42:19Z</time>
      </trkpt>
      <trkpt lat="44.9038" lon="5.14863">
        <ele>1066.1</ele>
        <time>2015-06-25T09:42:27Z</time>
      </trkpt>
      <trkpt lat="44.90375" lon="5.14874">
        <ele>1064.9</ele>
        <time>2015-06-25T09:42:37Z</time>
      </trkpt>
      <trkpt lat="44.9037" lon="5.14883">
        <ele>1063.9</ele>
        <time>2015-06-25T09:42:48Z</time>
      </trkpt>
      <trkpt lat="44.90366" lon="5.14894">
        <ele>1063.7</ele>
        <time>2015-06-25T09:42:57Z</time>
      </trkpt>
      <trkpt lat="44.90361" lon="5.14904">
        <ele>1063.9</ele>
        <time>2015-06-25T09:43:06Z</time>
      </trkpt>
      <trkpt lat="44.90361" lon="5.14906">
        <ele>1063.6</ele>
        <time>2015-06-25T09:43:07Z</time>
      </trkpt>
      <trkpt lat="44.90346" lon="5.14914">
        <ele>1060.4</ele>
        <time>2015-06-25T09:44:47Z</time>
      </trkpt>
      <trkpt lat="44.90346" lon="5.14915">
        <ele>1060.7</ele>
        <time>2015-06-25T09:44:48Z</time>
      </trkpt>
      <trkpt lat="44.90331" lon="5.14924">
        <ele>1058.5</ele>
        <time>2015-06-25T09:45:06Z</time>
      </trkpt>
      <trkpt lat="44.90323" lon="5.14927">
        <ele>1058.6</ele>
        <time>2015-06-25T09:45:15Z</time>
      </trkpt>
      <trkpt lat="44.90315" lon="5.14924">
        <ele>1059</ele>
        <time>2015-06-25T09:45:25Z</time>
      </trkpt>
      <trkpt lat="44.90309" lon="5.14915">
        <ele>1057.9</ele>
        <time>2015-06-25T09:45:37Z</time>
      </trkpt>
      <trkpt lat="44.903" lon="5.14914">
        <ele>1059.3</ele>
        <time>2015-06-25T09:45:50Z</time>
      </trkpt>
      <trkpt lat="44.903" lon="5.14912">
        <ele>1059.6</ele>
        <time>2015-06-25T09:45:51Z</time>
      </trkpt>
      <trkpt lat="44.90283" lon="5.14914">
        <ele>1061.4</ele>
        <time>2015-06-25T09:46:34Z</time>
      </trkpt>
      <trkpt lat="44.90279" lon="5.14924">
        <ele>1062.4</ele>
        <time>2015-06-25T09:46:42Z</time>
      </trkpt>
      <trkpt lat="44.90276" lon="5.14935">
        <ele>1064.3</ele>
        <time>2015-06-25T09:46:51Z</time>
      </trkpt>
      <trkpt lat="44.90275" lon="5.14936">
        <ele>1064.4</ele>
        <time>2015-06-25T09:46:52Z</time>
      </trkpt>
      <trkpt lat="44.90261" lon="5.14946">
        <ele>1065.6</ele>
        <time>2015-06-25T09:47:11Z</time>
      </trkpt>
      <trkpt lat="44.90254" lon="5.1495">
        <ele>1067.2</ele>
        <time>2015-06-25T09:47:19Z</time>
      </trkpt>
      <trkpt lat="44.90245" lon="5.14952">
        <ele>1067.6</ele>
        <time>2015-06-25T09:47:26Z</time>
      </trkpt>
      <trkpt lat="44.90241" lon="5.14961">
        <ele>1068</ele>
        <time>2015-06-25T09:47:33Z</time>
      </trkpt>
      <trkpt lat="44.90234" lon="5.14969">
        <ele>1068.3</ele>
        <time>2015-06-25T09:47:58Z</time>
      </trkpt>
      <trkpt lat="44.90233" lon="5.14969">
        <ele>1068.2</ele>
        <time>2015-06-25T09:47:59Z</time>
      </trkpt>
      <trkpt lat="44.90219" lon="5.14961">
        <ele>1067.7</ele>
        <time>2015-06-25T09:48:20Z</time>
      </trkpt>
      <trkpt lat="44.90212" lon="5.14968">
        <ele>1067.3</ele>
        <time>2015-06-25T09:48:31Z</time>
      </trkpt>
      <trkpt lat="44.90209" lon="5.14978">
        <ele>1066.7</ele>
        <time>2015-06-25T09:48:38Z</time>
      </trkpt>
      <trkpt lat="44.90208" lon="5.14991">
        <ele>1065.8</ele>
        <time>2015-06-25T09:48:46Z</time>
      </trkpt>
      <trkpt lat="44.90211" lon="5.15002">
        <ele>1064.5</ele>
        <time>2015-06-25T09:48:57Z</time>
      </trkpt>
      <trkpt lat="44.90216" lon="5.15011">
        <ele>1062.7</ele>
        <time>2015-06-25T09:49:07Z</time>
      </trkpt>
      <trkpt lat="44.90217" lon="5.15013">
        <ele>1062.7</ele>
        <time>2015-06-25T09:49:08Z</time>
      </trkpt>
      <trkpt lat="44.90225" lon="5.15031">
        <ele>1061.5</ele>
        <time>2015-06-25T09:49:23Z</time>
      </trkpt>
      <trkpt lat="44.90225" lon="5.15042">
        <ele>1061</ele>
        <time>2015-06-25T09:49:28Z</time>
      </trkpt>
      <trkpt lat="44.90226" lon="5.15054">
        <ele>1060.5</ele>
        <time>2015-06-25T09:49:36Z</time>
      </trkpt>
      <trkpt lat="44.90225" lon="5.15067">
        <ele>1060.4</ele>
        <time>2015-06-25T09:49:45Z</time>
      </trkpt>
      <trkpt lat="44.90225" lon="5.15079">
        <ele>1060.1</ele>
        <time>2015-06-25T09:49:53Z</time>
      </trkpt>
      <trkpt lat="44.90221" lon="5.1509">
        <ele>1060.3</ele>
        <time>2015-06-25T09:50:01Z</time>
      </trkpt>
      <trkpt lat="44.90215" lon="5.15098">
        <ele>1059.8</ele>
        <time>2015-06-25T09:50:09Z</time>
      </trkpt>
      <trkpt lat="44.90214" lon="5.15099">
        <ele>1059.8</ele>
        <time>2015-06-25T09:50:10Z</time>
      </trkpt>
      <trkpt lat="44.90204" lon="5.15117">
        <ele>1060</ele>
        <time>2015-06-25T09:50:25Z</time>
      </trkpt>
      <trkpt lat="44.90201" lon="5.15129">
        <ele>1060.8</ele>
        <time>2015-06-25T09:50:33Z</time>
      </trkpt>
      <trkpt lat="44.90195" lon="5.15138">
        <ele>1061.6</ele>
        <time>2015-06-25T09:50:41Z</time>
      </trkpt>
      <trkpt lat="44.90191" lon="5.15147">
        <ele>1061.3</ele>
        <time>2015-06-25T09:50:49Z</time>
      </trkpt>
      <trkpt lat="44.90188" lon="5.15158">
        <ele>1061.6</ele>
        <time>2015-06-25T09:50:57Z</time>
      </trkpt>
      <trkpt lat="44.90186" lon="5.15169">
        <ele>1061.5</ele>
        <time>2015-06-25T09:51:04Z</time>
      </trkpt>
      <trkpt lat="44.90181" lon="5.15179">
        <ele>1060.8</ele>
        <time>2015-06-25T09:51:12Z</time>
      </trkpt>
      <trkpt lat="44.90179" lon="5.15181">
        <ele>1060.9</ele>
        <time>2015-06-25T09:51:13Z</time>
      </trkpt>
      <trkpt lat="44.90172" lon="5.15198">
        <ele>1059.4</ele>
        <time>2015-06-25T09:51:28Z</time>
      </trkpt>
      <trkpt lat="44.90167" lon="5.15207">
        <ele>1059.4</ele>
        <time>2015-06-25T09:51:35Z</time>
      </trkpt>
      <trkpt lat="44.90163" lon="5.15217">
        <ele>1059.5</ele>
        <time>2015-06-25T09:51:41Z</time>
      </trkpt>
      <trkpt lat="44.90157" lon="5.15225">
        <ele>1059.1</ele>
        <time>2015-06-25T09:51:48Z</time>
      </trkpt>
      <trkpt lat="44.90151" lon="5.15234">
        <ele>1058.8</ele>
        <time>2015-06-25T09:51:53Z</time>
      </trkpt>
      <trkpt lat="44.90145" lon="5.15241">
        <ele>1058.3</ele>
        <time>2015-06-25T09:52:01Z</time>
      </trkpt>
      <trkpt lat="44.90141" lon="5.15252">
        <ele>1057.7</ele>
        <time>2015-06-25T09:52:08Z</time>
      </trkpt>
      <trkpt lat="44.90137" lon="5.15262">
        <ele>1057.1</ele>
        <time>2015-06-25T09:52:15Z</time>
      </trkpt>
      <trkpt lat="44.90136" lon="5.15263">
        <ele>1057.1</ele>
        <time>2015-06-25T09:52:16Z</time>
      </trkpt>
      <trkpt lat="44.90135" lon="5.15285">
        <ele>1054.8</ele>
        <time>2015-06-25T09:52:30Z</time>
      </trkpt>
      <trkpt lat="44.90133" lon="5.15296">
        <ele>1054.5</ele>
        <time>2015-06-25T09:52:36Z</time>
      </trkpt>
      <trkpt lat="44.9013" lon="5.15307">
        <ele>1053.6</ele>
        <time>2015-06-25T09:52:44Z</time>
      </trkpt>
      <trkpt lat="44.90125" lon="5.15316">
        <ele>1053.7</ele>
        <time>2015-06-25T09:52:53Z</time>
      </trkpt>
      <trkpt lat="44.90122" lon="5.15328">
        <ele>1052.7</ele>
        <time>2015-06-25T09:53:02Z</time>
      </trkpt>
      <trkpt lat="44.90117" lon="5.15338">
        <ele>1053.3</ele>
        <time>2015-06-25T09:53:09Z</time>
      </trkpt>
      <trkpt lat="44.90114" lon="5.15348">
        <ele>1052.7</ele>
        <time>2015-06-25T09:53:14Z</time>
      </trkpt>
      <trkpt lat="44.9011" lon="5.15359">
        <ele>1052.1</ele>
        <time>2015-06-25T09:53:21Z</time>
      </trkpt>
      <trkpt lat="44.9011" lon="5.15361">
        <ele>1052.1</ele>
        <time>2015-06-25T09:53:22Z</time>
      </trkpt>
      <trkpt lat="44.90105" lon="5.15381">
        <ele>1051.1</ele>
        <time>2015-06-25T09:53:38Z</time>
      </trkpt>
      <trkpt lat="44.90102" lon="5.15392">
        <ele>1050</ele>
        <time>2015-06-25T09:53:45Z</time>
      </trkpt>
      <trkpt lat="44.90099" lon="5.15404">
        <ele>1049.9</ele>
        <time>2015-06-25T09:53:52Z</time>
      </trkpt>
      <trkpt lat="44.90091" lon="5.15411">
        <ele>1048.7</ele>
        <time>2015-06-25T09:54:00Z</time>
      </trkpt>
      <trkpt lat="44.90084" lon="5.15418">
        <ele>1049.4</ele>
        <time>2015-06-25T09:54:08Z</time>
      </trkpt>
      <trkpt lat="44.90083" lon="5.1543">
        <ele>1048.8</ele>
        <time>2015-06-25T09:54:16Z</time>
      </trkpt>
      <trkpt lat="44.90083" lon="5.15443">
        <ele>1048.5</ele>
        <time>2015-06-25T09:54:25Z</time>
      </trkpt>
      <trkpt lat="44.90084" lon="5.15445">
        <ele>1048.6</ele>
        <time>2015-06-25T09:54:26Z</time>
      </trkpt>
      <trkpt lat="44.90091" lon="5.15464">
        <ele>1046.7</ele>
        <time>2015-06-25T09:54:40Z</time>
      </trkpt>
      <trkpt lat="44.90093" lon="5.15475">
        <ele>1046.4</ele>
        <time>2015-06-25T09:54:47Z</time>
      </trkpt>
      <trkpt lat="44.90094" lon="5.15488">
        <ele>1044.5</ele>
        <time>2015-06-25T09:54:58Z</time>
      </trkpt>
      <trkpt lat="44.90095" lon="5.155">
        <ele>1043.7</ele>
        <time>2015-06-25T09:55:08Z</time>
      </trkpt>
      <trkpt lat="44.90091" lon="5.1551">
        <ele>1042.8</ele>
        <time>2015-06-25T09:55:14Z</time>
      </trkpt>
      <trkpt lat="44.90091" lon="5.15523">
        <ele>1042.8</ele>
        <time>2015-06-25T09:55:22Z</time>
      </trkpt>
      <trkpt lat="44.90093" lon="5.15535">
        <ele>1041.8</ele>
        <time>2015-06-25T09:55:31Z</time>
      </trkpt>
      <trkpt lat="44.90093" lon="5.15536">
        <ele>1041.7</ele>
        <time>2015-06-25T09:55:32Z</time>
      </trkpt>
      <trkpt lat="44.90098" lon="5.15558">
        <ele>1040.8</ele>
        <time>2015-06-25T09:55:45Z</time>
      </trkpt>
      <trkpt lat="44.90102" lon="5.15567">
        <ele>1039.3</ele>
        <time>2015-06-25T09:55:52Z</time>
      </trkpt>
      <trkpt lat="44.90108" lon="5.15575">
        <ele>1038.6</ele>
        <time>2015-06-25T09:55:58Z</time>
      </trkpt>
      <trkpt lat="44.90112" lon="5.15587">
        <ele>1037.9</ele>
        <time>2015-06-25T09:56:06Z</time>
      </trkpt>
      <trkpt lat="44.90112" lon="5.15599">
        <ele>1037.4</ele>
        <time>2015-06-25T09:56:11Z</time>
      </trkpt>
      <trkpt lat="44.90106" lon="5.15608">
        <ele>1037.6</ele>
        <time>2015-06-25T09:56:17Z</time>
      </trkpt>
      <trkpt lat="44.90103" lon="5.15618">
        <ele>1038.4</ele>
        <time>2015-06-25T09:56:24Z</time>
      </trkpt>
      <trkpt lat="44.90103" lon="5.1563">
        <ele>1039.1</ele>
        <time>2015-06-25T09:56:31Z</time>
      </trkpt>
      <trkpt lat="44.901" lon="5.15641">
        <ele>1038.9</ele>
        <time>2015-06-25T09:56:36Z</time>
      </trkpt>
      <trkpt lat="44.90099" lon="5.15643">
        <ele>1039</ele>
        <time>2015-06-25T09:56:37Z</time>
      </trkpt>
      <trkpt lat="44.90099" lon="5.15665">
        <ele>1038.6</ele>
        <time>2015-06-25T09:56:50Z</time>
      </trkpt>
      <trkpt lat="44.90101" lon="5.15677">
        <ele>1036.2</ele>
        <time>2015-06-25T09:59:43Z</time>
      </trkpt>
      <trkpt lat="44.90102" lon="5.15677">
        <ele>1035.8</ele>
        <time>2015-06-25T09:59:44Z</time>
      </trkpt>
      <trkpt lat="44.90111" lon="5.15679">
        <ele>1035.7</ele>
        <time>2015-06-25T10:00:49Z</time>
      </trkpt>
      <trkpt lat="44.90125" lon="5.15689">
        <ele>1035</ele>
        <time>2015-06-25T10:01:04Z</time>
      </trkpt>
      <trkpt lat="44.90131" lon="5.15696">
        <ele>1035.3</ele>
        <time>2015-06-25T10:01:12Z</time>
      </trkpt>
      <trkpt lat="44.90136" lon="5.15705">
        <ele>1035.4</ele>
        <time>2015-06-25T10:01:20Z</time>
      </trkpt>
      <trkpt lat="44.90141" lon="5.15714">
        <ele>1034.8</ele>
        <time>2015-06-25T10:01:27Z</time>
      </trkpt>
      <trkpt lat="44.90146" lon="5.15724">
        <ele>1034.8</ele>
        <time>2015-06-25T10:01:33Z</time>
      </trkpt>
      <trkpt lat="44.90153" lon="5.15732">
        <ele>1035</ele>
        <time>2015-06-25T10:01:42Z</time>
      </trkpt>
      <trkpt lat="44.9016" lon="5.15738">
        <ele>1034.9</ele>
        <time>2015-06-25T10:01:51Z</time>
      </trkpt>
      <trkpt lat="44.90161" lon="5.1574">
        <ele>1034.7</ele>
        <time>2015-06-25T10:01:52Z</time>
      </trkpt>
      <trkpt lat="44.90172" lon="5.15755">
        <ele>1035</ele>
        <time>2015-06-25T10:02:08Z</time>
      </trkpt>
      <trkpt lat="44.90177" lon="5.15765">
        <ele>1035.5</ele>
        <time>2015-06-25T10:02:15Z</time>
      </trkpt>
      <trkpt lat="44.90181" lon="5.15775">
        <ele>1035.7</ele>
        <time>2015-06-25T10:02:21Z</time>
      </trkpt>
      <trkpt lat="44.90187" lon="5.15783">
        <ele>1036.1</ele>
        <time>2015-06-25T10:02:28Z</time>
      </trkpt>
      <trkpt lat="44.90193" lon="5.15791">
        <ele>1035.6</ele>
        <time>2015-06-25T10:02:35Z</time>
      </trkpt>
      <trkpt lat="44.90198" lon="5.158">
        <ele>1036.6</ele>
        <time>2015-06-25T10:02:41Z</time>
      </trkpt>
      <trkpt lat="44.90205" lon="5.15806">
        <ele>1036.8</ele>
        <time>2015-06-25T10:02:48Z</time>
      </trkpt>
      <trkpt lat="44.90213" lon="5.15811">
        <ele>1036.9</ele>
        <time>2015-06-25T10:02:55Z</time>
      </trkpt>
      <trkpt lat="44.90214" lon="5.15811">
        <ele>1036.7</ele>
        <time>2015-06-25T10:02:56Z</time>
      </trkpt>
      <trkpt lat="44.90229" lon="5.15819">
        <ele>1038.1</ele>
        <time>2015-06-25T10:03:09Z</time>
      </trkpt>
      <trkpt lat="44.90236" lon="5.1582">
        <ele>1038.9</ele>
        <time>2015-06-25T10:03:18Z</time>
      </trkpt>
      <trkpt lat="44.90244" lon="5.15823">
        <ele>1039.5</ele>
        <time>2015-06-25T10:03:25Z</time>
      </trkpt>
      <trkpt lat="44.90253" lon="5.15825">
        <ele>1039.6</ele>
        <time>2015-06-25T10:03:31Z</time>
      </trkpt>
      <trkpt lat="44.90261" lon="5.15829">
        <ele>1039.3</ele>
        <time>2015-06-25T10:03:38Z</time>
      </trkpt>
      <trkpt lat="44.90268" lon="5.15833">
        <ele>1039.2</ele>
        <time>2015-06-25T10:03:43Z</time>
      </trkpt>
      <trkpt lat="44.90276" lon="5.15836">
        <ele>1039.2</ele>
        <time>2015-06-25T10:03:50Z</time>
      </trkpt>
      <trkpt lat="44.90285" lon="5.15838">
        <ele>1038.3</ele>
        <time>2015-06-25T10:03:57Z</time>
      </trkpt>
      <trkpt lat="44.90285" lon="5.15838">
        <ele>1038.3</ele>
        <time>2015-06-25T10:03:58Z</time>
      </trkpt>
      <trkpt lat="44.90301" lon="5.15835">
        <ele>1038.3</ele>
        <time>2015-06-25T10:04:10Z</time>
      </trkpt>
      <trkpt lat="44.9031" lon="5.15834">
        <ele>1038.3</ele>
        <time>2015-06-25T10:04:17Z</time>
      </trkpt>
      <trkpt lat="44.90317" lon="5.15834">
        <ele>1039.2</ele>
        <time>2015-06-25T10:04:25Z</time>
      </trkpt>
      <trkpt lat="44.90325" lon="5.15834">
        <ele>1039.4</ele>
        <time>2015-06-25T10:04:31Z</time>
      </trkpt>
      <trkpt lat="44.90333" lon="5.15832">
        <ele>1040.2</ele>
        <time>2015-06-25T10:04:37Z</time>
      </trkpt>
      <trkpt lat="44.90342" lon="5.15832">
        <ele>1040.3</ele>
        <time>2015-06-25T10:04:44Z</time>
      </trkpt>
      <trkpt lat="44.90351" lon="5.1583">
        <ele>1040.1</ele>
        <time>2015-06-25T10:04:51Z</time>
      </trkpt>
      <trkpt lat="44.90359" lon="5.15825">
        <ele>1041.1</ele>
        <time>2015-06-25T10:04:58Z</time>
      </trkpt>
      <trkpt lat="44.9036" lon="5.15826">
        <ele>1041</ele>
        <time>2015-06-25T10:04:59Z</time>
      </trkpt>
      <trkpt lat="44.90375" lon="5.15828">
        <ele>1042</ele>
        <time>2015-06-25T10:05:13Z</time>
      </trkpt>
      <trkpt lat="44.90384" lon="5.15828">
        <ele>1042.6</ele>
        <time>2015-06-25T10:05:19Z</time>
      </trkpt>
      <trkpt lat="44.90392" lon="5.15831">
        <ele>1043.1</ele>
        <time>2015-06-25T10:05:27Z</time>
      </trkpt>
      <trkpt lat="44.904" lon="5.15836">
        <ele>1043.6</ele>
        <time>2015-06-25T10:05:35Z</time>
      </trkpt>
      <trkpt lat="44.90408" lon="5.15838">
        <ele>1043.7</ele>
        <time>2015-06-25T10:05:44Z</time>
      </trkpt>
      <trkpt lat="44.90416" lon="5.15842">
        <ele>1043.7</ele>
        <time>2015-06-25T10:05:52Z</time>
      </trkpt>
      <trkpt lat="44.90424" lon="5.15844">
        <ele>1044.3</ele>
        <time>2015-06-25T10:05:59Z</time>
      </trkpt>
      <trkpt lat="44.90425" lon="5.15845">
        <ele>1044.2</ele>
        <time>2015-06-25T10:06:00Z</time>
      </trkpt>
      <trkpt lat="44.90441" lon="5.15848">
        <ele>1045.1</ele>
        <time>2015-06-25T10:06:20Z</time>
      </trkpt>
      <trkpt lat="44.90448" lon="5.15853">
        <ele>1045.9</ele>
        <time>2015-06-25T10:06:25Z</time>
      </trkpt>
      <trkpt lat="44.90456" lon="5.15856">
        <ele>1045.6</ele>
        <time>2015-06-25T10:06:33Z</time>
      </trkpt>
      <trkpt lat="44.90464" lon="5.15861">
        <ele>1045.6</ele>
        <time>2015-06-25T10:06:40Z</time>
      </trkpt>
      <trkpt lat="44.90471" lon="5.15866">
        <ele>1046.3</ele>
        <time>2015-06-25T10:06:47Z</time>
      </trkpt>
      <trkpt lat="44.9048" lon="5.15867">
        <ele>1046.7</ele>
        <time>2015-06-25T10:06:54Z</time>
      </trkpt>
      <trkpt lat="44.90487" lon="5.15869">
        <ele>1047</ele>
        <time>2015-06-25T10:07:00Z</time>
      </trkpt>
      <trkpt lat="44.90494" lon="5.15875">
        <ele>1047.2</ele>
        <time>2015-06-25T10:07:06Z</time>
      </trkpt>
      <trkpt lat="44.90496" lon="5.15875">
        <ele>1047.5</ele>
        <time>2015-06-25T10:07:07Z</time>
      </trkpt>
      <trkpt lat="44.9051" lon="5.15876">
        <ele>1046.6</ele>
        <time>2015-06-25T10:07:37Z</time>
      </trkpt>
      <trkpt lat="44.90518" lon="5.15879">
        <ele>1046.9</ele>
        <time>2015-06-25T10:07:42Z</time>
      </trkpt>
      <trkpt lat="44.90526" lon="5.15883">
        <ele>1047</ele>
        <time>2015-06-25T10:07:50Z</time>
      </trkpt>
      <trkpt lat="44.90534" lon="5.15882">
        <ele>1047</ele>
        <time>2015-06-25T10:07:55Z</time>
      </trkpt>
      <trkpt lat="44.90541" lon="5.15877">
        <ele>1046.8</ele>
        <time>2015-06-25T10:08:12Z</time>
      </trkpt>
      <trkpt lat="44.90542" lon="5.15876">
        <ele>1046.7</ele>
        <time>2015-06-25T10:08:13Z</time>
      </trkpt>
      <trkpt lat="44.90556" lon="5.15874">
        <ele>1045.6</ele>
        <time>2015-06-25T10:08:25Z</time>
      </trkpt>
      <trkpt lat="44.90565" lon="5.15872">
        <ele>1045.3</ele>
        <time>2015-06-25T10:08:34Z</time>
      </trkpt>
      <trkpt lat="44.90573" lon="5.15871">
        <ele>1044.7</ele>
        <time>2015-06-25T10:08:40Z</time>
      </trkpt>
      <trkpt lat="44.9058" lon="5.1587">
        <ele>1044.7</ele>
        <time>2015-06-25T10:08:45Z</time>
      </trkpt>
      <trkpt lat="44.90589" lon="5.15868">
        <ele>1044.6</ele>
        <time>2015-06-25T10:08:50Z</time>
      </trkpt>
      <trkpt lat="44.90597" lon="5.15871">
        <ele>1044.6</ele>
        <time>2015-06-25T10:09:00Z</time>
      </trkpt>
      <trkpt lat="44.90605" lon="5.15871">
        <ele>1045.1</ele>
        <time>2015-06-25T10:09:07Z</time>
      </trkpt>
      <trkpt lat="44.90613" lon="5.15874">
        <ele>1045.3</ele>
        <time>2015-06-25T10:09:13Z</time>
      </trkpt>
      <trkpt lat="44.90614" lon="5.15875">
        <ele>1045.4</ele>
        <time>2015-06-25T10:09:14Z</time>
      </trkpt>
      <trkpt lat="44.90627" lon="5.15887">
        <ele>1046.3</ele>
        <time>2015-06-25T10:09:29Z</time>
      </trkpt>
      <trkpt lat="44.90632" lon="5.15895">
        <ele>1046.6</ele>
        <time>2015-06-25T10:09:36Z</time>
      </trkpt>
      <trkpt lat="44.90638" lon="5.15903">
        <ele>1046.6</ele>
        <time>2015-06-25T10:09:43Z</time>
      </trkpt>
      <trkpt lat="44.90646" lon="5.15906">
        <ele>1046.9</ele>
        <time>2015-06-25T10:09:50Z</time>
      </trkpt>
      <trkpt lat="44.90654" lon="5.15906">
        <ele>1046.7</ele>
        <time>2015-06-25T10:09:56Z</time>
      </trkpt>
      <trkpt lat="44.90662" lon="5.15907">
        <ele>1047.1</ele>
        <time>2015-06-25T10:10:05Z</time>
      </trkpt>
      <trkpt lat="44.9067" lon="5.15905">
        <ele>1047.6</ele>
        <time>2015-06-25T10:10:13Z</time>
      </trkpt>
      <trkpt lat="44.90677" lon="5.15897">
        <ele>1048</ele>
        <time>2015-06-25T10:10:23Z</time>
      </trkpt>
      <trkpt lat="44.90676" lon="5.15895">
        <ele>1048.3</ele>
        <time>2015-06-25T10:10:24Z</time>
      </trkpt>
      <trkpt lat="44.90662" lon="5.15884">
        <ele>1050.9</ele>
        <time>2015-06-25T10:10:43Z</time>
      </trkpt>
      <trkpt lat="44.90656" lon="5.15875">
        <ele>1051.3</ele>
        <time>2015-06-25T10:10:52Z</time>
      </trkpt>
      <trkpt lat="44.90651" lon="5.15867">
        <ele>1052.4</ele>
        <time>2015-06-25T10:10:59Z</time>
      </trkpt>
      <trkpt lat="44.90656" lon="5.15876">
        <ele>1052.9</ele>
        <time>2015-06-25T10:11:52Z</time>
      </trkpt>
      <trkpt lat="44.90656" lon="5.15877">
        <ele>1052.9</ele>
        <time>2015-06-25T10:11:53Z</time>
      </trkpt>
      <trkpt lat="44.90653" lon="5.15864">
        <ele>1050.6</ele>
        <time>2015-06-25T10:13:45Z</time>
      </trkpt>
      <trkpt lat="44.90655" lon="5.15878">
        <ele>1051.9</ele>
        <time>2015-06-25T10:19:25Z</time>
      </trkpt>
      <trkpt lat="44.9067" lon="5.15888">
        <ele>1049.9</ele>
        <time>2015-06-25T10:19:42Z</time>
      </trkpt>
      <trkpt lat="44.90678" lon="5.15893">
        <ele>1049.1</ele>
        <time>2015-06-25T10:19:50Z</time>
      </trkpt>
      <trkpt lat="44.90685" lon="5.15885">
        <ele>1048.8</ele>
        <time>2015-06-25T10:20:01Z</time>
      </trkpt>
      <trkpt lat="44.90688" lon="5.15873">
        <ele>1049</ele>
        <time>2015-06-25T10:20:08Z</time>
      </trkpt>
      <trkpt lat="44.90691" lon="5.15862">
        <ele>1048.4</ele>
        <time>2015-06-25T10:20:16Z</time>
      </trkpt>
      <trkpt lat="44.90696" lon="5.15852">
        <ele>1048.3</ele>
        <time>2015-06-25T10:20:23Z</time>
      </trkpt>
      <trkpt lat="44.90701" lon="5.15843">
        <ele>1048.7</ele>
        <time>2015-06-25T10:20:30Z</time>
      </trkpt>
      <trkpt lat="44.90702" lon="5.15843">
        <ele>1048.7</ele>
        <time>2015-06-25T10:20:31Z</time>
      </trkpt>
      <trkpt lat="44.90714" lon="5.1583">
        <ele>1049.6</ele>
        <time>2015-06-25T10:20:44Z</time>
      </trkpt>
      <trkpt lat="44.90721" lon="5.15823">
        <ele>1050.6</ele>
        <time>2015-06-25T10:20:54Z</time>
      </trkpt>
      <trkpt lat="44.90729" lon="5.15822">
        <ele>1049.9</ele>
        <time>2015-06-25T10:21:04Z</time>
      </trkpt>
      <trkpt lat="44.90736" lon="5.15829">
        <ele>1050.8</ele>
        <time>2015-06-25T10:21:13Z</time>
      </trkpt>
      <trkpt lat="44.90741" lon="5.15839">
        <ele>1050.4</ele>
        <time>2015-06-25T10:21:21Z</time>
      </trkpt>
      <trkpt lat="44.90741" lon="5.1585">
        <ele>1050.1</ele>
        <time>2015-06-25T10:21:29Z</time>
      </trkpt>
      <trkpt lat="44.90745" lon="5.1586">
        <ele>1049.7</ele>
        <time>2015-06-25T10:21:36Z</time>
      </trkpt>
      <trkpt lat="44.90746" lon="5.15863">
        <ele>1049.8</ele>
        <time>2015-06-25T10:21:37Z</time>
      </trkpt>
      <trkpt lat="44.90753" lon="5.1588">
        <ele>1049.7</ele>
        <time>2015-06-25T10:21:47Z</time>
      </trkpt>
      <trkpt lat="44.90756" lon="5.15891">
        <ele>1050.1</ele>
        <time>2015-06-25T10:21:52Z</time>
      </trkpt>
      <trkpt lat="44.90758" lon="5.15902">
        <ele>1050.7</ele>
        <time>2015-06-25T10:22:02Z</time>
      </trkpt>
      <trkpt lat="44.90761" lon="5.15913">
        <ele>1050.7</ele>
        <time>2015-06-25T10:22:08Z</time>
      </trkpt>
      <trkpt lat="44.90764" lon="5.15923">
        <ele>1052.1</ele>
        <time>2015-06-25T10:22:14Z</time>
      </trkpt>
      <trkpt lat="44.90765" lon="5.15936">
        <ele>1051.5</ele>
        <time>2015-06-25T10:22:22Z</time>
      </trkpt>
      <trkpt lat="44.90767" lon="5.15948">
        <ele>1052.2</ele>
        <time>2015-06-25T10:22:31Z</time>
      </trkpt>
      <trkpt lat="44.90771" lon="5.15959">
        <ele>1052.8</ele>
        <time>2015-06-25T10:23:04Z</time>
      </trkpt>
      <trkpt lat="44.90771" lon="5.1596">
        <ele>1053</ele>
        <time>2015-06-25T10:23:05Z</time>
      </trkpt>
      <trkpt lat="44.90784" lon="5.15973">
        <ele>1053.7</ele>
        <time>2015-06-25T10:23:19Z</time>
      </trkpt>
      <trkpt lat="44.9079" lon="5.15979">
        <ele>1054.7</ele>
        <time>2015-06-25T10:23:26Z</time>
      </trkpt>
      <trkpt lat="44.90798" lon="5.15986">
        <ele>1055.5</ele>
        <time>2015-06-25T10:23:33Z</time>
      </trkpt>
      <trkpt lat="44.90806" lon="5.15991">
        <ele>1054.5</ele>
        <time>2015-06-25T10:23:39Z</time>
      </trkpt>
      <trkpt lat="44.90813" lon="5.15997">
        <ele>1054.7</ele>
        <time>2015-06-25T10:23:45Z</time>
      </trkpt>
      <trkpt lat="44.90821" lon="5.16001">
        <ele>1054.8</ele>
        <time>2015-06-25T10:23:53Z</time>
      </trkpt>
      <trkpt lat="44.90829" lon="5.16002">
        <ele>1055.8</ele>
        <time>2015-06-25T10:24:02Z</time>
      </trkpt>
      <trkpt lat="44.90838" lon="5.16002">
        <ele>1055.2</ele>
        <time>2015-06-25T10:24:08Z</time>
      </trkpt>
      <trkpt lat="44.90838" lon="5.16002">
        <ele>1054.9</ele>
        <time>2015-06-25T10:24:09Z</time>
      </trkpt>
      <trkpt lat="44.90854" lon="5.16">
        <ele>1055.7</ele>
        <time>2015-06-25T10:24:25Z</time>
      </trkpt>
      <trkpt lat="44.90859" lon="5.1599">
        <ele>1055.7</ele>
        <time>2015-06-25T10:24:43Z</time>
      </trkpt>
      <trkpt lat="44.90868" lon="5.15989">
        <ele>1056.1</ele>
        <time>2015-06-25T10:24:50Z</time>
      </trkpt>
      <trkpt lat="44.90877" lon="5.15987">
        <ele>1056.2</ele>
        <time>2015-06-25T10:24:59Z</time>
      </trkpt>
      <trkpt lat="44.90886" lon="5.15984">
        <ele>1056.4</ele>
        <time>2015-06-25T10:25:06Z</time>
      </trkpt>
      <trkpt lat="44.90894" lon="5.15982">
        <ele>1057</ele>
        <time>2015-06-25T10:25:13Z</time>
      </trkpt>
      <trkpt lat="44.90895" lon="5.15982">
        <ele>1057</ele>
        <time>2015-06-25T10:25:14Z</time>
      </trkpt>
      <trkpt lat="44.90909" lon="5.15979">
        <ele>1057.4</ele>
        <time>2015-06-25T10:25:31Z</time>
      </trkpt>
      <trkpt lat="44.90916" lon="5.15973">
        <ele>1056.6</ele>
        <time>2015-06-25T10:25:36Z</time>
      </trkpt>
      <trkpt lat="44.90924" lon="5.15969">
        <ele>1057</ele>
        <time>2015-06-25T10:25:42Z</time>
      </trkpt>
      <trkpt lat="44.90931" lon="5.15965">
        <ele>1057.3</ele>
        <time>2015-06-25T10:25:48Z</time>
      </trkpt>
      <trkpt lat="44.90939" lon="5.15963">
        <ele>1057.3</ele>
        <time>2015-06-25T10:25:57Z</time>
      </trkpt>
      <trkpt lat="44.90947" lon="5.15966">
        <ele>1057.1</ele>
        <time>2015-06-25T10:26:02Z</time>
      </trkpt>
      <trkpt lat="44.90955" lon="5.15969">
        <ele>1056.7</ele>
        <time>2015-06-25T10:26:09Z</time>
      </trkpt>
      <trkpt lat="44.90963" lon="5.15973">
        <ele>1056.3</ele>
        <time>2015-06-25T10:26:16Z</time>
      </trkpt>
      <trkpt lat="44.90964" lon="5.15973">
        <ele>1056</ele>
        <time>2015-06-25T10:26:17Z</time>
      </trkpt>
      <trkpt lat="44.90979" lon="5.1598">
        <ele>1055.7</ele>
        <time>2015-06-25T10:26:32Z</time>
      </trkpt>
      <trkpt lat="44.90987" lon="5.15984">
        <ele>1056.2</ele>
        <time>2015-06-25T10:26:39Z</time>
      </trkpt>
      <trkpt lat="44.90996" lon="5.15984">
        <ele>1056.5</ele>
        <time>2015-06-25T10:26:44Z</time>
      </trkpt>
      <trkpt lat="44.91003" lon="5.15989">
        <ele>1055.5</ele>
        <time>2015-06-25T10:26:51Z</time>
      </trkpt>
      <trkpt lat="44.91012" lon="5.15991">
        <ele>1056.6</ele>
        <time>2015-06-25T10:26:58Z</time>
      </trkpt>
      <trkpt lat="44.91019" lon="5.15998">
        <ele>1056.7</ele>
        <time>2015-06-25T10:27:05Z</time>
      </trkpt>
      <trkpt lat="44.91026" lon="5.16003">
        <ele>1056.4</ele>
        <time>2015-06-25T10:27:12Z</time>
      </trkpt>
      <trkpt lat="44.91035" lon="5.16004">
        <ele>1056.4</ele>
        <time>2015-06-25T10:27:18Z</time>
      </trkpt>
      <trkpt lat="44.91035" lon="5.16005">
        <ele>1056.3</ele>
        <time>2015-06-25T10:27:19Z</time>
      </trkpt>
      <trkpt lat="44.91048" lon="5.16014">
        <ele>1057.5</ele>
        <time>2015-06-25T10:27:29Z</time>
      </trkpt>
      <trkpt lat="44.91055" lon="5.1602">
        <ele>1058.4</ele>
        <time>2015-06-25T10:27:36Z</time>
      </trkpt>
      <trkpt lat="44.91062" lon="5.16027">
        <ele>1058.1</ele>
        <time>2015-06-25T10:27:43Z</time>
      </trkpt>
      <trkpt lat="44.91069" lon="5.16033">
        <ele>1058.4</ele>
        <time>2015-06-25T10:27:50Z</time>
      </trkpt>
      <trkpt lat="44.91076" lon="5.16039">
        <ele>1059</ele>
        <time>2015-06-25T10:27:56Z</time>
      </trkpt>
      <trkpt lat="44.91083" lon="5.16045">
        <ele>1059.1</ele>
        <time>2015-06-25T10:28:03Z</time>
      </trkpt>
      <trkpt lat="44.91089" lon="5.16052">
        <ele>1059.5</ele>
        <time>2015-06-25T10:28:08Z</time>
      </trkpt>
      <trkpt lat="44.91096" lon="5.16058">
        <ele>1060.5</ele>
        <time>2015-06-25T10:28:18Z</time>
      </trkpt>
      <trkpt lat="44.91102" lon="5.16066">
        <ele>1060.3</ele>
        <time>2015-06-25T10:28:27Z</time>
      </trkpt>
      <trkpt lat="44.91103" lon="5.16067">
        <ele>1059.9</ele>
        <time>2015-06-25T10:28:28Z</time>
      </trkpt>
      <trkpt lat="44.91115" lon="5.16081">
        <ele>1060.7</ele>
        <time>2015-06-25T10:28:40Z</time>
      </trkpt>
      <trkpt lat="44.91123" lon="5.16085">
        <ele>1061.8</ele>
        <time>2015-06-25T10:28:49Z</time>
      </trkpt>
      <trkpt lat="44.9113" lon="5.1609">
        <ele>1062.1</ele>
        <time>2015-06-25T10:28:57Z</time>
      </trkpt>
      <trkpt lat="44.91138" lon="5.16094">
        <ele>1061.9</ele>
        <time>2015-06-25T10:29:03Z</time>
      </trkpt>
      <trkpt lat="44.91146" lon="5.16096">
        <ele>1063.4</ele>
        <time>2015-06-25T10:29:11Z</time>
      </trkpt>
      <trkpt lat="44.91155" lon="5.16097">
        <ele>1063.2</ele>
        <time>2015-06-25T10:29:18Z</time>
      </trkpt>
      <trkpt lat="44.91163" lon="5.16096">
        <ele>1063.5</ele>
        <time>2015-06-25T10:29:25Z</time>
      </trkpt>
      <trkpt lat="44.91172" lon="5.16097">
        <ele>1064.5</ele>
        <time>2015-06-25T10:29:33Z</time>
      </trkpt>
      <trkpt lat="44.91173" lon="5.16096">
        <ele>1064.5</ele>
        <time>2015-06-25T10:29:34Z</time>
      </trkpt>
      <trkpt lat="44.91188" lon="5.16089">
        <ele>1064.8</ele>
        <time>2015-06-25T10:29:50Z</time>
      </trkpt>
      <trkpt lat="44.91195" lon="5.16081">
        <ele>1065.1</ele>
        <time>2015-06-25T10:29:56Z</time>
      </trkpt>
      <trkpt lat="44.91203" lon="5.16079">
        <ele>1066.9</ele>
        <time>2015-06-25T10:30:06Z</time>
      </trkpt>
      <trkpt lat="44.91211" lon="5.16077">
        <ele>1067.6</ele>
        <time>2015-06-25T10:30:13Z</time>
      </trkpt>
      <trkpt lat="44.91219" lon="5.16076">
        <ele>1067</ele>
        <time>2015-06-25T10:30:22Z</time>
      </trkpt>
      <trkpt lat="44.91228" lon="5.16078">
        <ele>1068</ele>
        <time>2015-06-25T10:30:31Z</time>
      </trkpt>
      <trkpt lat="44.91236" lon="5.16077">
        <ele>1068.5</ele>
        <time>2015-06-25T10:30:39Z</time>
      </trkpt>
      <trkpt lat="44.91237" lon="5.16078">
        <ele>1068.4</ele>
        <time>2015-06-25T10:30:40Z</time>
      </trkpt>
      <trkpt lat="44.91252" lon="5.16075">
        <ele>1070.5</ele>
        <time>2015-06-25T10:31:01Z</time>
      </trkpt>
      <trkpt lat="44.91245" lon="5.16082">
        <ele>1069.5</ele>
        <time>2015-06-25T10:31:20Z</time>
      </trkpt>
      <trkpt lat="44.91251" lon="5.16089">
        <ele>1068.8</ele>
        <time>2015-06-25T10:31:28Z</time>
      </trkpt>
      <trkpt lat="44.9126" lon="5.1609">
        <ele>1069.3</ele>
        <time>2015-06-25T10:31:38Z</time>
      </trkpt>
      <trkpt lat="44.91268" lon="5.1609">
        <ele>1068.8</ele>
        <time>2015-06-25T10:31:44Z</time>
      </trkpt>
      <trkpt lat="44.91269" lon="5.1609">
        <ele>1068.9</ele>
        <time>2015-06-25T10:31:45Z</time>
      </trkpt>
      <trkpt lat="44.91278" lon="5.16091">
        <ele>1068.8</ele>
        <time>2015-06-25T10:32:48Z</time>
      </trkpt>
      <trkpt lat="44.91293" lon="5.16097">
        <ele>1070.1</ele>
        <time>2015-06-25T10:33:31Z</time>
      </trkpt>
      <trkpt lat="44.91302" lon="5.16097">
        <ele>1070.1</ele>
        <time>2015-06-25T10:33:46Z</time>
      </trkpt>
      <trkpt lat="44.9131" lon="5.16099">
        <ele>1071.2</ele>
        <time>2015-06-25T10:33:56Z</time>
      </trkpt>
      <trkpt lat="44.91311" lon="5.161">
        <ele>1071.1</ele>
        <time>2015-06-25T10:33:57Z</time>
      </trkpt>
      <trkpt lat="44.91327" lon="5.16102">
        <ele>1076.7</ele>
        <time>2015-06-25T10:35:02Z</time>
      </trkpt>
      <trkpt lat="44.91328" lon="5.16103">
        <ele>1076.7</ele>
        <time>2015-06-25T10:35:03Z</time>
      </trkpt>
      <trkpt lat="44.91327" lon="5.16125">
        <ele>1078.4</ele>
        <time>2015-06-25T10:35:37Z</time>
      </trkpt>
      <trkpt lat="44.91334" lon="5.16131">
        <ele>1078.9</ele>
        <time>2015-06-25T10:35:46Z</time>
      </trkpt>
      <trkpt lat="44.91341" lon="5.16137">
        <ele>1079</ele>
        <time>2015-06-25T10:35:56Z</time>
      </trkpt>
      <trkpt lat="44.91347" lon="5.16144">
        <ele>1079.5</ele>
        <time>2015-06-25T10:36:05Z</time>
      </trkpt>
      <trkpt lat="44.91348" lon="5.16145">
        <ele>1079.4</ele>
        <time>2015-06-25T10:36:06Z</time>
      </trkpt>
      <trkpt lat="44.9136" lon="5.16159">
        <ele>1080.1</ele>
        <time>2015-06-25T10:36:23Z</time>
      </trkpt>
      <trkpt lat="44.91367" lon="5.16166">
        <ele>1080</ele>
        <time>2015-06-25T10:36:35Z</time>
      </trkpt>
      <trkpt lat="44.91373" lon="5.16174">
        <ele>1080.8</ele>
        <time>2015-06-25T10:36:45Z</time>
      </trkpt>
      <trkpt lat="44.9138" lon="5.16182">
        <ele>1081.5</ele>
        <time>2015-06-25T10:36:56Z</time>
      </trkpt>
      <trkpt lat="44.91387" lon="5.1619">
        <ele>1083.1</ele>
        <time>2015-06-25T10:37:10Z</time>
      </trkpt>
      <trkpt lat="44.91387" lon="5.1619">
        <ele>1083.1</ele>
        <time>2015-06-25T10:37:11Z</time>
      </trkpt>
      <trkpt lat="44.91399" lon="5.16207">
        <ele>1085.5</ele>
        <time>2015-06-25T10:37:33Z</time>
      </trkpt>
      <trkpt lat="44.91406" lon="5.16215">
        <ele>1086.8</ele>
        <time>2015-06-25T10:37:47Z</time>
      </trkpt>
      <trkpt lat="44.91413" lon="5.16221">
        <ele>1088.6</ele>
        <time>2015-06-25T10:38:21Z</time>
      </trkpt>
      <trkpt lat="44.91414" lon="5.16221">
        <ele>1088.5</ele>
        <time>2015-06-25T10:38:22Z</time>
      </trkpt>
      <trkpt lat="44.91425" lon="5.1624">
        <ele>1090.8</ele>
        <time>2015-06-25T10:38:55Z</time>
      </trkpt>
      <trkpt lat="44.91429" lon="5.1625">
        <ele>1092.8</ele>
        <time>2015-06-25T10:39:10Z</time>
      </trkpt>
      <trkpt lat="44.91435" lon="5.1626">
        <ele>1093.2</ele>
        <time>2015-06-25T10:39:18Z</time>
      </trkpt>
      <trkpt lat="44.91439" lon="5.1627">
        <ele>1093.5</ele>
        <time>2015-06-25T10:39:26Z</time>
      </trkpt>
      <trkpt lat="44.9144" lon="5.16271">
        <ele>1093.5</ele>
        <time>2015-06-25T10:39:27Z</time>
      </trkpt>
      <trkpt lat="44.91452" lon="5.16286">
        <ele>1093.8</ele>
        <time>2015-06-25T10:39:41Z</time>
      </trkpt>
      <trkpt lat="44.91459" lon="5.16292">
        <ele>1094.3</ele>
        <time>2015-06-25T10:39:47Z</time>
      </trkpt>
      <trkpt lat="44.91467" lon="5.16296">
        <ele>1093.7</ele>
        <time>2015-06-25T10:40:12Z</time>
      </trkpt>
      <trkpt lat="44.91473" lon="5.16304">
        <ele>1094.2</ele>
        <time>2015-06-25T10:40:24Z</time>
      </trkpt>
      <trkpt lat="44.91479" lon="5.16313">
        <ele>1095.2</ele>
        <time>2015-06-25T10:40:32Z</time>
      </trkpt>
      <trkpt lat="44.91479" lon="5.16315">
        <ele>1095.2</ele>
        <time>2015-06-25T10:40:33Z</time>
      </trkpt>
      <trkpt lat="44.91485" lon="5.16336">
        <ele>1095.7</ele>
        <time>2015-06-25T10:40:46Z</time>
      </trkpt>
      <trkpt lat="44.9149" lon="5.16346">
        <ele>1096.2</ele>
        <time>2015-06-25T10:40:53Z</time>
      </trkpt>
      <trkpt lat="44.91496" lon="5.16352">
        <ele>1095.7</ele>
        <time>2015-06-25T10:41:00Z</time>
      </trkpt>
      <trkpt lat="44.915" lon="5.16364">
        <ele>1095</ele>
        <time>2015-06-25T10:41:08Z</time>
      </trkpt>
      <trkpt lat="44.91502" lon="5.16376">
        <ele>1093.9</ele>
        <time>2015-06-25T10:41:17Z</time>
      </trkpt>
      <trkpt lat="44.91509" lon="5.16383">
        <ele>1093.2</ele>
        <time>2015-06-25T10:41:26Z</time>
      </trkpt>
      <trkpt lat="44.91516" lon="5.16391">
        <ele>1092.8</ele>
        <time>2015-06-25T10:41:34Z</time>
      </trkpt>
      <trkpt lat="44.91517" lon="5.16393">
        <ele>1092.8</ele>
        <time>2015-06-25T10:41:35Z</time>
      </trkpt>
      <trkpt lat="44.91524" lon="5.1641">
        <ele>1093.8</ele>
        <time>2015-06-25T10:41:45Z</time>
      </trkpt>
      <trkpt lat="44.9153" lon="5.16417">
        <ele>1094.4</ele>
        <time>2015-06-25T10:41:52Z</time>
      </trkpt>
      <trkpt lat="44.91536" lon="5.16424">
        <ele>1095.2</ele>
        <time>2015-06-25T10:41:58Z</time>
      </trkpt>
      <trkpt lat="44.91543" lon="5.16432">
        <ele>1095.9</ele>
        <time>2015-06-25T10:42:06Z</time>
      </trkpt>
      <trkpt lat="44.91549" lon="5.16439">
        <ele>1097.1</ele>
        <time>2015-06-25T10:42:13Z</time>
      </trkpt>
      <trkpt lat="44.91556" lon="5.16445">
        <ele>1097.6</ele>
        <time>2015-06-25T10:42:20Z</time>
      </trkpt>
      <trkpt lat="44.91562" lon="5.16453">
        <ele>1098.5</ele>
        <time>2015-06-25T10:42:28Z</time>
      </trkpt>
      <trkpt lat="44.91567" lon="5.16462">
        <ele>1099.3</ele>
        <time>2015-06-25T10:42:35Z</time>
      </trkpt>
      <trkpt lat="44.91568" lon="5.16463">
        <ele>1100</ele>
        <time>2015-06-25T10:42:36Z</time>
      </trkpt>
      <trkpt lat="44.91577" lon="5.16481">
        <ele>1101.6</ele>
        <time>2015-06-25T10:42:54Z</time>
      </trkpt>
      <trkpt lat="44.91583" lon="5.16488">
        <ele>1103.3</ele>
        <time>2015-06-25T10:43:04Z</time>
      </trkpt>
      <trkpt lat="44.91587" lon="5.16499">
        <ele>1104.8</ele>
        <time>2015-06-25T10:43:16Z</time>
      </trkpt>
      <trkpt lat="44.91593" lon="5.16508">
        <ele>1105.5</ele>
        <time>2015-06-25T10:43:26Z</time>
      </trkpt>
      <trkpt lat="44.91596" lon="5.16519">
        <ele>1106.7</ele>
        <time>2015-06-25T10:43:40Z</time>
      </trkpt>
      <trkpt lat="44.91597" lon="5.16521">
        <ele>1106.5</ele>
        <time>2015-06-25T10:43:41Z</time>
      </trkpt>
      <trkpt lat="44.91609" lon="5.16536">
        <ele>1109</ele>
        <time>2015-06-25T10:43:58Z</time>
      </trkpt>
      <trkpt lat="44.91611" lon="5.16547">
        <ele>1110.3</ele>
        <time>2015-06-25T10:44:07Z</time>
      </trkpt>
      <trkpt lat="44.91618" lon="5.16554">
        <ele>1111.3</ele>
        <time>2015-06-25T10:44:17Z</time>
      </trkpt>
      <trkpt lat="44.91622" lon="5.16566">
        <ele>1112.2</ele>
        <time>2015-06-25T10:44:33Z</time>
      </trkpt>
      <trkpt lat="44.9162" lon="5.16578">
        <ele>1113.7</ele>
        <time>2015-06-25T10:44:45Z</time>
      </trkpt>
      <trkpt lat="44.91621" lon="5.1658">
        <ele>1113.6</ele>
        <time>2015-06-25T10:44:46Z</time>
      </trkpt>
      <trkpt lat="44.91634" lon="5.16596">
        <ele>1116.4</ele>
        <time>2015-06-25T10:45:07Z</time>
      </trkpt>
      <trkpt lat="44.91638" lon="5.16605">
        <ele>1117.3</ele>
        <time>2015-06-25T10:45:14Z</time>
      </trkpt>
      <trkpt lat="44.91643" lon="5.16614">
        <ele>1117.7</ele>
        <time>2015-06-25T10:45:20Z</time>
      </trkpt>
      <trkpt lat="44.91645" lon="5.16626">
        <ele>1119.2</ele>
        <time>2015-06-25T10:45:35Z</time>
      </trkpt>
      <trkpt lat="44.91652" lon="5.16628">
        <ele>1119.9</ele>
        <time>2015-06-25T10:45:40Z</time>
      </trkpt>
      <trkpt lat="44.9166" lon="5.1663">
        <ele>1120.5</ele>
        <time>2015-06-25T10:45:44Z</time>
      </trkpt>
      <trkpt lat="44.91667" lon="5.16636">
        <ele>1120.6</ele>
        <time>2015-06-25T10:45:53Z</time>
      </trkpt>
      <trkpt lat="44.91668" lon="5.16638">
        <ele>1120.9</ele>
        <time>2015-06-25T10:45:54Z</time>
      </trkpt>
      <trkpt lat="44.91678" lon="5.16653">
        <ele>1123.5</ele>
        <time>2015-06-25T10:46:22Z</time>
      </trkpt>
      <trkpt lat="44.91684" lon="5.16663">
        <ele>1125.6</ele>
        <time>2015-06-25T10:46:34Z</time>
      </trkpt>
      <trkpt lat="44.91686" lon="5.16674">
        <ele>1127.2</ele>
        <time>2015-06-25T10:46:45Z</time>
      </trkpt>
      <trkpt lat="44.91692" lon="5.16683">
        <ele>1129.1</ele>
        <time>2015-06-25T10:46:58Z</time>
      </trkpt>
      <trkpt lat="44.91694" lon="5.16683">
        <ele>1129.2</ele>
        <time>2015-06-25T10:46:59Z</time>
      </trkpt>
      <trkpt lat="44.91707" lon="5.16695">
        <ele>1132.4</ele>
        <time>2015-06-25T10:47:28Z</time>
      </trkpt>
      <trkpt lat="44.91714" lon="5.16703">
        <ele>1134.6</ele>
        <time>2015-06-25T10:50:24Z</time>
      </trkpt>
      <trkpt lat="44.91714" lon="5.16704">
        <ele>1134.8</ele>
        <time>2015-06-25T10:50:25Z</time>
      </trkpt>
      <trkpt lat="44.91718" lon="5.16727">
        <ele>1139.3</ele>
        <time>2015-06-25T10:50:53Z</time>
      </trkpt>
      <trkpt lat="44.91722" lon="5.16738">
        <ele>1141.2</ele>
        <time>2015-06-25T10:51:09Z</time>
      </trkpt>
      <trkpt lat="44.91726" lon="5.16749">
        <ele>1143</ele>
        <time>2015-06-25T10:51:21Z</time>
      </trkpt>
      <trkpt lat="44.91728" lon="5.1676">
        <ele>1143.7</ele>
        <time>2015-06-25T10:51:32Z</time>
      </trkpt>
      <trkpt lat="44.91729" lon="5.16761">
        <ele>1143.7</ele>
        <time>2015-06-25T10:51:33Z</time>
      </trkpt>
      <trkpt lat="44.91738" lon="5.16779">
        <ele>1146.5</ele>
        <time>2015-06-25T10:51:57Z</time>
      </trkpt>
      <trkpt lat="44.91742" lon="5.16789">
        <ele>1148.3</ele>
        <time>2015-06-25T10:52:07Z</time>
      </trkpt>
      <trkpt lat="44.91747" lon="5.168">
        <ele>1149.5</ele>
        <time>2015-06-25T10:52:17Z</time>
      </trkpt>
      <trkpt lat="44.91752" lon="5.16809">
        <ele>1151.6</ele>
        <time>2015-06-25T10:52:30Z</time>
      </trkpt>
      <trkpt lat="44.91758" lon="5.16818">
        <ele>1152.5</ele>
        <time>2015-06-25T10:52:43Z</time>
      </trkpt>
      <trkpt lat="44.91758" lon="5.1682">
        <ele>1152.5</ele>
        <time>2015-06-25T10:52:44Z</time>
      </trkpt>
      <trkpt lat="44.91767" lon="5.16838">
        <ele>1154.6</ele>
        <time>2015-06-25T10:53:07Z</time>
      </trkpt>
      <trkpt lat="44.91771" lon="5.16849">
        <ele>1157</ele>
        <time>2015-06-25T10:53:24Z</time>
      </trkpt>
      <trkpt lat="44.91772" lon="5.16861">
        <ele>1157.5</ele>
        <time>2015-06-25T10:53:38Z</time>
      </trkpt>
      <trkpt lat="44.91774" lon="5.16872">
        <ele>1159.3</ele>
        <time>2015-06-25T10:53:58Z</time>
      </trkpt>
      <trkpt lat="44.91774" lon="5.16873">
        <ele>1159.4</ele>
        <time>2015-06-25T10:53:59Z</time>
      </trkpt>
      <trkpt lat="44.9178" lon="5.16895">
        <ele>1163.6</ele>
        <time>2015-06-25T10:54:35Z</time>
      </trkpt>
      <trkpt lat="44.91779" lon="5.16907">
        <ele>1165.3</ele>
        <time>2015-06-25T10:54:46Z</time>
      </trkpt>
      <trkpt lat="44.91779" lon="5.16919">
        <ele>1166.1</ele>
        <time>2015-06-25T10:54:56Z</time>
      </trkpt>
      <trkpt lat="44.9178" lon="5.16931">
        <ele>1166.4</ele>
        <time>2015-06-25T10:55:06Z</time>
      </trkpt>
      <trkpt lat="44.9178" lon="5.16933">
        <ele>1166.4</ele>
        <time>2015-06-25T10:55:07Z</time>
      </trkpt>
      <trkpt lat="44.91788" lon="5.16952">
        <ele>1168.5</ele>
        <time>2015-06-25T10:55:43Z</time>
      </trkpt>
      <trkpt lat="44.91783" lon="5.16962">
        <ele>1170.1</ele>
        <time>2015-06-25T10:55:53Z</time>
      </trkpt>
      <trkpt lat="44.91779" lon="5.16973">
        <ele>1171.3</ele>
        <time>2015-06-25T10:56:06Z</time>
      </trkpt>
      <trkpt lat="44.91774" lon="5.16983">
        <ele>1175</ele>
        <time>2015-06-25T10:56:32Z</time>
      </trkpt>
      <trkpt lat="44.91773" lon="5.16983">
        <ele>1175.3</ele>
        <time>2015-06-25T10:56:33Z</time>
      </trkpt>
      <trkpt lat="44.91769" lon="5.17006">
        <ele>1179.3</ele>
        <time>2015-06-25T10:57:17Z</time>
      </trkpt>
      <trkpt lat="44.91767" lon="5.17017">
        <ele>1182</ele>
        <time>2015-06-25T10:57:30Z</time>
      </trkpt>
      <trkpt lat="44.91764" lon="5.17028">
        <ele>1184.6</ele>
        <time>2015-06-25T10:57:46Z</time>
      </trkpt>
      <trkpt lat="44.91764" lon="5.17029">
        <ele>1184.8</ele>
        <time>2015-06-25T10:57:47Z</time>
      </trkpt>
      <trkpt lat="44.91766" lon="5.17052">
        <ele>1186.8</ele>
        <time>2015-06-25T10:58:29Z</time>
      </trkpt>
      <trkpt lat="44.91768" lon="5.17063">
        <ele>1189.7</ele>
        <time>2015-06-25T10:58:43Z</time>
      </trkpt>
      <trkpt lat="44.91771" lon="5.17075">
        <ele>1190.9</ele>
        <time>2015-06-25T10:58:55Z</time>
      </trkpt>
      <trkpt lat="44.91771" lon="5.17076">
        <ele>1191.2</ele>
        <time>2015-06-25T10:58:56Z</time>
      </trkpt>
      <trkpt lat="44.91779" lon="5.17097">
        <ele>1195.2</ele>
        <time>2015-06-25T10:59:29Z</time>
      </trkpt>
      <trkpt lat="44.91785" lon="5.17105">
        <ele>1197.3</ele>
        <time>2015-06-25T10:59:43Z</time>
      </trkpt>
      <trkpt lat="44.91791" lon="5.17114">
        <ele>1197.2</ele>
        <time>2015-06-25T10:59:54Z</time>
      </trkpt>
      <trkpt lat="44.91799" lon="5.17117">
        <ele>1199.8</ele>
        <time>2015-06-25T11:00:06Z</time>
      </trkpt>
      <trkpt lat="44.918" lon="5.17117">
        <ele>1199.9</ele>
        <time>2015-06-25T11:00:07Z</time>
      </trkpt>
      <trkpt lat="44.91816" lon="5.17119">
        <ele>1202.4</ele>
        <time>2015-06-25T11:04:03Z</time>
      </trkpt>
      <trkpt lat="44.91816" lon="5.1712">
        <ele>1202.4</ele>
        <time>2015-06-25T11:04:04Z</time>
      </trkpt>
      <trkpt lat="44.91817" lon="5.17107">
        <ele>1201</ele>
        <time>2015-06-25T11:05:20Z</time>
      </trkpt>
      <trkpt lat="44.91826" lon="5.17088">
        <ele>1197.9</ele>
        <time>2015-06-25T11:05:40Z</time>
      </trkpt>
      <trkpt lat="44.91831" lon="5.17079">
        <ele>1196.1</ele>
        <time>2015-06-25T11:05:50Z</time>
      </trkpt>
      <trkpt lat="44.91835" lon="5.17069">
        <ele>1194</ele>
        <time>2015-06-25T11:06:11Z</time>
      </trkpt>
      <trkpt lat="44.9184" lon="5.17058">
        <ele>1191.8</ele>
        <time>2015-06-25T11:06:26Z</time>
      </trkpt>
      <trkpt lat="44.9184" lon="5.17058">
        <ele>1191.5</ele>
        <time>2015-06-25T11:06:27Z</time>
      </trkpt>
      <trkpt lat="44.91842" lon="5.17034">
        <ele>1191.1</ele>
        <time>2015-06-25T11:17:14Z</time>
      </trkpt>
      <trkpt lat="44.91842" lon="5.17034">
        <ele>1191.1</ele>
        <time>2015-06-25T11:17:15Z</time>
      </trkpt>
      <trkpt lat="44.91838" lon="5.17045">
        <ele>1190.7</ele>
        <time>2015-06-25T11:19:55Z</time>
      </trkpt>
      <trkpt lat="44.9183" lon="5.1705">
        <ele>1191.9</ele>
        <time>2015-06-25T11:31:27Z</time>
      </trkpt>
      <trkpt lat="44.91846" lon="5.17041">
        <ele>1191.1</ele>
        <time>2015-06-25T11:31:56Z</time>
      </trkpt>
      <trkpt lat="44.91838" lon="5.17034">
        <ele>1190.1</ele>
        <time>2015-06-25T11:32:33Z</time>
      </trkpt>
      <trkpt lat="44.91838" lon="5.17034">
        <ele>1189.7</ele>
        <time>2015-06-25T11:32:34Z</time>
      </trkpt>
      <trkpt lat="44.91842" lon="5.17049">
        <ele>1192.3</ele>
        <time>2015-06-25T11:39:03Z</time>
      </trkpt>
      <trkpt lat="44.91842" lon="5.1705">
        <ele>1192.2</ele>
        <time>2015-06-25T11:39:04Z</time>
      </trkpt>
      <trkpt lat="44.91844" lon="5.17061">
        <ele>1194.1</ele>
        <time>2015-06-25T11:41:11Z</time>
      </trkpt>
      <trkpt lat="44.91836" lon="5.17042">
        <ele>1192.1</ele>
        <time>2015-06-25T11:42:59Z</time>
      </trkpt>
      <trkpt lat="44.91836" lon="5.17042">
        <ele>1192</ele>
        <time>2015-06-25T11:43:00Z</time>
      </trkpt>
      <trkpt lat="44.9183" lon="5.17052">
        <ele>1191.6</ele>
        <time>2015-06-25T12:00:09Z</time>
      </trkpt>
      <trkpt lat="44.91838" lon="5.17034">
        <ele>1189.3</ele>
        <time>2015-06-25T12:02:10Z</time>
      </trkpt>
      <trkpt lat="44.91837" lon="5.17034">
        <ele>1189.4</ele>
        <time>2015-06-25T12:02:11Z</time>
      </trkpt>
      <trkpt lat="44.91832" lon="5.17011">
        <ele>1185.7</ele>
        <time>2015-06-25T12:02:31Z</time>
      </trkpt>
      <trkpt lat="44.91833" lon="5.17">
        <ele>1184</ele>
        <time>2015-06-25T12:02:39Z</time>
      </trkpt>
      <trkpt lat="44.9184" lon="5.16994">
        <ele>1186.2</ele>
        <time>2015-06-25T12:02:54Z</time>
      </trkpt>
      <trkpt lat="44.91849" lon="5.16991">
        <ele>1188.9</ele>
        <time>2015-06-25T12:03:06Z</time>
      </trkpt>
      <trkpt lat="44.91853" lon="5.1698">
        <ele>1188.9</ele>
        <time>2015-06-25T12:03:17Z</time>
      </trkpt>
      <trkpt lat="44.91853" lon="5.16979">
        <ele>1188.9</ele>
        <time>2015-06-25T12:03:18Z</time>
      </trkpt>
      <trkpt lat="44.91858" lon="5.16957">
        <ele>1183.5</ele>
        <time>2015-06-25T12:04:03Z</time>
      </trkpt>
      <trkpt lat="44.91858" lon="5.16945">
        <ele>1181.5</ele>
        <time>2015-06-25T12:04:14Z</time>
      </trkpt>
      <trkpt lat="44.91857" lon="5.16933">
        <ele>1179.5</ele>
        <time>2015-06-25T12:04:23Z</time>
      </trkpt>
      <trkpt lat="44.91857" lon="5.16931">
        <ele>1179.4</ele>
        <time>2015-06-25T12:04:24Z</time>
      </trkpt>
      <trkpt lat="44.91858" lon="5.16908">
        <ele>1177.9</ele>
        <time>2015-06-25T12:04:41Z</time>
      </trkpt>
      <trkpt lat="44.91861" lon="5.16897">
        <ele>1178.7</ele>
        <time>2015-06-25T12:04:48Z</time>
      </trkpt>
      <trkpt lat="44.91865" lon="5.16886">
        <ele>1180.5</ele>
        <time>2015-06-25T12:04:57Z</time>
      </trkpt>
      <trkpt lat="44.91874" lon="5.16881">
        <ele>1183.3</ele>
        <time>2015-06-25T12:05:17Z</time>
      </trkpt>
      <trkpt lat="44.91879" lon="5.16872">
        <ele>1187</ele>
        <time>2015-06-25T12:05:58Z</time>
      </trkpt>
      <trkpt lat="44.9188" lon="5.16872">
        <ele>1187.2</ele>
        <time>2015-06-25T12:05:59Z</time>
      </trkpt>
      <trkpt lat="44.91888" lon="5.16876">
        <ele>1188.3</ele>
        <time>2015-06-25T12:07:02Z</time>
      </trkpt>
      <trkpt lat="44.91901" lon="5.16859">
        <ele>1194.8</ele>
        <time>2015-06-25T12:07:53Z</time>
      </trkpt>
      <trkpt lat="44.91909" lon="5.16858">
        <ele>1196.8</ele>
        <time>2015-06-25T12:08:11Z</time>
      </trkpt>
      <trkpt lat="44.9191" lon="5.16858">
        <ele>1197.1</ele>
        <time>2015-06-25T12:08:12Z</time>
      </trkpt>
      <trkpt lat="44.91927" lon="5.16857">
        <ele>1203.1</ele>
        <time>2015-06-25T12:08:49Z</time>
      </trkpt>
      <trkpt lat="44.91935" lon="5.16853">
        <ele>1206.4</ele>
        <time>2015-06-25T12:09:12Z</time>
      </trkpt>
      <trkpt lat="44.91936" lon="5.16853">
        <ele>1206.5</ele>
        <time>2015-06-25T12:09:13Z</time>
      </trkpt>
      <trkpt lat="44.91941" lon="5.16844">
        <ele>1210.1</ele>
        <time>2015-06-25T12:10:32Z</time>
      </trkpt>
      <trkpt lat="44.9194" lon="5.16825">
        <ele>1213.3</ele>
        <time>2015-06-25T12:12:53Z</time>
      </trkpt>
      <trkpt lat="44.9194" lon="5.16823">
        <ele>1213.4</ele>
        <time>2015-06-25T12:12:54Z</time>
      </trkpt>
      <trkpt lat="44.91937" lon="5.16801">
        <ele>1214.2</ele>
        <time>2015-06-25T12:13:09Z</time>
      </trkpt>
      <trkpt lat="44.91938" lon="5.16789">
        <ele>1214.9</ele>
        <time>2015-06-25T12:13:20Z</time>
      </trkpt>
      <trkpt lat="44.91938" lon="5.16778">
        <ele>1215.4</ele>
        <time>2015-06-25T12:13:30Z</time>
      </trkpt>
      <trkpt lat="44.91935" lon="5.16789">
        <ele>1215.7</ele>
        <time>2015-06-25T12:18:58Z</time>
      </trkpt>
      <trkpt lat="44.91935" lon="5.1679">
        <ele>1215.6</ele>
        <time>2015-06-25T12:18:59Z</time>
      </trkpt>
      <trkpt lat="44.91935" lon="5.16814">
        <ele>1214.5</ele>
        <time>2015-06-25T12:19:32Z</time>
      </trkpt>
      <trkpt lat="44.91934" lon="5.16826">
        <ele>1214.4</ele>
        <time>2015-06-25T12:19:46Z</time>
      </trkpt>
      <trkpt lat="44.91931" lon="5.16838">
        <ele>1213.7</ele>
        <time>2015-06-25T12:19:59Z</time>
      </trkpt>
      <trkpt lat="44.91929" lon="5.16849">
        <ele>1211.2</ele>
        <time>2015-06-25T12:20:13Z</time>
      </trkpt>
      <trkpt lat="44.91929" lon="5.1685">
        <ele>1210.3</ele>
        <time>2015-06-25T12:20:14Z</time>
      </trkpt>
      <trkpt lat="44.9192" lon="5.16854">
        <ele>1202.8</ele>
        <time>2015-06-25T12:20:37Z</time>
      </trkpt>
      <trkpt lat="44.91913" lon="5.16859">
        <ele>1200.6</ele>
        <time>2015-06-25T12:20:59Z</time>
      </trkpt>
      <trkpt lat="44.91907" lon="5.16869">
        <ele>1198.2</ele>
        <time>2015-06-25T12:21:12Z</time>
      </trkpt>
      <trkpt lat="44.919" lon="5.16877">
        <ele>1194.4</ele>
        <time>2015-06-25T12:21:28Z</time>
      </trkpt>
      <trkpt lat="44.91899" lon="5.16877">
        <ele>1194.1</ele>
        <time>2015-06-25T12:21:29Z</time>
      </trkpt>
      <trkpt lat="44.91884" lon="5.16871">
        <ele>1190</ele>
        <time>2015-06-25T12:22:02Z</time>
      </trkpt>
      <trkpt lat="44.91875" lon="5.16875">
        <ele>1186.1</ele>
        <time>2015-06-25T12:22:24Z</time>
      </trkpt>
      <trkpt lat="44.91867" lon="5.16878">
        <ele>1183.1</ele>
        <time>2015-06-25T12:22:44Z</time>
      </trkpt>
      <trkpt lat="44.91866" lon="5.16878">
        <ele>1182.9</ele>
        <time>2015-06-25T12:22:45Z</time>
      </trkpt>
      <trkpt lat="44.91857" lon="5.16898">
        <ele>1180.6</ele>
        <time>2015-06-25T12:23:08Z</time>
      </trkpt>
      <trkpt lat="44.91855" lon="5.16909">
        <ele>1181.1</ele>
        <time>2015-06-25T12:23:21Z</time>
      </trkpt>
      <trkpt lat="44.91853" lon="5.1692">
        <ele>1182</ele>
        <time>2015-06-25T12:23:29Z</time>
      </trkpt>
      <trkpt lat="44.91852" lon="5.16932">
        <ele>1182.4</ele>
        <time>2015-06-25T12:23:40Z</time>
      </trkpt>
      <trkpt lat="44.91855" lon="5.16944">
        <ele>1183.5</ele>
        <time>2015-06-25T12:23:53Z</time>
      </trkpt>
      <trkpt lat="44.91855" lon="5.16944">
        <ele>1183.5</ele>
        <time>2015-06-25T12:23:54Z</time>
      </trkpt>
      <trkpt lat="44.91855" lon="5.16968">
        <ele>1186.2</ele>
        <time>2015-06-25T12:24:30Z</time>
      </trkpt>
      <trkpt lat="44.9185" lon="5.16978">
        <ele>1188.7</ele>
        <time>2015-06-25T12:24:45Z</time>
      </trkpt>
      <trkpt lat="44.91845" lon="5.16988">
        <ele>1188.6</ele>
        <time>2015-06-25T12:24:57Z</time>
      </trkpt>
      <trkpt lat="44.91845" lon="5.16989">
        <ele>1188.9</ele>
        <time>2015-06-25T12:24:58Z</time>
      </trkpt>
      <trkpt lat="44.91829" lon="5.16996">
        <ele>1186.3</ele>
        <time>2015-06-25T12:25:28Z</time>
      </trkpt>
      <trkpt lat="44.91826" lon="5.17007">
        <ele>1187.1</ele>
        <time>2015-06-25T12:25:37Z</time>
      </trkpt>
      <trkpt lat="44.91827" lon="5.17019">
        <ele>1187.9</ele>
        <time>2015-06-25T12:25:46Z</time>
      </trkpt>
      <trkpt lat="44.91827" lon="5.17031">
        <ele>1188.8</ele>
        <time>2015-06-25T12:25:59Z</time>
      </trkpt>
      <trkpt lat="44.91826" lon="5.17033">
        <ele>1188.8</ele>
        <time>2015-06-25T12:26:00Z</time>
      </trkpt>
      <trkpt lat="44.91839" lon="5.1704">
        <ele>1190.3</ele>
        <time>2015-06-25T12:26:27Z</time>
      </trkpt>
      <trkpt lat="44.91831" lon="5.17043">
        <ele>1191.1</ele>
        <time>2015-06-25T12:31:30Z</time>
      </trkpt>
      <trkpt lat="44.9183" lon="5.17043">
        <ele>1191.2</ele>
        <time>2015-06-25T12:31:31Z</time>
      </trkpt>
      <trkpt lat="44.9184" lon="5.17049">
        <ele>1192</ele>
        <time>2015-06-25T12:32:34Z</time>
      </trkpt>
      <trkpt lat="44.91837" lon="5.17036">
        <ele>1192.2</ele>
        <time>2015-06-25T12:33:55Z</time>
      </trkpt>
      <trkpt lat="44.91831" lon="5.17013">
        <ele>1187.6</ele>
        <time>2015-06-25T12:34:24Z</time>
      </trkpt>
      <trkpt lat="44.91823" lon="5.17009">
        <ele>1185</ele>
        <time>2015-06-25T12:34:44Z</time>
      </trkpt>
      <trkpt lat="44.91818" lon="5.16998">
        <ele>1182.5</ele>
        <time>2015-06-25T12:35:00Z</time>
      </trkpt>
      <trkpt lat="44.91817" lon="5.16998">
        <ele>1182.5</ele>
        <time>2015-06-25T12:35:01Z</time>
      </trkpt>
      <trkpt lat="44.91813" lon="5.16976">
        <ele>1179.8</ele>
        <time>2015-06-25T12:35:28Z</time>
      </trkpt>
      <trkpt lat="44.91816" lon="5.16965">
        <ele>1177.8</ele>
        <time>2015-06-25T12:35:42Z</time>
      </trkpt>
      <trkpt lat="44.91816" lon="5.16952">
        <ele>1176.3</ele>
        <time>2015-06-25T12:35:53Z</time>
      </trkpt>
      <trkpt lat="44.91818" lon="5.16941">
        <ele>1175.2</ele>
        <time>2015-06-25T12:36:04Z</time>
      </trkpt>
      <trkpt lat="44.91818" lon="5.16939">
        <ele>1175</ele>
        <time>2015-06-25T12:36:05Z</time>
      </trkpt>
      <trkpt lat="44.91823" lon="5.16918">
        <ele>1173.6</ele>
        <time>2015-06-25T12:36:57Z</time>
      </trkpt>
      <trkpt lat="44.91825" lon="5.16906">
        <ele>1173.5</ele>
        <time>2015-06-25T12:37:06Z</time>
      </trkpt>
      <trkpt lat="44.91825" lon="5.16905">
        <ele>1173.3</ele>
        <time>2015-06-25T12:37:07Z</time>
      </trkpt>
      <trkpt lat="44.91811" lon="5.16892">
        <ele>1170.5</ele>
        <time>2015-06-25T12:37:29Z</time>
      </trkpt>
      <trkpt lat="44.91803" lon="5.16887">
        <ele>1167.5</ele>
        <time>2015-06-25T12:37:47Z</time>
      </trkpt>
      <trkpt lat="44.91795" lon="5.16884">
        <ele>1165.9</ele>
        <time>2015-06-25T12:38:23Z</time>
      </trkpt>
      <trkpt lat="44.91794" lon="5.16884">
        <ele>1165.8</ele>
        <time>2015-06-25T12:38:24Z</time>
      </trkpt>
      <trkpt lat="44.91778" lon="5.16884">
        <ele>1164.9</ele>
        <time>2015-06-25T12:38:42Z</time>
      </trkpt>
      <trkpt lat="44.91779" lon="5.16871">
        <ele>1162.9</ele>
        <time>2015-06-25T12:39:12Z</time>
      </trkpt>
      <trkpt lat="44.91778" lon="5.16859">
        <ele>1160.4</ele>
        <time>2015-06-25T12:39:29Z</time>
      </trkpt>
      <trkpt lat="44.91778" lon="5.16858">
        <ele>1160.4</ele>
        <time>2015-06-25T12:39:30Z</time>
      </trkpt>
      <trkpt lat="44.91773" lon="5.16836">
        <ele>1157.3</ele>
        <time>2015-06-25T12:39:49Z</time>
      </trkpt>
      <trkpt lat="44.91766" lon="5.16828">
        <ele>1156</ele>
        <time>2015-06-25T12:39:57Z</time>
      </trkpt>
      <trkpt lat="44.91761" lon="5.16818">
        <ele>1153.8</ele>
        <time>2015-06-25T12:40:13Z</time>
      </trkpt>
      <trkpt lat="44.91757" lon="5.16808">
        <ele>1152.1</ele>
        <time>2015-06-25T12:40:24Z</time>
      </trkpt>
      <trkpt lat="44.91751" lon="5.16798">
        <ele>1150.6</ele>
        <time>2015-06-25T12:40:33Z</time>
      </trkpt>
      <trkpt lat="44.91751" lon="5.16797">
        <ele>1150.6</ele>
        <time>2015-06-25T12:40:34Z</time>
      </trkpt>
      <trkpt lat="44.91741" lon="5.16779">
        <ele>1147.6</ele>
        <time>2015-06-25T12:40:52Z</time>
      </trkpt>
      <trkpt lat="44.91739" lon="5.16768">
        <ele>1145.9</ele>
        <time>2015-06-25T12:41:01Z</time>
      </trkpt>
      <trkpt lat="44.91735" lon="5.16757">
        <ele>1144.8</ele>
        <time>2015-06-25T12:41:10Z</time>
      </trkpt>
      <trkpt lat="44.9173" lon="5.16747">
        <ele>1143.8</ele>
        <time>2015-06-25T12:41:17Z</time>
      </trkpt>
      <trkpt lat="44.91725" lon="5.16737">
        <ele>1142.6</ele>
        <time>2015-06-25T12:41:27Z</time>
      </trkpt>
      <trkpt lat="44.91722" lon="5.16725">
        <ele>1141.7</ele>
        <time>2015-06-25T12:41:42Z</time>
      </trkpt>
      <trkpt lat="44.91722" lon="5.16724">
        <ele>1141.7</ele>
        <time>2015-06-25T12:41:43Z</time>
      </trkpt>
      <trkpt lat="44.91711" lon="5.16706">
        <ele>1138.2</ele>
        <time>2015-06-25T12:42:09Z</time>
      </trkpt>
      <trkpt lat="44.91707" lon="5.16695">
        <ele>1136.2</ele>
        <time>2015-06-25T12:42:22Z</time>
      </trkpt>
      <trkpt lat="44.91702" lon="5.16684">
        <ele>1135.8</ele>
        <time>2015-06-25T12:42:30Z</time>
      </trkpt>
      <trkpt lat="44.91697" lon="5.16674">
        <ele>1132.3</ele>
        <time>2015-06-25T12:42:43Z</time>
      </trkpt>
      <trkpt lat="44.91697" lon="5.16673">
        <ele>1132.2</ele>
        <time>2015-06-25T12:42:44Z</time>
      </trkpt>
      <trkpt lat="44.91685" lon="5.16657">
        <ele>1128.8</ele>
        <time>2015-06-25T12:43:08Z</time>
      </trkpt>
      <trkpt lat="44.91678" lon="5.16649">
        <ele>1126.1</ele>
        <time>2015-06-25T12:43:20Z</time>
      </trkpt>
      <trkpt lat="44.91671" lon="5.16641">
        <ele>1125.4</ele>
        <time>2015-06-25T12:43:30Z</time>
      </trkpt>
      <trkpt lat="44.91667" lon="5.16631">
        <ele>1124.7</ele>
        <time>2015-06-25T12:43:40Z</time>
      </trkpt>
      <trkpt lat="44.91661" lon="5.16624">
        <ele>1123.1</ele>
        <time>2015-06-25T12:43:48Z</time>
      </trkpt>
      <trkpt lat="44.91659" lon="5.16622">
        <ele>1122.9</ele>
        <time>2015-06-25T12:43:49Z</time>
      </trkpt>
      <trkpt lat="44.91647" lon="5.16609">
        <ele>1120</ele>
        <time>2015-06-25T12:44:07Z</time>
      </trkpt>
      <trkpt lat="44.91639" lon="5.16605">
        <ele>1119.1</ele>
        <time>2015-06-25T12:44:14Z</time>
      </trkpt>
      <trkpt lat="44.91634" lon="5.16596">
        <ele>1117.4</ele>
        <time>2015-06-25T12:44:26Z</time>
      </trkpt>
      <trkpt lat="44.91632" lon="5.16584">
        <ele>1116.6</ele>
        <time>2015-06-25T12:44:35Z</time>
      </trkpt>
      <trkpt lat="44.91627" lon="5.16575">
        <ele>1116.6</ele>
        <time>2015-06-25T12:44:43Z</time>
      </trkpt>
      <trkpt lat="44.91626" lon="5.16563">
        <ele>1115</ele>
        <time>2015-06-25T12:44:50Z</time>
      </trkpt>
      <trkpt lat="44.91626" lon="5.16561">
        <ele>1115</ele>
        <time>2015-06-25T12:44:51Z</time>
      </trkpt>
      <trkpt lat="44.91615" lon="5.16545">
        <ele>1113.3</ele>
        <time>2015-06-25T12:45:07Z</time>
      </trkpt>
      <trkpt lat="44.91608" lon="5.16538">
        <ele>1111.9</ele>
        <time>2015-06-25T12:45:15Z</time>
      </trkpt>
      <trkpt lat="44.91604" lon="5.16527">
        <ele>1110.2</ele>
        <time>2015-06-25T12:45:26Z</time>
      </trkpt>
      <trkpt lat="44.916" lon="5.16517">
        <ele>1109.2</ele>
        <time>2015-06-25T12:45:36Z</time>
      </trkpt>
      <trkpt lat="44.91595" lon="5.16508">
        <ele>1108.4</ele>
        <time>2015-06-25T12:45:44Z</time>
      </trkpt>
      <trkpt lat="44.91591" lon="5.16498">
        <ele>1107.7</ele>
        <time>2015-06-25T12:45:54Z</time>
      </trkpt>
      <trkpt lat="44.9159" lon="5.16497">
        <ele>1107.6</ele>
        <time>2015-06-25T12:45:55Z</time>
      </trkpt>
      <trkpt lat="44.9158" lon="5.16479">
        <ele>1105.8</ele>
        <time>2015-06-25T12:46:08Z</time>
      </trkpt>
      <trkpt lat="44.91574" lon="5.16472">
        <ele>1103.9</ele>
        <time>2015-06-25T12:46:17Z</time>
      </trkpt>
      <trkpt lat="44.91569" lon="5.16463">
        <ele>1104</ele>
        <time>2015-06-25T12:46:25Z</time>
      </trkpt>
      <trkpt lat="44.91563" lon="5.16455">
        <ele>1102.1</ele>
        <time>2015-06-25T12:46:35Z</time>
      </trkpt>
      <trkpt lat="44.91557" lon="5.16448">
        <ele>1101</ele>
        <time>2015-06-25T12:46:45Z</time>
      </trkpt>
      <trkpt lat="44.9155" lon="5.1644">
        <ele>1099.9</ele>
        <time>2015-06-25T12:46:54Z</time>
      </trkpt>
      <trkpt lat="44.91546" lon="5.16431">
        <ele>1099.2</ele>
        <time>2015-06-25T12:46:59Z</time>
      </trkpt>
      <trkpt lat="44.91545" lon="5.16429">
        <ele>1099</ele>
        <time>2015-06-25T12:47:00Z</time>
      </trkpt>
      <trkpt lat="44.91534" lon="5.16415">
        <ele>1097.6</ele>
        <time>2015-06-25T12:47:15Z</time>
      </trkpt>
      <trkpt lat="44.91528" lon="5.16407">
        <ele>1096.7</ele>
        <time>2015-06-25T12:47:21Z</time>
      </trkpt>
      <trkpt lat="44.91524" lon="5.16397">
        <ele>1096.4</ele>
        <time>2015-06-25T12:47:28Z</time>
      </trkpt>
      <trkpt lat="44.91517" lon="5.16389">
        <ele>1095.4</ele>
        <time>2015-06-25T12:47:36Z</time>
      </trkpt>
      <trkpt lat="44.91513" lon="5.16378">
        <ele>1096.4</ele>
        <time>2015-06-25T12:47:46Z</time>
      </trkpt>
      <trkpt lat="44.91513" lon="5.16366">
        <ele>1096.7</ele>
        <time>2015-06-25T12:47:54Z</time>
      </trkpt>
      <trkpt lat="44.91507" lon="5.16357">
        <ele>1098.2</ele>
        <time>2015-06-25T12:48:02Z</time>
      </trkpt>
      <trkpt lat="44.91507" lon="5.16356">
        <ele>1098.3</ele>
        <time>2015-06-25T12:48:03Z</time>
      </trkpt>
      <trkpt lat="44.91498" lon="5.16336">
        <ele>1099</ele>
        <time>2015-06-25T12:48:20Z</time>
      </trkpt>
      <trkpt lat="44.91492" lon="5.16329">
        <ele>1098.9</ele>
        <time>2015-06-25T12:48:25Z</time>
      </trkpt>
      <trkpt lat="44.91485" lon="5.16321">
        <ele>1098.6</ele>
        <time>2015-06-25T12:48:32Z</time>
      </trkpt>
      <trkpt lat="44.91479" lon="5.16313">
        <ele>1098.4</ele>
        <time>2015-06-25T12:48:40Z</time>
      </trkpt>
      <trkpt lat="44.91473" lon="5.16303">
        <ele>1098.4</ele>
        <time>2015-06-25T12:48:47Z</time>
      </trkpt>
      <trkpt lat="44.91469" lon="5.16295">
        <ele>1097.4</ele>
        <time>2015-06-25T12:48:54Z</time>
      </trkpt>
      <trkpt lat="44.91462" lon="5.16289">
        <ele>1098.1</ele>
        <time>2015-06-25T12:48:59Z</time>
      </trkpt>
      <trkpt lat="44.91455" lon="5.16285">
        <ele>1098.4</ele>
        <time>2015-06-25T12:49:05Z</time>
      </trkpt>
      <trkpt lat="44.91454" lon="5.16284">
        <ele>1098.2</ele>
        <time>2015-06-25T12:49:06Z</time>
      </trkpt>
      <trkpt lat="44.91442" lon="5.16271">
        <ele>1098.3</ele>
        <time>2015-06-25T12:49:22Z</time>
      </trkpt>
      <trkpt lat="44.91439" lon="5.1626">
        <ele>1096.7</ele>
        <time>2015-06-25T12:49:30Z</time>
      </trkpt>
      <trkpt lat="44.91436" lon="5.16249">
        <ele>1095.9</ele>
        <time>2015-06-25T12:49:38Z</time>
      </trkpt>
      <trkpt lat="44.91429" lon="5.16243">
        <ele>1095.4</ele>
        <time>2015-06-25T12:49:46Z</time>
      </trkpt>
      <trkpt lat="44.91423" lon="5.16236">
        <ele>1094.2</ele>
        <time>2015-06-25T12:49:54Z</time>
      </trkpt>
      <trkpt lat="44.91417" lon="5.16231">
        <ele>1092.8</ele>
        <time>2015-06-25T12:50:01Z</time>
      </trkpt>
      <trkpt lat="44.91413" lon="5.1622">
        <ele>1092</ele>
        <time>2015-06-25T12:50:15Z</time>
      </trkpt>
      <trkpt lat="44.91413" lon="5.16219">
        <ele>1091.9</ele>
        <time>2015-06-25T12:50:16Z</time>
      </trkpt>
      <trkpt lat="44.91402" lon="5.16201">
        <ele>1088.7</ele>
        <time>2015-06-25T12:50:49Z</time>
      </trkpt>
      <trkpt lat="44.91394" lon="5.16194">
        <ele>1087.2</ele>
        <time>2015-06-25T12:51:02Z</time>
      </trkpt>
      <trkpt lat="44.91388" lon="5.16186">
        <ele>1086.5</ele>
        <time>2015-06-25T12:51:10Z</time>
      </trkpt>
      <trkpt lat="44.91381" lon="5.16179">
        <ele>1085.2</ele>
        <time>2015-06-25T12:51:19Z</time>
      </trkpt>
      <trkpt lat="44.9138" lon="5.16178">
        <ele>1085.2</ele>
        <time>2015-06-25T12:51:20Z</time>
      </trkpt>
      <trkpt lat="44.91368" lon="5.16164">
        <ele>1083.2</ele>
        <time>2015-06-25T12:51:36Z</time>
      </trkpt>
      <trkpt lat="44.91362" lon="5.16158">
        <ele>1082.8</ele>
        <time>2015-06-25T12:51:45Z</time>
      </trkpt>
      <trkpt lat="44.91355" lon="5.16152">
        <ele>1082.4</ele>
        <time>2015-06-25T12:51:53Z</time>
      </trkpt>
      <trkpt lat="44.91349" lon="5.16143">
        <ele>1081.7</ele>
        <time>2015-06-25T12:51:59Z</time>
      </trkpt>
      <trkpt lat="44.91344" lon="5.16134">
        <ele>1081.9</ele>
        <time>2015-06-25T12:52:08Z</time>
      </trkpt>
      <trkpt lat="44.91339" lon="5.16124">
        <ele>1080.3</ele>
        <time>2015-06-25T12:52:21Z</time>
      </trkpt>
      <trkpt lat="44.91339" lon="5.16122">
        <ele>1080.2</ele>
        <time>2015-06-25T12:52:22Z</time>
      </trkpt>
      <trkpt lat="44.91327" lon="5.1611">
        <ele>1078.6</ele>
        <time>2015-06-25T12:52:39Z</time>
      </trkpt>
      <trkpt lat="44.91325" lon="5.16097">
        <ele>1078.6</ele>
        <time>2015-06-25T12:52:47Z</time>
      </trkpt>
      <trkpt lat="44.91316" lon="5.16099">
        <ele>1074.9</ele>
        <time>2015-06-25T12:53:07Z</time>
      </trkpt>
      <trkpt lat="44.91308" lon="5.16094">
        <ele>1074.3</ele>
        <time>2015-06-25T12:53:24Z</time>
      </trkpt>
      <trkpt lat="44.91307" lon="5.16094">
        <ele>1074.2</ele>
        <time>2015-06-25T12:53:25Z</time>
      </trkpt>
      <trkpt lat="44.91292" lon="5.16092">
        <ele>1072.9</ele>
        <time>2015-06-25T12:53:38Z</time>
      </trkpt>
      <trkpt lat="44.91281" lon="5.16093">
        <ele>1072.1</ele>
        <time>2015-06-25T12:53:46Z</time>
      </trkpt>
      <trkpt lat="44.91275" lon="5.16095">
        <ele>1071.8</ele>
        <time>2015-06-25T12:53:51Z</time>
      </trkpt>
      <trkpt lat="44.91268" lon="5.16095">
        <ele>1071.6</ele>
        <time>2015-06-25T12:53:53Z</time>
      </trkpt>
      <trkpt lat="44.91261" lon="5.16088">
        <ele>1071.4</ele>
        <time>2015-06-25T12:54:05Z</time>
      </trkpt>
      <trkpt lat="44.91256" lon="5.16079">
        <ele>1071</ele>
        <time>2015-06-25T12:54:17Z</time>
      </trkpt>
      <trkpt lat="44.91249" lon="5.16076">
        <ele>1071.5</ele>
        <time>2015-06-25T12:54:21Z</time>
      </trkpt>
      <trkpt lat="44.91238" lon="5.16073">
        <ele>1070</ele>
        <time>2015-06-25T12:54:32Z</time>
      </trkpt>
      <trkpt lat="44.91237" lon="5.16073">
        <ele>1070.7</ele>
        <time>2015-06-25T12:54:34Z</time>
      </trkpt>
      <trkpt lat="44.91223" lon="5.16072">
        <ele>1069.6</ele>
        <time>2015-06-25T12:54:44Z</time>
      </trkpt>
      <trkpt lat="44.91216" lon="5.16072">
        <ele>1069</ele>
        <time>2015-06-25T12:54:49Z</time>
      </trkpt>
      <trkpt lat="44.91207" lon="5.16074">
        <ele>1068.6</ele>
        <time>2015-06-25T12:54:54Z</time>
      </trkpt>
      <trkpt lat="44.91199" lon="5.16076">
        <ele>1068.8</ele>
        <time>2015-06-25T12:55:00Z</time>
      </trkpt>
      <trkpt lat="44.91195" lon="5.16085">
        <ele>1067.9</ele>
        <time>2015-06-25T12:55:09Z</time>
      </trkpt>
      <trkpt lat="44.91187" lon="5.16091">
        <ele>1068.6</ele>
        <time>2015-06-25T12:55:16Z</time>
      </trkpt>
      <trkpt lat="44.9118" lon="5.16093">
        <ele>1067.2</ele>
        <time>2015-06-25T12:55:20Z</time>
      </trkpt>
      <trkpt lat="44.91173" lon="5.16095">
        <ele>1066.9</ele>
        <time>2015-06-25T12:55:25Z</time>
      </trkpt>
      <trkpt lat="44.91164" lon="5.16095">
        <ele>1066.2</ele>
        <time>2015-06-25T12:55:33Z</time>
      </trkpt>
      <trkpt lat="44.91156" lon="5.16091">
        <ele>1066.8</ele>
        <time>2015-06-25T12:55:45Z</time>
      </trkpt>
      <trkpt lat="44.91155" lon="5.16092">
        <ele>1066.3</ele>
        <time>2015-06-25T12:55:46Z</time>
      </trkpt>
      <trkpt lat="44.91141" lon="5.1609">
        <ele>1064.6</ele>
        <time>2015-06-25T12:56:01Z</time>
      </trkpt>
      <trkpt lat="44.91133" lon="5.16087">
        <ele>1064.8</ele>
        <time>2015-06-25T12:56:07Z</time>
      </trkpt>
      <trkpt lat="44.91125" lon="5.16084">
        <ele>1064.2</ele>
        <time>2015-06-25T12:56:15Z</time>
      </trkpt>
      <trkpt lat="44.91118" lon="5.16079">
        <ele>1062.9</ele>
        <time>2015-06-25T12:56:22Z</time>
      </trkpt>
      <trkpt lat="44.91114" lon="5.16069">
        <ele>1062.4</ele>
        <time>2015-06-25T12:56:29Z</time>
      </trkpt>
      <trkpt lat="44.91108" lon="5.16062">
        <ele>1062.1</ele>
        <time>2015-06-25T12:56:37Z</time>
      </trkpt>
      <trkpt lat="44.91101" lon="5.16055">
        <ele>1061.5</ele>
        <time>2015-06-25T12:56:42Z</time>
      </trkpt>
      <trkpt lat="44.91094" lon="5.16048">
        <ele>1062.3</ele>
        <time>2015-06-25T12:56:50Z</time>
      </trkpt>
      <trkpt lat="44.91093" lon="5.16047">
        <ele>1062.3</ele>
        <time>2015-06-25T12:56:51Z</time>
      </trkpt>
      <trkpt lat="44.91079" lon="5.16038">
        <ele>1060.4</ele>
        <time>2015-06-25T12:57:03Z</time>
      </trkpt>
      <trkpt lat="44.91072" lon="5.16031">
        <ele>1059.8</ele>
        <time>2015-06-25T12:57:11Z</time>
      </trkpt>
      <trkpt lat="44.91064" lon="5.16025">
        <ele>1059.3</ele>
        <time>2015-06-25T12:57:20Z</time>
      </trkpt>
      <trkpt lat="44.91058" lon="5.1602">
        <ele>1059.2</ele>
        <time>2015-06-25T12:57:26Z</time>
      </trkpt>
      <trkpt lat="44.91052" lon="5.16011">
        <ele>1058.8</ele>
        <time>2015-06-25T12:57:34Z</time>
      </trkpt>
      <trkpt lat="44.91044" lon="5.16006">
        <ele>1058.3</ele>
        <time>2015-06-25T12:57:39Z</time>
      </trkpt>
      <trkpt lat="44.91037" lon="5.16004">
        <ele>1058.7</ele>
        <time>2015-06-25T12:57:47Z</time>
      </trkpt>
      <trkpt lat="44.91029" lon="5.16">
        <ele>1058.1</ele>
        <time>2015-06-25T12:57:52Z</time>
      </trkpt>
      <trkpt lat="44.91028" lon="5.15999">
        <ele>1058.2</ele>
        <time>2015-06-25T12:57:53Z</time>
      </trkpt>
      <trkpt lat="44.91016" lon="5.15989">
        <ele>1057.8</ele>
        <time>2015-06-25T12:58:05Z</time>
      </trkpt>
      <trkpt lat="44.91007" lon="5.15985">
        <ele>1057.4</ele>
        <time>2015-06-25T12:58:12Z</time>
      </trkpt>
      <trkpt lat="44.90999" lon="5.15986">
        <ele>1057.9</ele>
        <time>2015-06-25T12:58:16Z</time>
      </trkpt>
      <trkpt lat="44.90992" lon="5.15981">
        <ele>1056.5</ele>
        <time>2015-06-25T12:58:24Z</time>
      </trkpt>
      <trkpt lat="44.90984" lon="5.15978">
        <ele>1057.7</ele>
        <time>2015-06-25T12:58:31Z</time>
      </trkpt>
      <trkpt lat="44.90975" lon="5.15976">
        <ele>1057.2</ele>
        <time>2015-06-25T12:58:38Z</time>
      </trkpt>
      <trkpt lat="44.90967" lon="5.15976">
        <ele>1056.8</ele>
        <time>2015-06-25T12:58:46Z</time>
      </trkpt>
      <trkpt lat="44.90959" lon="5.15971">
        <ele>1058.2</ele>
        <time>2015-06-25T12:58:54Z</time>
      </trkpt>
      <trkpt lat="44.90958" lon="5.15971">
        <ele>1058</ele>
        <time>2015-06-25T12:58:55Z</time>
      </trkpt>
      <trkpt lat="44.90944" lon="5.15968">
        <ele>1057.4</ele>
        <time>2015-06-25T12:59:03Z</time>
      </trkpt>
      <trkpt lat="44.90935" lon="5.15966">
        <ele>1058.3</ele>
        <time>2015-06-25T12:59:11Z</time>
      </trkpt>
      <trkpt lat="44.90927" lon="5.15964">
        <ele>1057.9</ele>
        <time>2015-06-25T12:59:20Z</time>
      </trkpt>
      <trkpt lat="44.90919" lon="5.15961">
        <ele>1058.5</ele>
        <time>2015-06-25T12:59:25Z</time>
      </trkpt>
      <trkpt lat="44.90912" lon="5.15964">
        <ele>1058.1</ele>
        <time>2015-06-25T12:59:33Z</time>
      </trkpt>
      <trkpt lat="44.90907" lon="5.15967">
        <ele>1057.6</ele>
        <time>2015-06-25T12:59:37Z</time>
      </trkpt>
      <trkpt lat="44.909" lon="5.15968">
        <ele>1057.3</ele>
        <time>2015-06-25T12:59:39Z</time>
      </trkpt>
      <trkpt lat="44.90892" lon="5.15972">
        <ele>1057.6</ele>
        <time>2015-06-25T12:59:45Z</time>
      </trkpt>
      <trkpt lat="44.90885" lon="5.15978">
        <ele>1056.8</ele>
        <time>2015-06-25T12:59:57Z</time>
      </trkpt>
      <trkpt lat="44.90884" lon="5.15979">
        <ele>1057</ele>
        <time>2015-06-25T12:59:58Z</time>
      </trkpt>
      <trkpt lat="44.90871" lon="5.15989">
        <ele>1057.3</ele>
        <time>2015-06-25T13:00:11Z</time>
      </trkpt>
      <trkpt lat="44.90864" lon="5.1599">
        <ele>1058.4</ele>
        <time>2015-06-25T13:00:16Z</time>
      </trkpt>
      <trkpt lat="44.90855" lon="5.15993">
        <ele>1056.8</ele>
        <time>2015-06-25T13:00:22Z</time>
      </trkpt>
      <trkpt lat="44.90847" lon="5.1599">
        <ele>1057</ele>
        <time>2015-06-25T13:00:35Z</time>
      </trkpt>
      <trkpt lat="44.90839" lon="5.15996">
        <ele>1057.2</ele>
        <time>2015-06-25T13:00:42Z</time>
      </trkpt>
      <trkpt lat="44.90831" lon="5.15997">
        <ele>1056.8</ele>
        <time>2015-06-25T13:00:49Z</time>
      </trkpt>
      <trkpt lat="44.90823" lon="5.15996">
        <ele>1056.6</ele>
        <time>2015-06-25T13:00:58Z</time>
      </trkpt>
      <trkpt lat="44.90821" lon="5.15996">
        <ele>1056.6</ele>
        <time>2015-06-25T13:00:59Z</time>
      </trkpt>
      <trkpt lat="44.90808" lon="5.15988">
        <ele>1056.4</ele>
        <time>2015-06-25T13:01:10Z</time>
      </trkpt>
      <trkpt lat="44.90802" lon="5.15981">
        <ele>1056.6</ele>
        <time>2015-06-25T13:01:15Z</time>
      </trkpt>
      <trkpt lat="44.90794" lon="5.15976">
        <ele>1056.4</ele>
        <time>2015-06-25T13:01:24Z</time>
      </trkpt>
      <trkpt lat="44.90786" lon="5.15969">
        <ele>1056.2</ele>
        <time>2015-06-25T13:01:30Z</time>
      </trkpt>
      <trkpt lat="44.90781" lon="5.15961">
        <ele>1055.6</ele>
        <time>2015-06-25T13:01:37Z</time>
      </trkpt>
      <trkpt lat="44.90776" lon="5.1595">
        <ele>1054.8</ele>
        <time>2015-06-25T13:01:46Z</time>
      </trkpt>
      <trkpt lat="44.90774" lon="5.15939">
        <ele>1053.3</ele>
        <time>2015-06-25T13:01:55Z</time>
      </trkpt>
      <trkpt lat="44.9077" lon="5.15929">
        <ele>1053.1</ele>
        <time>2015-06-25T13:02:02Z</time>
      </trkpt>
      <trkpt lat="44.9077" lon="5.15927">
        <ele>1052.6</ele>
        <time>2015-06-25T13:02:03Z</time>
      </trkpt>
      <trkpt lat="44.90769" lon="5.15908">
        <ele>1052.8</ele>
        <time>2015-06-25T13:02:14Z</time>
      </trkpt>
      <trkpt lat="44.90767" lon="5.15898">
        <ele>1051.8</ele>
        <time>2015-06-25T13:02:21Z</time>
      </trkpt>
      <trkpt lat="44.90761" lon="5.15888">
        <ele>1051.3</ele>
        <time>2015-06-25T13:02:28Z</time>
      </trkpt>
      <trkpt lat="44.90761" lon="5.15876">
        <ele>1051.9</ele>
        <time>2015-06-25T13:02:35Z</time>
      </trkpt>
      <trkpt lat="44.90762" lon="5.15864">
        <ele>1051.4</ele>
        <time>2015-06-25T13:02:43Z</time>
      </trkpt>
      <trkpt lat="44.90757" lon="5.15854">
        <ele>1052.4</ele>
        <time>2015-06-25T13:02:52Z</time>
      </trkpt>
      <trkpt lat="44.9075" lon="5.15846">
        <ele>1052.9</ele>
        <time>2015-06-25T13:02:59Z</time>
      </trkpt>
      <trkpt lat="44.90744" lon="5.15838">
        <ele>1052.8</ele>
        <time>2015-06-25T13:03:07Z</time>
      </trkpt>
      <trkpt lat="44.90742" lon="5.15838">
        <ele>1053.1</ele>
        <time>2015-06-25T13:03:08Z</time>
      </trkpt>
      <trkpt lat="44.90731" lon="5.15826">
        <ele>1052.9</ele>
        <time>2015-06-25T13:03:25Z</time>
      </trkpt>
      <trkpt lat="44.90723" lon="5.15826">
        <ele>1052.8</ele>
        <time>2015-06-25T13:03:28Z</time>
      </trkpt>
      <trkpt lat="44.90715" lon="5.15825">
        <ele>1052.5</ele>
        <time>2015-06-25T13:03:32Z</time>
      </trkpt>
      <trkpt lat="44.90707" lon="5.15824">
        <ele>1051.8</ele>
        <time>2015-06-25T13:03:37Z</time>
      </trkpt>
      <trkpt lat="44.907" lon="5.1583">
        <ele>1050.8</ele>
        <time>2015-06-25T13:04:00Z</time>
      </trkpt>
      <trkpt lat="44.90695" lon="5.1584">
        <ele>1050.8</ele>
        <time>2015-06-25T13:04:05Z</time>
      </trkpt>
      <trkpt lat="44.9069" lon="5.1585">
        <ele>1051.3</ele>
        <time>2015-06-25T13:04:13Z</time>
      </trkpt>
      <trkpt lat="44.90689" lon="5.15852">
        <ele>1051</ele>
        <time>2015-06-25T13:04:14Z</time>
      </trkpt>
      <trkpt lat="44.90689" lon="5.15874">
        <ele>1049.9</ele>
        <time>2015-06-25T13:04:32Z</time>
      </trkpt>
      <trkpt lat="44.90689" lon="5.15888">
        <ele>1050</ele>
        <time>2015-06-25T13:04:57Z</time>
      </trkpt>
      <trkpt lat="44.90683" lon="5.15896">
        <ele>1050.3</ele>
        <time>2015-06-25T13:05:32Z</time>
      </trkpt>
      <trkpt lat="44.90682" lon="5.15898">
        <ele>1050.6</ele>
        <time>2015-06-25T13:05:33Z</time>
      </trkpt>
      <trkpt lat="44.90669" lon="5.1591">
        <ele>1049.8</ele>
        <time>2015-06-25T13:05:52Z</time>
      </trkpt>
      <trkpt lat="44.90662" lon="5.15902">
        <ele>1048.1</ele>
        <time>2015-06-25T13:06:09Z</time>
      </trkpt>
      <trkpt lat="44.90654" lon="5.15898">
        <ele>1047.8</ele>
        <time>2015-06-25T13:06:19Z</time>
      </trkpt>
      <trkpt lat="44.90646" lon="5.15898">
        <ele>1048.4</ele>
        <time>2015-06-25T13:06:23Z</time>
      </trkpt>
      <trkpt lat="44.90639" lon="5.15894">
        <ele>1048.6</ele>
        <time>2015-06-25T13:06:31Z</time>
      </trkpt>
      <trkpt lat="44.90633" lon="5.15889">
        <ele>1047.2</ele>
        <time>2015-06-25T13:06:38Z</time>
      </trkpt>
      <trkpt lat="44.90631" lon="5.15888">
        <ele>1047.5</ele>
        <time>2015-06-25T13:06:39Z</time>
      </trkpt>
      <trkpt lat="44.90618" lon="5.15878">
        <ele>1048.1</ele>
        <time>2015-06-25T13:06:52Z</time>
      </trkpt>
      <trkpt lat="44.90611" lon="5.1587">
        <ele>1046.9</ele>
        <time>2015-06-25T13:07:04Z</time>
      </trkpt>
      <trkpt lat="44.90604" lon="5.15866">
        <ele>1046.4</ele>
        <time>2015-06-25T13:07:13Z</time>
      </trkpt>
      <trkpt lat="44.90596" lon="5.1586">
        <ele>1046</ele>
        <time>2015-06-25T13:07:21Z</time>
      </trkpt>
      <trkpt lat="44.90588" lon="5.15859">
        <ele>1046.2</ele>
        <time>2015-06-25T13:07:27Z</time>
      </trkpt>
      <trkpt lat="44.90581" lon="5.1586">
        <ele>1045.9</ele>
        <time>2015-06-25T13:07:31Z</time>
      </trkpt>
      <trkpt lat="44.90573" lon="5.1586">
        <ele>1046.3</ele>
        <time>2015-06-25T13:07:35Z</time>
      </trkpt>
      <trkpt lat="44.90565" lon="5.15862">
        <ele>1046.2</ele>
        <time>2015-06-25T13:07:39Z</time>
      </trkpt>
      <trkpt lat="44.90561" lon="5.15873">
        <ele>1047.1</ele>
        <time>2015-06-25T13:07:50Z</time>
      </trkpt>
      <trkpt lat="44.90559" lon="5.15874">
        <ele>1047.2</ele>
        <time>2015-06-25T13:07:51Z</time>
      </trkpt>
      <trkpt lat="44.90544" lon="5.15877">
        <ele>1047.6</ele>
        <time>2015-06-25T13:08:05Z</time>
      </trkpt>
      <trkpt lat="44.90536" lon="5.15876">
        <ele>1047.4</ele>
        <time>2015-06-25T13:08:11Z</time>
      </trkpt>
      <trkpt lat="44.90528" lon="5.15873">
        <ele>1047.9</ele>
        <time>2015-06-25T13:08:16Z</time>
      </trkpt>
      <trkpt lat="44.9052" lon="5.15869">
        <ele>1049.4</ele>
        <time>2015-06-25T13:08:26Z</time>
      </trkpt>
      <trkpt lat="44.90511" lon="5.15865">
        <ele>1049.1</ele>
        <time>2015-06-25T13:08:38Z</time>
      </trkpt>
      <trkpt lat="44.90503" lon="5.15861">
        <ele>1048.5</ele>
        <time>2015-06-25T13:08:46Z</time>
      </trkpt>
      <trkpt lat="44.90496" lon="5.15855">
        <ele>1047</ele>
        <time>2015-06-25T13:08:57Z</time>
      </trkpt>
      <trkpt lat="44.90494" lon="5.15855">
        <ele>1046.7</ele>
        <time>2015-06-25T13:08:58Z</time>
      </trkpt>
      <trkpt lat="44.90481" lon="5.15851">
        <ele>1047.1</ele>
        <time>2015-06-25T13:09:03Z</time>
      </trkpt>
      <trkpt lat="44.90472" lon="5.15849">
        <ele>1047.3</ele>
        <time>2015-06-25T13:09:10Z</time>
      </trkpt>
      <trkpt lat="44.90464" lon="5.15847">
        <ele>1047</ele>
        <time>2015-06-25T13:09:15Z</time>
      </trkpt>
      <trkpt lat="44.90456" lon="5.15848">
        <ele>1046.4</ele>
        <time>2015-06-25T13:09:20Z</time>
      </trkpt>
      <trkpt lat="44.90447" lon="5.15849">
        <ele>1046.9</ele>
        <time>2015-06-25T13:09:27Z</time>
      </trkpt>
      <trkpt lat="44.90441" lon="5.15844">
        <ele>1046.4</ele>
        <time>2015-06-25T13:09:33Z</time>
      </trkpt>
      <trkpt lat="44.90434" lon="5.15838">
        <ele>1045.7</ele>
        <time>2015-06-25T13:09:40Z</time>
      </trkpt>
      <trkpt lat="44.90426" lon="5.15836">
        <ele>1045.6</ele>
        <time>2015-06-25T13:09:46Z</time>
      </trkpt>
      <trkpt lat="44.90418" lon="5.15832">
        <ele>1045.8</ele>
        <time>2015-06-25T13:09:50Z</time>
      </trkpt>
      <trkpt lat="44.9041" lon="5.1583">
        <ele>1045</ele>
        <time>2015-06-25T13:09:56Z</time>
      </trkpt>
      <trkpt lat="44.90402" lon="5.15826">
        <ele>1044.4</ele>
        <time>2015-06-25T13:10:12Z</time>
      </trkpt>
      <trkpt lat="44.90401" lon="5.15826">
        <ele>1044.6</ele>
        <time>2015-06-25T13:10:13Z</time>
      </trkpt>
      <trkpt lat="44.90385" lon="5.15818">
        <ele>1044.8</ele>
        <time>2015-06-25T13:10:27Z</time>
      </trkpt>
      <trkpt lat="44.90378" lon="5.15819">
        <ele>1044.8</ele>
        <time>2015-06-25T13:10:31Z</time>
      </trkpt>
      <trkpt lat="44.9037" lon="5.1582">
        <ele>1044.4</ele>
        <time>2015-06-25T13:10:37Z</time>
      </trkpt>
      <trkpt lat="44.90362" lon="5.15823">
        <ele>1042.9</ele>
        <time>2015-06-25T13:10:43Z</time>
      </trkpt>
      <trkpt lat="44.90354" lon="5.15824">
        <ele>1042.8</ele>
        <time>2015-06-25T13:10:48Z</time>
      </trkpt>
      <trkpt lat="44.90345" lon="5.15823">
        <ele>1042</ele>
        <time>2015-06-25T13:10:56Z</time>
      </trkpt>
      <trkpt lat="44.90336" lon="5.15821">
        <ele>1042</ele>
        <time>2015-06-25T13:11:04Z</time>
      </trkpt>
      <trkpt lat="44.90328" lon="5.15823">
        <ele>1041.6</ele>
        <time>2015-06-25T13:11:12Z</time>
      </trkpt>
      <trkpt lat="44.90319" lon="5.15823">
        <ele>1041.1</ele>
        <time>2015-06-25T13:11:21Z</time>
      </trkpt>
      <trkpt lat="44.90318" lon="5.15823">
        <ele>1040.9</ele>
        <time>2015-06-25T13:11:22Z</time>
      </trkpt>
      <trkpt lat="44.90303" lon="5.15826">
        <ele>1040.6</ele>
        <time>2015-06-25T13:11:34Z</time>
      </trkpt>
      <trkpt lat="44.90294" lon="5.15827">
        <ele>1040.9</ele>
        <time>2015-06-25T13:11:42Z</time>
      </trkpt>
      <trkpt lat="44.90287" lon="5.15829">
        <ele>1040.9</ele>
        <time>2015-06-25T13:11:47Z</time>
      </trkpt>
      <trkpt lat="44.90279" lon="5.15831">
        <ele>1040.7</ele>
        <time>2015-06-25T13:11:57Z</time>
      </trkpt>
      <trkpt lat="44.90273" lon="5.1584">
        <ele>1041.2</ele>
        <time>2015-06-25T13:13:19Z</time>
      </trkpt>
      <trkpt lat="44.90271" lon="5.15841">
        <ele>1041.4</ele>
        <time>2015-06-25T13:13:20Z</time>
      </trkpt>
      <trkpt lat="44.90281" lon="5.15862">
        <ele>1041.2</ele>
        <time>2015-06-25T13:14:25Z</time>
      </trkpt>
      <trkpt lat="44.90281" lon="5.15863">
        <ele>1041.1</ele>
        <time>2015-06-25T13:14:26Z</time>
      </trkpt>
      <trkpt lat="44.90277" lon="5.15885">
        <ele>1042.7</ele>
        <time>2015-06-25T13:14:47Z</time>
      </trkpt>
      <trkpt lat="44.90274" lon="5.15896">
        <ele>1043.1</ele>
        <time>2015-06-25T13:14:56Z</time>
      </trkpt>
      <trkpt lat="44.90273" lon="5.15907">
        <ele>1042.7</ele>
        <time>2015-06-25T13:15:06Z</time>
      </trkpt>
      <trkpt lat="44.90272" lon="5.15918">
        <ele>1042.8</ele>
        <time>2015-06-25T13:15:12Z</time>
      </trkpt>
      <trkpt lat="44.90266" lon="5.15926">
        <ele>1043.5</ele>
        <time>2015-06-25T13:15:19Z</time>
      </trkpt>
      <trkpt lat="44.90259" lon="5.15933">
        <ele>1042.8</ele>
        <time>2015-06-25T13:15:27Z</time>
      </trkpt>
      <trkpt lat="44.90257" lon="5.15933">
        <ele>1042.7</ele>
        <time>2015-06-25T13:15:28Z</time>
      </trkpt>
      <trkpt lat="44.90245" lon="5.15945">
        <ele>1042.1</ele>
        <time>2015-06-25T13:16:10Z</time>
      </trkpt>
      <trkpt lat="44.90238" lon="5.15952">
        <ele>1042.3</ele>
        <time>2015-06-25T13:16:17Z</time>
      </trkpt>
      <trkpt lat="44.90231" lon="5.1596">
        <ele>1041.2</ele>
        <time>2015-06-25T13:16:27Z</time>
      </trkpt>
      <trkpt lat="44.90226" lon="5.1597">
        <ele>1041.2</ele>
        <time>2015-06-25T13:16:38Z</time>
      </trkpt>
      <trkpt lat="44.90225" lon="5.15971">
        <ele>1041.5</ele>
        <time>2015-06-25T13:16:39Z</time>
      </trkpt>
      <trkpt lat="44.90233" lon="5.1599">
        <ele>1040</ele>
        <time>2015-06-25T13:16:54Z</time>
      </trkpt>
      <trkpt lat="44.90233" lon="5.16001">
        <ele>1040</ele>
        <time>2015-06-25T13:17:03Z</time>
      </trkpt>
      <trkpt lat="44.90226" lon="5.16009">
        <ele>1040.4</ele>
        <time>2015-06-25T13:17:08Z</time>
      </trkpt>
      <trkpt lat="44.90228" lon="5.16021">
        <ele>1041</ele>
        <time>2015-06-25T13:17:19Z</time>
      </trkpt>
      <trkpt lat="44.90228" lon="5.16032">
        <ele>1041.6</ele>
        <time>2015-06-25T13:17:29Z</time>
      </trkpt>
      <trkpt lat="44.90232" lon="5.16043">
        <ele>1042</ele>
        <time>2015-06-25T13:17:39Z</time>
      </trkpt>
      <trkpt lat="44.90239" lon="5.16048">
        <ele>1042.2</ele>
        <time>2015-06-25T13:17:44Z</time>
      </trkpt>
      <trkpt lat="44.90241" lon="5.16048">
        <ele>1041.8</ele>
        <time>2015-06-25T13:17:45Z</time>
      </trkpt>
      <trkpt lat="44.90256" lon="5.16046">
        <ele>1042.2</ele>
        <time>2015-06-25T13:17:51Z</time>
      </trkpt>
      <trkpt lat="44.9026" lon="5.16052">
        <ele>1041.3</ele>
        <time>2015-06-25T13:18:10Z</time>
      </trkpt>
      <trkpt lat="44.90268" lon="5.16052">
        <ele>1041.3</ele>
        <time>2015-06-25T13:18:12Z</time>
      </trkpt>
      <trkpt lat="44.9027" lon="5.16064">
        <ele>1042.9</ele>
        <time>2015-06-25T13:18:33Z</time>
      </trkpt>
      <trkpt lat="44.90274" lon="5.16075">
        <ele>1044.2</ele>
        <time>2015-06-25T13:18:46Z</time>
      </trkpt>
      <trkpt lat="44.90274" lon="5.16076">
        <ele>1044.1</ele>
        <time>2015-06-25T13:18:47Z</time>
      </trkpt>
      <trkpt lat="44.90284" lon="5.16092">
        <ele>1044.9</ele>
        <time>2015-06-25T13:19:03Z</time>
      </trkpt>
      <trkpt lat="44.90292" lon="5.16103">
        <ele>1045.8</ele>
        <time>2015-06-25T13:19:18Z</time>
      </trkpt>
      <trkpt lat="44.903" lon="5.16106">
        <ele>1047</ele>
        <time>2015-06-25T13:19:36Z</time>
      </trkpt>
      <trkpt lat="44.90309" lon="5.16107">
        <ele>1047.5</ele>
        <time>2015-06-25T13:19:40Z</time>
      </trkpt>
      <trkpt lat="44.90316" lon="5.16103">
        <ele>1047.3</ele>
        <time>2015-06-25T13:19:50Z</time>
      </trkpt>
      <trkpt lat="44.90318" lon="5.16104">
        <ele>1047.4</ele>
        <time>2015-06-25T13:19:51Z</time>
      </trkpt>
      <trkpt lat="44.90328" lon="5.16117">
        <ele>1048.3</ele>
        <time>2015-06-25T13:20:18Z</time>
      </trkpt>
      <trkpt lat="44.90334" lon="5.16126">
        <ele>1047.6</ele>
        <time>2015-06-25T13:20:33Z</time>
      </trkpt>
      <trkpt lat="44.90337" lon="5.16136">
        <ele>1047.9</ele>
        <time>2015-06-25T13:20:41Z</time>
      </trkpt>
      <trkpt lat="44.90343" lon="5.16146">
        <ele>1048.1</ele>
        <time>2015-06-25T13:20:49Z</time>
      </trkpt>
      <trkpt lat="44.90348" lon="5.16155">
        <ele>1047.5</ele>
        <time>2015-06-25T13:20:57Z</time>
      </trkpt>
      <trkpt lat="44.90348" lon="5.16157">
        <ele>1047.7</ele>
        <time>2015-06-25T13:20:58Z</time>
      </trkpt>
      <trkpt lat="44.90356" lon="5.16173">
        <ele>1049.3</ele>
        <time>2015-06-25T13:21:11Z</time>
      </trkpt>
      <trkpt lat="44.90362" lon="5.1618">
        <ele>1050</ele>
        <time>2015-06-25T13:21:16Z</time>
      </trkpt>
      <trkpt lat="44.90368" lon="5.16188">
        <ele>1050</ele>
        <time>2015-06-25T13:21:23Z</time>
      </trkpt>
      <trkpt lat="44.90374" lon="5.16197">
        <ele>1050.3</ele>
        <time>2015-06-25T13:21:32Z</time>
      </trkpt>
      <trkpt lat="44.90379" lon="5.16205">
        <ele>1050.9</ele>
        <time>2015-06-25T13:21:39Z</time>
      </trkpt>
      <trkpt lat="44.90385" lon="5.16213">
        <ele>1052.3</ele>
        <time>2015-06-25T13:21:51Z</time>
      </trkpt>
      <trkpt lat="44.90393" lon="5.16218">
        <ele>1052.8</ele>
        <time>2015-06-25T13:22:02Z</time>
      </trkpt>
      <trkpt lat="44.90393" lon="5.16219">
        <ele>1052.7</ele>
        <time>2015-06-25T13:22:03Z</time>
      </trkpt>
      <trkpt lat="44.904" lon="5.16239">
        <ele>1052.1</ele>
        <time>2015-06-25T13:22:21Z</time>
      </trkpt>
      <trkpt lat="44.90407" lon="5.16245">
        <ele>1052.4</ele>
        <time>2015-06-25T13:22:28Z</time>
      </trkpt>
      <trkpt lat="44.90414" lon="5.16242">
        <ele>1052.1</ele>
        <time>2015-06-25T13:22:31Z</time>
      </trkpt>
      <trkpt lat="44.9042" lon="5.16246">
        <ele>1052.6</ele>
        <time>2015-06-25T13:22:35Z</time>
      </trkpt>
      <trkpt lat="44.90428" lon="5.16248">
        <ele>1052.7</ele>
        <time>2015-06-25T13:22:38Z</time>
      </trkpt>
      <trkpt lat="44.90433" lon="5.16259">
        <ele>1053.3</ele>
        <time>2015-06-25T13:22:49Z</time>
      </trkpt>
      <trkpt lat="44.90435" lon="5.16271">
        <ele>1053.6</ele>
        <time>2015-06-25T13:22:59Z</time>
      </trkpt>
      <trkpt lat="44.90432" lon="5.16283">
        <ele>1054.2</ele>
        <time>2015-06-25T13:23:08Z</time>
      </trkpt>
      <trkpt lat="44.90432" lon="5.16286">
        <ele>1054.2</ele>
        <time>2015-06-25T13:23:09Z</time>
      </trkpt>
      <trkpt lat="44.90436" lon="5.16307">
        <ele>1054.1</ele>
        <time>2015-06-25T13:23:25Z</time>
      </trkpt>
      <trkpt lat="44.90446" lon="5.16313">
        <ele>1053</ele>
        <time>2015-06-25T13:23:32Z</time>
      </trkpt>
      <trkpt lat="44.90452" lon="5.16321">
        <ele>1053.6</ele>
        <time>2015-06-25T13:23:38Z</time>
      </trkpt>
      <trkpt lat="44.90457" lon="5.16331">
        <ele>1054.2</ele>
        <time>2015-06-25T13:23:47Z</time>
      </trkpt>
      <trkpt lat="44.90456" lon="5.16342">
        <ele>1054.9</ele>
        <time>2015-06-25T13:23:59Z</time>
      </trkpt>
      <trkpt lat="44.90451" lon="5.16348">
        <ele>1055.5</ele>
        <time>2015-06-25T13:24:04Z</time>
      </trkpt>
      <trkpt lat="44.9044" lon="5.16348">
        <ele>1055</ele>
        <time>2015-06-25T13:24:28Z</time>
      </trkpt>
      <trkpt lat="44.90435" lon="5.16348">
        <ele>1055.5</ele>
        <time>2015-06-25T13:24:30Z</time>
      </trkpt>
      <trkpt lat="44.90447" lon="5.16366">
        <ele>1055.1</ele>
        <time>2015-06-25T13:25:11Z</time>
      </trkpt>
      <trkpt lat="44.90452" lon="5.16376">
        <ele>1055.8</ele>
        <time>2015-06-25T13:25:23Z</time>
      </trkpt>
      <trkpt lat="44.90447" lon="5.16386">
        <ele>1056.3</ele>
        <time>2015-06-25T13:25:39Z</time>
      </trkpt>
      <trkpt lat="44.90448" lon="5.16389">
        <ele>1056.3</ele>
        <time>2015-06-25T13:25:40Z</time>
      </trkpt>
      <trkpt lat="44.90434" lon="5.16395">
        <ele>1062.3</ele>
        <time>2015-06-25T13:27:12Z</time>
      </trkpt>
      <trkpt lat="44.90433" lon="5.16395">
        <ele>1062.1</ele>
        <time>2015-06-25T13:27:13Z</time>
      </trkpt>
      <trkpt lat="44.9043" lon="5.16419">
        <ele>1066.1</ele>
        <time>2015-06-25T13:27:52Z</time>
      </trkpt>
      <trkpt lat="44.90431" lon="5.16431">
        <ele>1066.6</ele>
        <time>2015-06-25T13:28:03Z</time>
      </trkpt>
      <trkpt lat="44.90433" lon="5.16443">
        <ele>1069.3</ele>
        <time>2015-06-25T13:28:18Z</time>
      </trkpt>
      <trkpt lat="44.90434" lon="5.16444">
        <ele>1069.4</ele>
        <time>2015-06-25T13:28:19Z</time>
      </trkpt>
      <trkpt lat="44.90434" lon="5.16465">
        <ele>1072.5</ele>
        <time>2015-06-25T13:28:41Z</time>
      </trkpt>
      <trkpt lat="44.90426" lon="5.1647">
        <ele>1074.7</ele>
        <time>2015-06-25T13:29:02Z</time>
      </trkpt>
      <trkpt lat="44.90428" lon="5.16481">
        <ele>1076</ele>
        <time>2015-06-25T13:29:16Z</time>
      </trkpt>
      <trkpt lat="44.90431" lon="5.16486">
        <ele>1076.3</ele>
        <time>2015-06-25T13:29:19Z</time>
      </trkpt>
      <trkpt lat="44.90438" lon="5.16494">
        <ele>1076</ele>
        <time>2015-06-25T13:29:24Z</time>
      </trkpt>
      <trkpt lat="44.9044" lon="5.16496">
        <ele>1076.8</ele>
        <time>2015-06-25T13:29:26Z</time>
      </trkpt>
      <trkpt lat="44.90448" lon="5.16514">
        <ele>1078.9</ele>
        <time>2015-06-25T13:29:53Z</time>
      </trkpt>
      <trkpt lat="44.90455" lon="5.1652">
        <ele>1080.4</ele>
        <time>2015-06-25T13:30:01Z</time>
      </trkpt>
      <trkpt lat="44.90461" lon="5.1653">
        <ele>1080.9</ele>
        <time>2015-06-25T13:30:09Z</time>
      </trkpt>
      <trkpt lat="44.90465" lon="5.1654">
        <ele>1081.8</ele>
        <time>2015-06-25T13:30:19Z</time>
      </trkpt>
      <trkpt lat="44.90463" lon="5.16552">
        <ele>1084</ele>
        <time>2015-06-25T13:30:42Z</time>
      </trkpt>
      <trkpt lat="44.90463" lon="5.16552">
        <ele>1084.1</ele>
        <time>2015-06-25T13:30:43Z</time>
      </trkpt>
      <trkpt lat="44.90472" lon="5.1656">
        <ele>1084</ele>
        <time>2015-06-25T13:30:48Z</time>
      </trkpt>
      <trkpt lat="44.90479" lon="5.16567">
        <ele>1083.6</ele>
        <time>2015-06-25T13:30:57Z</time>
      </trkpt>
      <trkpt lat="44.90474" lon="5.16574">
        <ele>1084.1</ele>
        <time>2015-06-25T13:31:06Z</time>
      </trkpt>
      <trkpt lat="44.90488" lon="5.1658">
        <ele>1084</ele>
        <time>2015-06-25T13:31:13Z</time>
      </trkpt>
      <trkpt lat="44.90488" lon="5.16592">
        <ele>1090.5</ele>
        <time>2015-06-25T13:31:53Z</time>
      </trkpt>
      <trkpt lat="44.90488" lon="5.16593">
        <ele>1090.5</ele>
        <time>2015-06-25T13:31:54Z</time>
      </trkpt>
      <trkpt lat="44.90487" lon="5.16617">
        <ele>1092.1</ele>
        <time>2015-06-25T13:32:12Z</time>
      </trkpt>
      <trkpt lat="44.9049" lon="5.16629">
        <ele>1092.4</ele>
        <time>2015-06-25T13:32:21Z</time>
      </trkpt>
      <trkpt lat="44.90489" lon="5.16645">
        <ele>1092</ele>
        <time>2015-06-25T13:32:32Z</time>
      </trkpt>
      <trkpt lat="44.90487" lon="5.16659">
        <ele>1093</ele>
        <time>2015-06-25T13:32:49Z</time>
      </trkpt>
      <trkpt lat="44.90486" lon="5.16674">
        <ele>1096.7</ele>
        <time>2015-06-25T13:32:59Z</time>
      </trkpt>
      <trkpt lat="44.90486" lon="5.16675">
        <ele>1097.1</ele>
        <time>2015-06-25T13:33:00Z</time>
      </trkpt>
      <trkpt lat="44.90486" lon="5.16699">
        <ele>1099</ele>
        <time>2015-06-25T13:33:27Z</time>
      </trkpt>
      <trkpt lat="44.9048" lon="5.16708">
        <ele>1101.4</ele>
        <time>2015-06-25T13:33:45Z</time>
      </trkpt>
      <trkpt lat="44.9048" lon="5.16719">
        <ele>1102.1</ele>
        <time>2015-06-25T13:33:50Z</time>
      </trkpt>
      <trkpt lat="44.90479" lon="5.16731">
        <ele>1103.3</ele>
        <time>2015-06-25T13:34:02Z</time>
      </trkpt>
      <trkpt lat="44.90479" lon="5.16732">
        <ele>1103.5</ele>
        <time>2015-06-25T13:34:03Z</time>
      </trkpt>
      <trkpt lat="44.90475" lon="5.16749">
        <ele>1109.8</ele>
        <time>2015-06-25T13:34:58Z</time>
      </trkpt>
      <trkpt lat="44.90483" lon="5.16747">
        <ele>1111.4</ele>
        <time>2015-06-25T13:35:19Z</time>
      </trkpt>
      <trkpt lat="44.90484" lon="5.16747">
        <ele>1111.6</ele>
        <time>2015-06-25T13:35:20Z</time>
      </trkpt>
      <trkpt lat="44.90502" lon="5.16761">
        <ele>1113</ele>
        <time>2015-06-25T13:35:32Z</time>
      </trkpt>
      <trkpt lat="44.90511" lon="5.16764">
        <ele>1117</ele>
        <time>2015-06-25T13:36:00Z</time>
      </trkpt>
      <trkpt lat="44.90519" lon="5.1677">
        <ele>1119</ele>
        <time>2015-06-25T13:36:58Z</time>
      </trkpt>
      <trkpt lat="44.9052" lon="5.16771">
        <ele>1119.1</ele>
        <time>2015-06-25T13:37:00Z</time>
      </trkpt>
      <trkpt lat="44.9052" lon="5.1677">
        <ele>1119.7</ele>
        <time>2015-06-25T13:37:46Z</time>
      </trkpt>
      <trkpt lat="44.90522" lon="5.16782">
        <ele>1119.6</ele>
        <time>2015-06-25T13:38:18Z</time>
      </trkpt>
      <trkpt lat="44.90523" lon="5.16782">
        <ele>1119.5</ele>
        <time>2015-06-25T13:38:19Z</time>
      </trkpt>
      <trkpt lat="44.90512" lon="5.16797">
        <ele>1118.5</ele>
        <time>2015-06-25T13:38:53Z</time>
      </trkpt>
      <trkpt lat="44.9051" lon="5.16809">
        <ele>1118.1</ele>
        <time>2015-06-25T13:39:03Z</time>
      </trkpt>
      <trkpt lat="44.90507" lon="5.16821">
        <ele>1115.6</ele>
        <time>2015-06-25T13:39:32Z</time>
      </trkpt>
      <trkpt lat="44.90507" lon="5.16822">
        <ele>1115.4</ele>
        <time>2015-06-25T13:39:33Z</time>
      </trkpt>
      <trkpt lat="44.90504" lon="5.16844">
        <ele>1114</ele>
        <time>2015-06-25T13:39:53Z</time>
      </trkpt>
      <trkpt lat="44.90508" lon="5.16854">
        <ele>1113</ele>
        <time>2015-06-25T13:40:03Z</time>
      </trkpt>
      <trkpt lat="44.90513" lon="5.16863">
        <ele>1112.2</ele>
        <time>2015-06-25T13:40:11Z</time>
      </trkpt>
      <trkpt lat="44.90518" lon="5.16872">
        <ele>1111.8</ele>
        <time>2015-06-25T13:40:20Z</time>
      </trkpt>
      <trkpt lat="44.9052" lon="5.16883">
        <ele>1111.8</ele>
        <time>2015-06-25T13:40:30Z</time>
      </trkpt>
      <trkpt lat="44.90522" lon="5.16894">
        <ele>1111.6</ele>
        <time>2015-06-25T13:40:36Z</time>
      </trkpt>
      <trkpt lat="44.90523" lon="5.16898">
        <ele>1111.6</ele>
        <time>2015-06-25T13:40:37Z</time>
      </trkpt>
      <trkpt lat="44.90529" lon="5.16916">
        <ele>1110.4</ele>
        <time>2015-06-25T13:40:49Z</time>
      </trkpt>
      <trkpt lat="44.90535" lon="5.16925">
        <ele>1110.8</ele>
        <time>2015-06-25T13:40:59Z</time>
      </trkpt>
      <trkpt lat="44.9054" lon="5.16934">
        <ele>1111.4</ele>
        <time>2015-06-25T13:41:11Z</time>
      </trkpt>
      <trkpt lat="44.90543" lon="5.16943">
        <ele>1111.6</ele>
        <time>2015-06-25T13:41:17Z</time>
      </trkpt>
      <trkpt lat="44.90545" lon="5.16954">
        <ele>1111.7</ele>
        <time>2015-06-25T13:41:22Z</time>
      </trkpt>
      <trkpt lat="44.90546" lon="5.16966">
        <ele>1112.5</ele>
        <time>2015-06-25T13:41:28Z</time>
      </trkpt>
      <trkpt lat="44.9055" lon="5.16977">
        <ele>1112.8</ele>
        <time>2015-06-25T13:41:41Z</time>
      </trkpt>
      <trkpt lat="44.9055" lon="5.16979">
        <ele>1112.9</ele>
        <time>2015-06-25T13:41:42Z</time>
      </trkpt>
      <trkpt lat="44.90555" lon="5.16999">
        <ele>1112.7</ele>
        <time>2015-06-25T13:42:05Z</time>
      </trkpt>
      <trkpt lat="44.90553" lon="5.17011">
        <ele>1113.4</ele>
        <time>2015-06-25T13:42:29Z</time>
      </trkpt>
      <trkpt lat="44.90556" lon="5.17023">
        <ele>1114.1</ele>
        <time>2015-06-25T13:42:41Z</time>
      </trkpt>
      <trkpt lat="44.9056" lon="5.17033">
        <ele>1115</ele>
        <time>2015-06-25T13:42:50Z</time>
      </trkpt>
      <trkpt lat="44.9056" lon="5.17034">
        <ele>1115.2</ele>
        <time>2015-06-25T13:42:51Z</time>
      </trkpt>
      <trkpt lat="44.90563" lon="5.17056">
        <ele>1117.7</ele>
        <time>2015-06-25T13:43:12Z</time>
      </trkpt>
      <trkpt lat="44.90566" lon="5.17067">
        <ele>1117</ele>
        <time>2015-06-25T13:43:20Z</time>
      </trkpt>
      <trkpt lat="44.90569" lon="5.17077">
        <ele>1117.3</ele>
        <time>2015-06-25T13:43:28Z</time>
      </trkpt>
      <trkpt lat="44.90573" lon="5.17088">
        <ele>1116.8</ele>
        <time>2015-06-25T13:43:36Z</time>
      </trkpt>
      <trkpt lat="44.90576" lon="5.17099">
        <ele>1116.5</ele>
        <time>2015-06-25T13:43:46Z</time>
      </trkpt>
      <trkpt lat="44.90579" lon="5.1711">
        <ele>1115.8</ele>
        <time>2015-06-25T13:43:56Z</time>
      </trkpt>
      <trkpt lat="44.90579" lon="5.17111">
        <ele>1115.5</ele>
        <time>2015-06-25T13:43:57Z</time>
      </trkpt>
      <trkpt lat="44.90583" lon="5.17133">
        <ele>1115.7</ele>
        <time>2015-06-25T13:44:13Z</time>
      </trkpt>
      <trkpt lat="44.90585" lon="5.17144">
        <ele>1115.5</ele>
        <time>2015-06-25T13:44:23Z</time>
      </trkpt>
      <trkpt lat="44.90587" lon="5.17157">
        <ele>1116.4</ele>
        <time>2015-06-25T13:44:33Z</time>
      </trkpt>
      <trkpt lat="44.90589" lon="5.17169">
        <ele>1116</ele>
        <time>2015-06-25T13:44:42Z</time>
      </trkpt>
      <trkpt lat="44.90592" lon="5.17179">
        <ele>1114.7</ele>
        <time>2015-06-25T13:44:49Z</time>
      </trkpt>
      <trkpt lat="44.90595" lon="5.17191">
        <ele>1113.7</ele>
        <time>2015-06-25T13:44:57Z</time>
      </trkpt>
      <trkpt lat="44.90595" lon="5.17192">
        <ele>1114</ele>
        <time>2015-06-25T13:44:58Z</time>
      </trkpt>
      <trkpt lat="44.90605" lon="5.1721">
        <ele>1115.1</ele>
        <time>2015-06-25T13:45:14Z</time>
      </trkpt>
      <trkpt lat="44.90612" lon="5.17218">
        <ele>1114.5</ele>
        <time>2015-06-25T13:45:24Z</time>
      </trkpt>
      <trkpt lat="44.90616" lon="5.17228">
        <ele>1115.3</ele>
        <time>2015-06-25T13:45:33Z</time>
      </trkpt>
      <trkpt lat="44.90618" lon="5.17241">
        <ele>1115.6</ele>
        <time>2015-06-25T13:45:41Z</time>
      </trkpt>
      <trkpt lat="44.9062" lon="5.17252">
        <ele>1115.3</ele>
        <time>2015-06-25T13:45:49Z</time>
      </trkpt>
      <trkpt lat="44.90626" lon="5.17261">
        <ele>1115.9</ele>
        <time>2015-06-25T13:45:57Z</time>
      </trkpt>
      <trkpt lat="44.90632" lon="5.17268">
        <ele>1115.8</ele>
        <time>2015-06-25T13:46:05Z</time>
      </trkpt>
      <trkpt lat="44.90633" lon="5.17269">
        <ele>1116.2</ele>
        <time>2015-06-25T13:46:06Z</time>
      </trkpt>
      <trkpt lat="44.90641" lon="5.17289">
        <ele>1114.8</ele>
        <time>2015-06-25T13:46:28Z</time>
      </trkpt>
      <trkpt lat="44.90643" lon="5.17301">
        <ele>1115.5</ele>
        <time>2015-06-25T13:46:46Z</time>
      </trkpt>
      <trkpt lat="44.90645" lon="5.17311">
        <ele>1117.1</ele>
        <time>2015-06-25T13:46:58Z</time>
      </trkpt>
      <trkpt lat="44.90644" lon="5.17323">
        <ele>1115.8</ele>
        <time>2015-06-25T13:47:03Z</time>
      </trkpt>
      <trkpt lat="44.90639" lon="5.17332">
        <ele>1116.9</ele>
        <time>2015-06-25T13:47:13Z</time>
      </trkpt>
      <trkpt lat="44.90638" lon="5.17333">
        <ele>1116.7</ele>
        <time>2015-06-25T13:47:14Z</time>
      </trkpt>
      <trkpt lat="44.9063" lon="5.17352">
        <ele>1117.4</ele>
        <time>2015-06-25T13:47:32Z</time>
      </trkpt>
      <trkpt lat="44.90629" lon="5.17363">
        <ele>1117.5</ele>
        <time>2015-06-25T13:47:44Z</time>
      </trkpt>
      <trkpt lat="44.90633" lon="5.17373">
        <ele>1117.9</ele>
        <time>2015-06-25T13:47:53Z</time>
      </trkpt>
      <trkpt lat="44.90634" lon="5.17384">
        <ele>1117.4</ele>
        <time>2015-06-25T13:48:03Z</time>
      </trkpt>
      <trkpt lat="44.90634" lon="5.17396">
        <ele>1117.6</ele>
        <time>2015-06-25T13:48:12Z</time>
      </trkpt>
      <trkpt lat="44.90634" lon="5.17408">
        <ele>1116.4</ele>
        <time>2015-06-25T13:48:22Z</time>
      </trkpt>
      <trkpt lat="44.90634" lon="5.1741">
        <ele>1116.5</ele>
        <time>2015-06-25T13:48:23Z</time>
      </trkpt>
      <trkpt lat="44.90639" lon="5.1743">
        <ele>1114.2</ele>
        <time>2015-06-25T13:48:44Z</time>
      </trkpt>
      <trkpt lat="44.90641" lon="5.17442">
        <ele>1113.9</ele>
        <time>2015-06-25T13:49:06Z</time>
      </trkpt>
      <trkpt lat="44.9064" lon="5.17455">
        <ele>1112.7</ele>
        <time>2015-06-25T13:49:22Z</time>
      </trkpt>
      <trkpt lat="44.90643" lon="5.17466">
        <ele>1111.8</ele>
        <time>2015-06-25T13:49:30Z</time>
      </trkpt>
      <trkpt lat="44.90643" lon="5.17467">
        <ele>1111.7</ele>
        <time>2015-06-25T13:49:31Z</time>
      </trkpt>
      <trkpt lat="44.90648" lon="5.17488">
        <ele>1110.6</ele>
        <time>2015-06-25T13:49:49Z</time>
      </trkpt>
      <trkpt lat="44.90649" lon="5.17499">
        <ele>1109.6</ele>
        <time>2015-06-25T13:49:55Z</time>
      </trkpt>
      <trkpt lat="44.90652" lon="5.1751">
        <ele>1109.3</ele>
        <time>2015-06-25T13:50:03Z</time>
      </trkpt>
      <trkpt lat="44.90657" lon="5.1752">
        <ele>1107.9</ele>
        <time>2015-06-25T13:50:13Z</time>
      </trkpt>
      <trkpt lat="44.9066" lon="5.17531">
        <ele>1107.5</ele>
        <time>2015-06-25T13:50:21Z</time>
      </trkpt>
      <trkpt lat="44.90667" lon="5.17539">
        <ele>1107.3</ele>
        <time>2015-06-25T13:50:31Z</time>
      </trkpt>
      <trkpt lat="44.90667" lon="5.1754">
        <ele>1107</ele>
        <time>2015-06-25T13:50:32Z</time>
      </trkpt>
      <trkpt lat="44.90678" lon="5.17555">
        <ele>1105.7</ele>
        <time>2015-06-25T13:50:51Z</time>
      </trkpt>
      <trkpt lat="44.90683" lon="5.17565">
        <ele>1104.9</ele>
        <time>2015-06-25T13:50:58Z</time>
      </trkpt>
      <trkpt lat="44.90688" lon="5.17575">
        <ele>1102.8</ele>
        <time>2015-06-25T13:51:09Z</time>
      </trkpt>
      <trkpt lat="44.90693" lon="5.17585">
        <ele>1102.6</ele>
        <time>2015-06-25T13:51:16Z</time>
      </trkpt>
      <trkpt lat="44.90694" lon="5.17596">
        <ele>1101.6</ele>
        <time>2015-06-25T13:51:25Z</time>
      </trkpt>
      <trkpt lat="44.90698" lon="5.17607">
        <ele>1101.8</ele>
        <time>2015-06-25T13:51:33Z</time>
      </trkpt>
      <trkpt lat="44.90698" lon="5.17608">
        <ele>1101.6</ele>
        <time>2015-06-25T13:51:34Z</time>
      </trkpt>
      <trkpt lat="44.90705" lon="5.17629">
        <ele>1096.9</ele>
        <time>2015-06-25T13:51:58Z</time>
      </trkpt>
      <trkpt lat="44.90711" lon="5.17638">
        <ele>1095.3</ele>
        <time>2015-06-25T13:53:27Z</time>
      </trkpt>
      <trkpt lat="44.90711" lon="5.1764">
        <ele>1095.2</ele>
        <time>2015-06-25T13:53:28Z</time>
      </trkpt>
      <trkpt lat="44.90709" lon="5.17661">
        <ele>1093.3</ele>
        <time>2015-06-25T13:53:46Z</time>
      </trkpt>
      <trkpt lat="44.90708" lon="5.17672">
        <ele>1091.9</ele>
        <time>2015-06-25T13:53:51Z</time>
      </trkpt>
      <trkpt lat="44.90708" lon="5.17683">
        <ele>1089.7</ele>
        <time>2015-06-25T13:54:03Z</time>
      </trkpt>
      <trkpt lat="44.90707" lon="5.17695">
        <ele>1089.9</ele>
        <time>2015-06-25T13:54:10Z</time>
      </trkpt>
      <trkpt lat="44.90706" lon="5.17707">
        <ele>1088.9</ele>
        <time>2015-06-25T13:54:19Z</time>
      </trkpt>
      <trkpt lat="44.90704" lon="5.17718">
        <ele>1089.1</ele>
        <time>2015-06-25T13:54:27Z</time>
      </trkpt>
      <trkpt lat="44.90702" lon="5.1773">
        <ele>1088.7</ele>
        <time>2015-06-25T13:54:37Z</time>
      </trkpt>
      <trkpt lat="44.90702" lon="5.17731">
        <ele>1088.4</ele>
        <time>2015-06-25T13:54:38Z</time>
      </trkpt>
      <trkpt lat="44.90697" lon="5.17752">
        <ele>1088.9</ele>
        <time>2015-06-25T13:54:52Z</time>
      </trkpt>
      <trkpt lat="44.90694" lon="5.17763">
        <ele>1090.2</ele>
        <time>2015-06-25T13:55:04Z</time>
      </trkpt>
      <trkpt lat="44.9069" lon="5.17775">
        <ele>1090</ele>
        <time>2015-06-25T13:55:12Z</time>
      </trkpt>
      <trkpt lat="44.90686" lon="5.17786">
        <ele>1089.5</ele>
        <time>2015-06-25T13:55:21Z</time>
      </trkpt>
      <trkpt lat="44.90684" lon="5.17797">
        <ele>1089.3</ele>
        <time>2015-06-25T13:55:26Z</time>
      </trkpt>
      <trkpt lat="44.9068" lon="5.17808">
        <ele>1088.4</ele>
        <time>2015-06-25T13:55:33Z</time>
      </trkpt>
      <trkpt lat="44.90685" lon="5.17818">
        <ele>1090.3</ele>
        <time>2015-06-25T13:55:50Z</time>
      </trkpt>
      <trkpt lat="44.90685" lon="5.1782">
        <ele>1090.6</ele>
        <time>2015-06-25T13:55:51Z</time>
      </trkpt>
      <trkpt lat="44.90679" lon="5.17841">
        <ele>1090.7</ele>
        <time>2015-06-25T13:56:12Z</time>
      </trkpt>
      <trkpt lat="44.90673" lon="5.1785">
        <ele>1090.5</ele>
        <time>2015-06-25T13:56:20Z</time>
      </trkpt>
      <trkpt lat="44.90667" lon="5.17857">
        <ele>1090.3</ele>
        <time>2015-06-25T13:56:27Z</time>
      </trkpt>
      <trkpt lat="44.90662" lon="5.17867">
        <ele>1091.9</ele>
        <time>2015-06-25T13:56:35Z</time>
      </trkpt>
      <trkpt lat="44.90657" lon="5.17877">
        <ele>1092.3</ele>
        <time>2015-06-25T13:56:44Z</time>
      </trkpt>
      <trkpt lat="44.90654" lon="5.17887">
        <ele>1091.6</ele>
        <time>2015-06-25T13:56:52Z</time>
      </trkpt>
      <trkpt lat="44.90654" lon="5.17889">
        <ele>1091.5</ele>
        <time>2015-06-25T13:56:53Z</time>
      </trkpt>
      <trkpt lat="44.90653" lon="5.17911">
        <ele>1091.8</ele>
        <time>2015-06-25T13:57:04Z</time>
      </trkpt>
      <trkpt lat="44.90653" lon="5.17923">
        <ele>1091.7</ele>
        <time>2015-06-25T13:57:12Z</time>
      </trkpt>
      <trkpt lat="44.90654" lon="5.17935">
        <ele>1091.2</ele>
        <time>2015-06-25T13:57:25Z</time>
      </trkpt>
      <trkpt lat="44.90653" lon="5.17946">
        <ele>1089.8</ele>
        <time>2015-06-25T13:57:33Z</time>
      </trkpt>
      <trkpt lat="44.90654" lon="5.17958">
        <ele>1087.8</ele>
        <time>2015-06-25T13:57:43Z</time>
      </trkpt>
      <trkpt lat="44.90657" lon="5.17969">
        <ele>1087.7</ele>
        <time>2015-06-25T13:57:50Z</time>
      </trkpt>
      <trkpt lat="44.90659" lon="5.17981">
        <ele>1086.9</ele>
        <time>2015-06-25T13:57:55Z</time>
      </trkpt>
      <trkpt lat="44.90659" lon="5.17983">
        <ele>1086.9</ele>
        <time>2015-06-25T13:57:56Z</time>
      </trkpt>
      <trkpt lat="44.90665" lon="5.18003">
        <ele>1087.5</ele>
        <time>2015-06-25T13:58:08Z</time>
      </trkpt>
      <trkpt lat="44.90671" lon="5.18012">
        <ele>1086.8</ele>
        <time>2015-06-25T13:58:16Z</time>
      </trkpt>
      <trkpt lat="44.90673" lon="5.18024">
        <ele>1086.3</ele>
        <time>2015-06-25T13:58:23Z</time>
      </trkpt>
      <trkpt lat="44.90677" lon="5.18034">
        <ele>1083.5</ele>
        <time>2015-06-25T13:58:36Z</time>
      </trkpt>
      <trkpt lat="44.90679" lon="5.18045">
        <ele>1083.4</ele>
        <time>2015-06-25T13:58:46Z</time>
      </trkpt>
      <trkpt lat="44.90681" lon="5.18057">
        <ele>1082</ele>
        <time>2015-06-25T13:58:53Z</time>
      </trkpt>
      <trkpt lat="44.90685" lon="5.18069">
        <ele>1080.6</ele>
        <time>2015-06-25T13:59:03Z</time>
      </trkpt>
      <trkpt lat="44.90686" lon="5.1807">
        <ele>1080.4</ele>
        <time>2015-06-25T13:59:04Z</time>
      </trkpt>
      <trkpt lat="44.90694" lon="5.18089">
        <ele>1078.3</ele>
        <time>2015-06-25T13:59:18Z</time>
      </trkpt>
      <trkpt lat="44.90699" lon="5.18098">
        <ele>1076.9</ele>
        <time>2015-06-25T13:59:24Z</time>
      </trkpt>
      <trkpt lat="44.90701" lon="5.18109">
        <ele>1075.9</ele>
        <time>2015-06-25T13:59:35Z</time>
      </trkpt>
      <trkpt lat="44.90702" lon="5.18121">
        <ele>1074.7</ele>
        <time>2015-06-25T13:59:43Z</time>
      </trkpt>
      <trkpt lat="44.90703" lon="5.18133">
        <ele>1074.1</ele>
        <time>2015-06-25T13:59:50Z</time>
      </trkpt>
      <trkpt lat="44.90706" lon="5.18145">
        <ele>1072.2</ele>
        <time>2015-06-25T14:00:00Z</time>
      </trkpt>
      <trkpt lat="44.90709" lon="5.18156">
        <ele>1072</ele>
        <time>2015-06-25T14:00:14Z</time>
      </trkpt>
      <trkpt lat="44.90709" lon="5.18157">
        <ele>1072</ele>
        <time>2015-06-25T14:00:15Z</time>
      </trkpt>
      <trkpt lat="44.90706" lon="5.18153">
        <ele>1072.2</ele>
        <time>2015-06-25T14:02:20Z</time>
      </trkpt>
    </trkseg>
  </trk>
</gpx>